<?xml version="1.0" encoding="UTF-8" standalone="no" ?>
<gpx xmlns="http://www.topografix.com/GPX/1/1" xmlns:xsi="http://www.w3.org/2001/XMLSchema-instance" xsi:schemaLocation="http://www.topografix.com/GPX/1/1 http://www.topografix.com/GPX/1/1/gpx.xsd" version="1.1" creator="VisuGPX - https://www.visugpx.com">
  <metadata>
    <name>84-Séjour_Beaumes de Venise_ Boucle autour de Séguret</name>
    <desc><![CDATA[ Boucle autour de Séguret]]></desc>
  </metadata>
  <trk>
    <name><![CDATA[SEGURET5:16:40]]></name>
    <trkseg>
      <trkpt lat="44.20808" lon="5.02466">
        <ele>239.51</ele>
        <time>2011-04-29T07:34:36Z</time>
      </trkpt>
      <trkpt lat="44.2081" lon="5.02464">
        <ele>239.99</ele>
        <time>2011-04-29T07:35:02Z</time>
      </trkpt>
      <trkpt lat="44.20805" lon="5.02442">
        <ele>238.54</ele>
        <time>2011-04-29T07:35:15Z</time>
      </trkpt>
      <trkpt lat="44.20798" lon="5.02426">
        <ele>235.18</ele>
        <time>2011-04-29T07:35:26Z</time>
      </trkpt>
      <trkpt lat="44.20789" lon="5.02423">
        <ele>237.1</ele>
        <time>2011-04-29T07:35:42Z</time>
      </trkpt>
      <trkpt lat="44.2078" lon="5.02416">
        <ele>237.58</ele>
        <time>2011-04-29T07:35:54Z</time>
      </trkpt>
      <trkpt lat="44.20775" lon="5.02405">
        <ele>237.58</ele>
        <time>2011-04-29T07:36:05Z</time>
      </trkpt>
      <trkpt lat="44.20774" lon="5.02403">
        <ele>237.1</ele>
        <time>2011-04-29T07:36:06Z</time>
      </trkpt>
      <trkpt lat="44.20768" lon="5.02391">
        <ele>238.06</ele>
        <time>2011-04-29T07:36:20Z</time>
      </trkpt>
      <trkpt lat="44.2076" lon="5.02375">
        <ele>238.06</ele>
        <time>2011-04-29T07:36:32Z</time>
      </trkpt>
      <trkpt lat="44.20753" lon="5.02367">
        <ele>238.54</ele>
        <time>2011-04-29T07:36:39Z</time>
      </trkpt>
      <trkpt lat="44.20747" lon="5.02356">
        <ele>239.51</ele>
        <time>2011-04-29T07:36:49Z</time>
      </trkpt>
      <trkpt lat="44.20741" lon="5.02349">
        <ele>240.47</ele>
        <time>2011-04-29T07:36:56Z</time>
      </trkpt>
      <trkpt lat="44.20738" lon="5.02345">
        <ele>240.47</ele>
        <time>2011-04-29T07:37:00Z</time>
      </trkpt>
      <trkpt lat="44.20734" lon="5.0234">
        <ele>240.47</ele>
        <time>2011-04-29T07:37:05Z</time>
      </trkpt>
      <trkpt lat="44.20731" lon="5.02338">
        <ele>240.95</ele>
        <time>2011-04-29T07:37:08Z</time>
      </trkpt>
      <trkpt lat="44.20717" lon="5.02326">
        <ele>241.91</ele>
        <time>2011-04-29T07:37:21Z</time>
      </trkpt>
      <trkpt lat="44.20708" lon="5.02317">
        <ele>242.39</ele>
        <time>2011-04-29T07:37:32Z</time>
      </trkpt>
      <trkpt lat="44.20706" lon="5.02315">
        <ele>242.87</ele>
        <time>2011-04-29T07:37:34Z</time>
      </trkpt>
      <trkpt lat="44.20692" lon="5.02301">
        <ele>243.83</ele>
        <time>2011-04-29T07:37:49Z</time>
      </trkpt>
      <trkpt lat="44.2068" lon="5.02292">
        <ele>244.79</ele>
        <time>2011-04-29T07:38:01Z</time>
      </trkpt>
      <trkpt lat="44.20675" lon="5.02287">
        <ele>244.79</ele>
        <time>2011-04-29T07:38:08Z</time>
      </trkpt>
      <trkpt lat="44.20672" lon="5.02284">
        <ele>245.75</ele>
        <time>2011-04-29T07:38:12Z</time>
      </trkpt>
      <trkpt lat="44.20662" lon="5.02276">
        <ele>246.23</ele>
        <time>2011-04-29T07:38:22Z</time>
      </trkpt>
      <trkpt lat="44.20664" lon="5.02292">
        <ele>248.64</ele>
        <time>2011-04-29T07:38:35Z</time>
      </trkpt>
      <trkpt lat="44.20671" lon="5.02303">
        <ele>249.6</ele>
        <time>2011-04-29T07:38:46Z</time>
      </trkpt>
      <trkpt lat="44.20679" lon="5.02313">
        <ele>251.04</ele>
        <time>2011-04-29T07:38:58Z</time>
      </trkpt>
      <trkpt lat="44.2068" lon="5.02315">
        <ele>251.04</ele>
        <time>2011-04-29T07:38:59Z</time>
      </trkpt>
      <trkpt lat="44.20682" lon="5.02318">
        <ele>251.52</ele>
        <time>2011-04-29T07:39:02Z</time>
      </trkpt>
      <trkpt lat="44.20694" lon="5.02328">
        <ele>252.48</ele>
        <time>2011-04-29T07:39:15Z</time>
      </trkpt>
      <trkpt lat="44.20697" lon="5.0233">
        <ele>252.48</ele>
        <time>2011-04-29T07:39:18Z</time>
      </trkpt>
      <trkpt lat="44.20706" lon="5.02342">
        <ele>253.93</ele>
        <time>2011-04-29T07:39:30Z</time>
      </trkpt>
      <trkpt lat="44.20708" lon="5.02346">
        <ele>253.93</ele>
        <time>2011-04-29T07:39:33Z</time>
      </trkpt>
      <trkpt lat="44.20711" lon="5.02351">
        <ele>254.41</ele>
        <time>2011-04-29T07:39:37Z</time>
      </trkpt>
      <trkpt lat="44.20716" lon="5.0236">
        <ele>255.37</ele>
        <time>2011-04-29T07:39:45Z</time>
      </trkpt>
      <trkpt lat="44.2072" lon="5.02366">
        <ele>255.85</ele>
        <time>2011-04-29T07:39:51Z</time>
      </trkpt>
      <trkpt lat="44.20726" lon="5.02379">
        <ele>257.29</ele>
        <time>2011-04-29T07:40:03Z</time>
      </trkpt>
      <trkpt lat="44.20734" lon="5.02393">
        <ele>258.73</ele>
        <time>2011-04-29T07:40:17Z</time>
      </trkpt>
      <trkpt lat="44.2074" lon="5.02405">
        <ele>259.69</ele>
        <time>2011-04-29T07:40:28Z</time>
      </trkpt>
      <trkpt lat="44.20741" lon="5.02415">
        <ele>260.65</ele>
        <time>2011-04-29T07:40:39Z</time>
      </trkpt>
      <trkpt lat="44.20741" lon="5.02415">
        <ele>260.17</ele>
        <time>2011-04-29T07:40:44Z</time>
      </trkpt>
      <trkpt lat="44.20749" lon="5.02432">
        <ele>261.14</ele>
        <time>2011-04-29T07:40:58Z</time>
      </trkpt>
      <trkpt lat="44.20752" lon="5.02441">
        <ele>262.1</ele>
        <time>2011-04-29T07:41:04Z</time>
      </trkpt>
      <trkpt lat="44.20754" lon="5.02453">
        <ele>263.54</ele>
        <time>2011-04-29T07:41:16Z</time>
      </trkpt>
      <trkpt lat="44.20757" lon="5.0246">
        <ele>264.98</ele>
        <time>2011-04-29T07:41:27Z</time>
      </trkpt>
      <trkpt lat="44.20758" lon="5.02469">
        <ele>266.42</ele>
        <time>2011-04-29T07:41:38Z</time>
      </trkpt>
      <trkpt lat="44.2076" lon="5.02477">
        <ele>267.86</ele>
        <time>2011-04-29T07:41:49Z</time>
      </trkpt>
      <trkpt lat="44.2076" lon="5.02486">
        <ele>268.35</ele>
        <time>2011-04-29T07:41:59Z</time>
      </trkpt>
      <trkpt lat="44.2076" lon="5.02497">
        <ele>270.75</ele>
        <time>2011-04-29T07:42:12Z</time>
      </trkpt>
      <trkpt lat="44.20762" lon="5.02504">
        <ele>272.19</ele>
        <time>2011-04-29T07:42:22Z</time>
      </trkpt>
      <trkpt lat="44.20761" lon="5.0251">
        <ele>273.63</ele>
        <time>2011-04-29T07:42:33Z</time>
      </trkpt>
      <trkpt lat="44.20759" lon="5.02506">
        <ele>274.59</ele>
        <time>2011-04-29T07:42:42Z</time>
      </trkpt>
      <trkpt lat="44.20752" lon="5.02496">
        <ele>276.04</ele>
        <time>2011-04-29T07:42:56Z</time>
      </trkpt>
      <trkpt lat="44.20745" lon="5.02486">
        <ele>277.48</ele>
        <time>2011-04-29T07:43:10Z</time>
      </trkpt>
      <trkpt lat="44.20742" lon="5.02479">
        <ele>277.96</ele>
        <time>2011-04-29T07:43:19Z</time>
      </trkpt>
      <trkpt lat="44.2074" lon="5.02472">
        <ele>279.4</ele>
        <time>2011-04-29T07:43:29Z</time>
      </trkpt>
      <trkpt lat="44.20735" lon="5.02466">
        <ele>280.84</ele>
        <time>2011-04-29T07:43:41Z</time>
      </trkpt>
      <trkpt lat="44.2073" lon="5.02458">
        <ele>282.28</ele>
        <time>2011-04-29T07:43:52Z</time>
      </trkpt>
      <trkpt lat="44.20723" lon="5.0245">
        <ele>283.73</ele>
        <time>2011-04-29T07:44:05Z</time>
      </trkpt>
      <trkpt lat="44.2072" lon="5.02441">
        <ele>285.17</ele>
        <time>2011-04-29T07:44:18Z</time>
      </trkpt>
      <trkpt lat="44.20715" lon="5.02433">
        <ele>286.13</ele>
        <time>2011-04-29T07:44:28Z</time>
      </trkpt>
      <trkpt lat="44.20708" lon="5.02429">
        <ele>288.53</ele>
        <time>2011-04-29T07:44:40Z</time>
      </trkpt>
      <trkpt lat="44.20704" lon="5.02426">
        <ele>289.01</ele>
        <time>2011-04-29T07:44:50Z</time>
      </trkpt>
      <trkpt lat="44.20699" lon="5.02423">
        <ele>291.42</ele>
        <time>2011-04-29T07:44:59Z</time>
      </trkpt>
      <trkpt lat="44.20696" lon="5.02422">
        <ele>291.42</ele>
        <time>2011-04-29T07:45:03Z</time>
      </trkpt>
      <trkpt lat="44.20692" lon="5.02415">
        <ele>292.86</ele>
        <time>2011-04-29T07:45:13Z</time>
      </trkpt>
      <trkpt lat="44.20687" lon="5.02408">
        <ele>294.3</ele>
        <time>2011-04-29T07:45:24Z</time>
      </trkpt>
      <trkpt lat="44.20686" lon="5.02408">
        <ele>294.3</ele>
        <time>2011-04-29T07:45:25Z</time>
      </trkpt>
      <trkpt lat="44.20681" lon="5.02408">
        <ele>295.74</ele>
        <time>2011-04-29T07:45:31Z</time>
      </trkpt>
      <trkpt lat="44.20676" lon="5.02405">
        <ele>296.7</ele>
        <time>2011-04-29T07:45:41Z</time>
      </trkpt>
      <trkpt lat="44.20666" lon="5.02401">
        <ele>297.18</ele>
        <time>2011-04-29T07:45:55Z</time>
      </trkpt>
      <trkpt lat="44.20666" lon="5.02398">
        <ele>297.18</ele>
        <time>2011-04-29T07:47:53Z</time>
      </trkpt>
      <trkpt lat="44.20661" lon="5.02395">
        <ele>297.18</ele>
        <time>2011-04-29T07:48:14Z</time>
      </trkpt>
      <trkpt lat="44.20661" lon="5.02406">
        <ele>298.63</ele>
        <time>2011-04-29T07:48:36Z</time>
      </trkpt>
      <trkpt lat="44.20668" lon="5.02416">
        <ele>300.07</ele>
        <time>2011-04-29T07:48:49Z</time>
      </trkpt>
      <trkpt lat="44.20672" lon="5.02422">
        <ele>301.03</ele>
        <time>2011-04-29T07:49:01Z</time>
      </trkpt>
      <trkpt lat="44.20676" lon="5.02431">
        <ele>302.47</ele>
        <time>2011-04-29T07:49:15Z</time>
      </trkpt>
      <trkpt lat="44.20676" lon="5.02437">
        <ele>304.39</ele>
        <time>2011-04-29T07:49:37Z</time>
      </trkpt>
      <trkpt lat="44.20673" lon="5.02438">
        <ele>305.84</ele>
        <time>2011-04-29T07:49:46Z</time>
      </trkpt>
      <trkpt lat="44.20669" lon="5.02435">
        <ele>307.28</ele>
        <time>2011-04-29T07:49:57Z</time>
      </trkpt>
      <trkpt lat="44.20666" lon="5.02435">
        <ele>308.72</ele>
        <time>2011-04-29T07:50:09Z</time>
      </trkpt>
      <trkpt lat="44.2066" lon="5.02437">
        <ele>310.64</ele>
        <time>2011-04-29T07:50:21Z</time>
      </trkpt>
      <trkpt lat="44.20654" lon="5.02438">
        <ele>311.6</ele>
        <time>2011-04-29T07:50:30Z</time>
      </trkpt>
      <trkpt lat="44.2065" lon="5.02438">
        <ele>312.57</ele>
        <time>2011-04-29T07:50:41Z</time>
      </trkpt>
      <trkpt lat="44.20645" lon="5.02438">
        <ele>314.49</ele>
        <time>2011-04-29T07:50:53Z</time>
      </trkpt>
      <trkpt lat="44.20639" lon="5.02438">
        <ele>315.45</ele>
        <time>2011-04-29T07:51:04Z</time>
      </trkpt>
      <trkpt lat="44.20632" lon="5.02436">
        <ele>316.41</ele>
        <time>2011-04-29T07:51:12Z</time>
      </trkpt>
      <trkpt lat="44.20628" lon="5.0244">
        <ele>317.37</ele>
        <time>2011-04-29T07:51:22Z</time>
      </trkpt>
      <trkpt lat="44.20623" lon="5.02442">
        <ele>318.81</ele>
        <time>2011-04-29T07:51:34Z</time>
      </trkpt>
      <trkpt lat="44.20616" lon="5.02444">
        <ele>320.74</ele>
        <time>2011-04-29T07:51:48Z</time>
      </trkpt>
      <trkpt lat="44.20609" lon="5.02451">
        <ele>322.18</ele>
        <time>2011-04-29T07:52:00Z</time>
      </trkpt>
      <trkpt lat="44.20602" lon="5.02454">
        <ele>324.1</ele>
        <time>2011-04-29T07:52:49Z</time>
      </trkpt>
      <trkpt lat="44.20595" lon="5.02455">
        <ele>325.06</ele>
        <time>2011-04-29T07:52:59Z</time>
      </trkpt>
      <trkpt lat="44.20592" lon="5.02455">
        <ele>326.02</ele>
        <time>2011-04-29T07:53:04Z</time>
      </trkpt>
      <trkpt lat="44.20586" lon="5.02458">
        <ele>327.47</ele>
        <time>2011-04-29T07:53:18Z</time>
      </trkpt>
      <trkpt lat="44.2058" lon="5.02458">
        <ele>328.91</ele>
        <time>2011-04-29T07:53:28Z</time>
      </trkpt>
      <trkpt lat="44.20569" lon="5.02457">
        <ele>329.87</ele>
        <time>2011-04-29T07:53:40Z</time>
      </trkpt>
      <trkpt lat="44.20561" lon="5.02457">
        <ele>331.31</ele>
        <time>2011-04-29T07:53:52Z</time>
      </trkpt>
      <trkpt lat="44.20553" lon="5.02457">
        <ele>331.79</ele>
        <time>2011-04-29T07:54:02Z</time>
      </trkpt>
      <trkpt lat="44.20544" lon="5.02461">
        <ele>333.23</ele>
        <time>2011-04-29T07:54:12Z</time>
      </trkpt>
      <trkpt lat="44.2054" lon="5.0247">
        <ele>334.2</ele>
        <time>2011-04-29T07:54:23Z</time>
      </trkpt>
      <trkpt lat="44.20544" lon="5.02477">
        <ele>337.08</ele>
        <time>2011-04-29T07:54:40Z</time>
      </trkpt>
      <trkpt lat="44.20553" lon="5.02482">
        <ele>339.48</ele>
        <time>2011-04-29T07:54:56Z</time>
      </trkpt>
      <trkpt lat="44.2056" lon="5.02486">
        <ele>340.44</ele>
        <time>2011-04-29T07:55:11Z</time>
      </trkpt>
      <trkpt lat="44.20568" lon="5.02491">
        <ele>341.89</ele>
        <time>2011-04-29T07:55:27Z</time>
      </trkpt>
      <trkpt lat="44.20575" lon="5.02492">
        <ele>342.85</ele>
        <time>2011-04-29T07:55:37Z</time>
      </trkpt>
      <trkpt lat="44.20584" lon="5.02495">
        <ele>344.29</ele>
        <time>2011-04-29T07:55:51Z</time>
      </trkpt>
      <trkpt lat="44.20588" lon="5.02497">
        <ele>345.25</ele>
        <time>2011-04-29T07:56:02Z</time>
      </trkpt>
      <trkpt lat="44.20588" lon="5.02497">
        <ele>344.77</ele>
        <time>2011-04-29T07:56:04Z</time>
      </trkpt>
      <trkpt lat="44.20595" lon="5.02502">
        <ele>346.69</ele>
        <time>2011-04-29T07:56:20Z</time>
      </trkpt>
      <trkpt lat="44.20603" lon="5.02507">
        <ele>348.62</ele>
        <time>2011-04-29T07:56:35Z</time>
      </trkpt>
      <trkpt lat="44.20608" lon="5.02508">
        <ele>350.06</ele>
        <time>2011-04-29T07:56:48Z</time>
      </trkpt>
      <trkpt lat="44.20615" lon="5.02512">
        <ele>351.5</ele>
        <time>2011-04-29T07:56:58Z</time>
      </trkpt>
      <trkpt lat="44.20624" lon="5.02516">
        <ele>353.42</ele>
        <time>2011-04-29T07:57:13Z</time>
      </trkpt>
      <trkpt lat="44.20633" lon="5.02526">
        <ele>355.34</ele>
        <time>2011-04-29T07:57:33Z</time>
      </trkpt>
      <trkpt lat="44.20631" lon="5.02528">
        <ele>356.79</ele>
        <time>2011-04-29T07:57:43Z</time>
      </trkpt>
      <trkpt lat="44.20626" lon="5.02526">
        <ele>357.75</ele>
        <time>2011-04-29T07:57:52Z</time>
      </trkpt>
      <trkpt lat="44.20618" lon="5.02529">
        <ele>359.19</ele>
        <time>2011-04-29T07:58:04Z</time>
      </trkpt>
      <trkpt lat="44.20611" lon="5.02531">
        <ele>360.63</ele>
        <time>2011-04-29T07:58:16Z</time>
      </trkpt>
      <trkpt lat="44.20606" lon="5.02535">
        <ele>361.59</ele>
        <time>2011-04-29T07:58:27Z</time>
      </trkpt>
      <trkpt lat="44.20604" lon="5.02535">
        <ele>362.07</ele>
        <time>2011-04-29T07:58:29Z</time>
      </trkpt>
      <trkpt lat="44.20607" lon="5.02542">
        <ele>363.04</ele>
        <time>2011-04-29T07:58:39Z</time>
      </trkpt>
      <trkpt lat="44.20615" lon="5.02548">
        <ele>364</ele>
        <time>2011-04-29T07:58:51Z</time>
      </trkpt>
      <trkpt lat="44.20619" lon="5.02552">
        <ele>364.48</ele>
        <time>2011-04-29T07:59:05Z</time>
      </trkpt>
      <trkpt lat="44.2062" lon="5.02549">
        <ele>364.48</ele>
        <time>2011-04-29T07:59:13Z</time>
      </trkpt>
      <trkpt lat="44.2062" lon="5.02549">
        <ele>364</ele>
        <time>2011-04-29T08:01:25Z</time>
      </trkpt>
      <trkpt lat="44.20618" lon="5.02555">
        <ele>364</ele>
        <time>2011-04-29T08:01:37Z</time>
      </trkpt>
      <trkpt lat="44.20623" lon="5.02561">
        <ele>364</ele>
        <time>2011-04-29T08:01:49Z</time>
      </trkpt>
      <trkpt lat="44.20624" lon="5.02553">
        <ele>364</ele>
        <time>2011-04-29T08:02:11Z</time>
      </trkpt>
      <trkpt lat="44.20624" lon="5.02545">
        <ele>362.55</ele>
        <time>2011-04-29T08:02:23Z</time>
      </trkpt>
      <trkpt lat="44.20627" lon="5.0254">
        <ele>361.11</ele>
        <time>2011-04-29T08:02:35Z</time>
      </trkpt>
      <trkpt lat="44.20632" lon="5.0255">
        <ele>359.67</ele>
        <time>2011-04-29T08:02:53Z</time>
      </trkpt>
      <trkpt lat="44.20632" lon="5.02554">
        <ele>359.19</ele>
        <time>2011-04-29T08:02:56Z</time>
      </trkpt>
      <trkpt lat="44.20632" lon="5.02568">
        <ele>358.71</ele>
        <time>2011-04-29T08:03:08Z</time>
      </trkpt>
      <trkpt lat="44.20627" lon="5.02573">
        <ele>358.71</ele>
        <time>2011-04-29T08:03:15Z</time>
      </trkpt>
      <trkpt lat="44.20615" lon="5.02575">
        <ele>359.19</ele>
        <time>2011-04-29T08:03:28Z</time>
      </trkpt>
      <trkpt lat="44.20608" lon="5.02577">
        <ele>357.75</ele>
        <time>2011-04-29T08:03:37Z</time>
      </trkpt>
      <trkpt lat="44.20603" lon="5.02578">
        <ele>356.79</ele>
        <time>2011-04-29T08:03:43Z</time>
      </trkpt>
      <trkpt lat="44.20595" lon="5.02582">
        <ele>353.42</ele>
        <time>2011-04-29T08:04:04Z</time>
      </trkpt>
      <trkpt lat="44.20586" lon="5.02582">
        <ele>351.5</ele>
        <time>2011-04-29T08:04:15Z</time>
      </trkpt>
      <trkpt lat="44.20577" lon="5.02579">
        <ele>350.54</ele>
        <time>2011-04-29T08:04:27Z</time>
      </trkpt>
      <trkpt lat="44.20564" lon="5.02574">
        <ele>350.06</ele>
        <time>2011-04-29T08:04:40Z</time>
      </trkpt>
      <trkpt lat="44.20557" lon="5.02566">
        <ele>347.65</ele>
        <time>2011-04-29T08:04:52Z</time>
      </trkpt>
      <trkpt lat="44.20553" lon="5.0256">
        <ele>346.21</ele>
        <time>2011-04-29T08:05:02Z</time>
      </trkpt>
      <trkpt lat="44.2055" lon="5.02557">
        <ele>345.25</ele>
        <time>2011-04-29T08:05:16Z</time>
      </trkpt>
      <trkpt lat="44.20547" lon="5.02556">
        <ele>344.29</ele>
        <time>2011-04-29T08:05:21Z</time>
      </trkpt>
      <trkpt lat="44.20545" lon="5.02558">
        <ele>342.85</ele>
        <time>2011-04-29T08:05:30Z</time>
      </trkpt>
      <trkpt lat="44.20546" lon="5.02564">
        <ele>341.89</ele>
        <time>2011-04-29T08:05:43Z</time>
      </trkpt>
      <trkpt lat="44.20548" lon="5.02575">
        <ele>340.44</ele>
        <time>2011-04-29T08:05:54Z</time>
      </trkpt>
      <trkpt lat="44.20551" lon="5.02586">
        <ele>339</ele>
        <time>2011-04-29T08:06:06Z</time>
      </trkpt>
      <trkpt lat="44.20553" lon="5.02592">
        <ele>338.52</ele>
        <time>2011-04-29T08:06:12Z</time>
      </trkpt>
      <trkpt lat="44.20559" lon="5.02604">
        <ele>336.6</ele>
        <time>2011-04-29T08:06:23Z</time>
      </trkpt>
      <trkpt lat="44.20564" lon="5.02605">
        <ele>335.64</ele>
        <time>2011-04-29T08:06:30Z</time>
      </trkpt>
      <trkpt lat="44.20569" lon="5.02612">
        <ele>333.71</ele>
        <time>2011-04-29T08:06:41Z</time>
      </trkpt>
      <trkpt lat="44.20574" lon="5.02621">
        <ele>331.31</ele>
        <time>2011-04-29T08:06:52Z</time>
      </trkpt>
      <trkpt lat="44.2058" lon="5.02627">
        <ele>328.91</ele>
        <time>2011-04-29T08:07:03Z</time>
      </trkpt>
      <trkpt lat="44.20586" lon="5.02629">
        <ele>327.47</ele>
        <time>2011-04-29T08:07:11Z</time>
      </trkpt>
      <trkpt lat="44.20587" lon="5.02632">
        <ele>326.99</ele>
        <time>2011-04-29T08:07:13Z</time>
      </trkpt>
      <trkpt lat="44.2059" lon="5.02632">
        <ele>325.54</ele>
        <time>2011-04-29T08:07:18Z</time>
      </trkpt>
      <trkpt lat="44.20591" lon="5.02634">
        <ele>324.58</ele>
        <time>2011-04-29T08:07:20Z</time>
      </trkpt>
      <trkpt lat="44.20592" lon="5.02637">
        <ele>324.1</ele>
        <time>2011-04-29T08:07:23Z</time>
      </trkpt>
      <trkpt lat="44.20599" lon="5.02641">
        <ele>322.18</ele>
        <time>2011-04-29T08:07:33Z</time>
      </trkpt>
      <trkpt lat="44.20606" lon="5.02648">
        <ele>321.22</ele>
        <time>2011-04-29T08:07:44Z</time>
      </trkpt>
      <trkpt lat="44.20611" lon="5.02647">
        <ele>320.26</ele>
        <time>2011-04-29T08:07:49Z</time>
      </trkpt>
      <trkpt lat="44.20618" lon="5.0265">
        <ele>318.81</ele>
        <time>2011-04-29T08:07:59Z</time>
      </trkpt>
      <trkpt lat="44.20624" lon="5.02654">
        <ele>317.85</ele>
        <time>2011-04-29T08:08:05Z</time>
      </trkpt>
      <trkpt lat="44.20634" lon="5.02661">
        <ele>315.45</ele>
        <time>2011-04-29T08:08:17Z</time>
      </trkpt>
      <trkpt lat="44.2064" lon="5.02666">
        <ele>313.53</ele>
        <time>2011-04-29T08:08:24Z</time>
      </trkpt>
      <trkpt lat="44.20645" lon="5.02667">
        <ele>313.05</ele>
        <time>2011-04-29T08:08:29Z</time>
      </trkpt>
      <trkpt lat="44.20647" lon="5.0267">
        <ele>312.09</ele>
        <time>2011-04-29T08:08:32Z</time>
      </trkpt>
      <trkpt lat="44.20657" lon="5.02669">
        <ele>309.68</ele>
        <time>2011-04-29T08:08:44Z</time>
      </trkpt>
      <trkpt lat="44.20661" lon="5.02668">
        <ele>308.72</ele>
        <time>2011-04-29T08:08:47Z</time>
      </trkpt>
      <trkpt lat="44.20665" lon="5.02669">
        <ele>308.24</ele>
        <time>2011-04-29T08:08:51Z</time>
      </trkpt>
      <trkpt lat="44.20669" lon="5.02667">
        <ele>307.76</ele>
        <time>2011-04-29T08:08:55Z</time>
      </trkpt>
      <trkpt lat="44.20683" lon="5.02661">
        <ele>305.84</ele>
        <time>2011-04-29T08:09:09Z</time>
      </trkpt>
      <trkpt lat="44.20687" lon="5.02658">
        <ele>305.36</ele>
        <time>2011-04-29T08:09:13Z</time>
      </trkpt>
      <trkpt lat="44.20699" lon="5.02651">
        <ele>303.43</ele>
        <time>2011-04-29T08:09:26Z</time>
      </trkpt>
      <trkpt lat="44.20706" lon="5.02649">
        <ele>301.99</ele>
        <time>2011-04-29T08:09:38Z</time>
      </trkpt>
      <trkpt lat="44.20715" lon="5.02647">
        <ele>300.07</ele>
        <time>2011-04-29T08:09:47Z</time>
      </trkpt>
      <trkpt lat="44.20712" lon="5.02655">
        <ele>297.67</ele>
        <time>2011-04-29T08:10:00Z</time>
      </trkpt>
      <trkpt lat="44.20709" lon="5.02663">
        <ele>295.74</ele>
        <time>2011-04-29T08:10:10Z</time>
      </trkpt>
      <trkpt lat="44.20706" lon="5.02672">
        <ele>293.34</ele>
        <time>2011-04-29T08:10:20Z</time>
      </trkpt>
      <trkpt lat="44.20706" lon="5.02673">
        <ele>293.34</ele>
        <time>2011-04-29T08:10:21Z</time>
      </trkpt>
      <trkpt lat="44.20706" lon="5.02688">
        <ele>291.9</ele>
        <time>2011-04-29T08:10:32Z</time>
      </trkpt>
      <trkpt lat="44.20706" lon="5.02691">
        <ele>291.42</ele>
        <time>2011-04-29T08:10:34Z</time>
      </trkpt>
      <trkpt lat="44.20701" lon="5.027">
        <ele>288.53</ele>
        <time>2011-04-29T08:10:46Z</time>
      </trkpt>
      <trkpt lat="44.20701" lon="5.02704">
        <ele>288.05</ele>
        <time>2011-04-29T08:10:50Z</time>
      </trkpt>
      <trkpt lat="44.20697" lon="5.02715">
        <ele>286.61</ele>
        <time>2011-04-29T08:10:59Z</time>
      </trkpt>
      <trkpt lat="44.20692" lon="5.02726">
        <ele>285.65</ele>
        <time>2011-04-29T08:11:07Z</time>
      </trkpt>
      <trkpt lat="44.20685" lon="5.02743">
        <ele>283.25</ele>
        <time>2011-04-29T08:11:21Z</time>
      </trkpt>
      <trkpt lat="44.2068" lon="5.02756">
        <ele>280.84</ele>
        <time>2011-04-29T08:11:34Z</time>
      </trkpt>
      <trkpt lat="44.20677" lon="5.0277">
        <ele>278.44</ele>
        <time>2011-04-29T08:11:46Z</time>
      </trkpt>
      <trkpt lat="44.20674" lon="5.02782">
        <ele>277</ele>
        <time>2011-04-29T08:11:56Z</time>
      </trkpt>
      <trkpt lat="44.20671" lon="5.02797">
        <ele>276.52</ele>
        <time>2011-04-29T08:12:06Z</time>
      </trkpt>
      <trkpt lat="44.20667" lon="5.02807">
        <ele>275.07</ele>
        <time>2011-04-29T08:12:16Z</time>
      </trkpt>
      <trkpt lat="44.20655" lon="5.02805">
        <ele>275.56</ele>
        <time>2011-04-29T08:12:29Z</time>
      </trkpt>
      <trkpt lat="44.2064" lon="5.02801">
        <ele>274.59</ele>
        <time>2011-04-29T08:12:44Z</time>
      </trkpt>
      <trkpt lat="44.20629" lon="5.02802">
        <ele>273.63</ele>
        <time>2011-04-29T08:12:54Z</time>
      </trkpt>
      <trkpt lat="44.20619" lon="5.02802">
        <ele>272.19</ele>
        <time>2011-04-29T08:13:05Z</time>
      </trkpt>
      <trkpt lat="44.2061" lon="5.02803">
        <ele>270.75</ele>
        <time>2011-04-29T08:13:16Z</time>
      </trkpt>
      <trkpt lat="44.20607" lon="5.02804">
        <ele>269.79</ele>
        <time>2011-04-29T08:13:20Z</time>
      </trkpt>
      <trkpt lat="44.20602" lon="5.02804">
        <ele>269.31</ele>
        <time>2011-04-29T08:13:25Z</time>
      </trkpt>
      <trkpt lat="44.20596" lon="5.02805">
        <ele>267.86</ele>
        <time>2011-04-29T08:13:35Z</time>
      </trkpt>
      <trkpt lat="44.20586" lon="5.02807">
        <ele>266.9</ele>
        <time>2011-04-29T08:13:46Z</time>
      </trkpt>
      <trkpt lat="44.20572" lon="5.02811">
        <ele>264.5</ele>
        <time>2011-04-29T08:14:00Z</time>
      </trkpt>
      <trkpt lat="44.20567" lon="5.02811">
        <ele>263.54</ele>
        <time>2011-04-29T08:14:06Z</time>
      </trkpt>
      <trkpt lat="44.20552" lon="5.02812">
        <ele>261.62</ele>
        <time>2011-04-29T08:14:19Z</time>
      </trkpt>
      <trkpt lat="44.20546" lon="5.02811">
        <ele>260.65</ele>
        <time>2011-04-29T08:14:25Z</time>
      </trkpt>
      <trkpt lat="44.20536" lon="5.02809">
        <ele>258.73</ele>
        <time>2011-04-29T08:14:37Z</time>
      </trkpt>
      <trkpt lat="44.20532" lon="5.02809">
        <ele>257.29</ele>
        <time>2011-04-29T08:14:43Z</time>
      </trkpt>
      <trkpt lat="44.20528" lon="5.02807">
        <ele>256.81</ele>
        <time>2011-04-29T08:14:47Z</time>
      </trkpt>
      <trkpt lat="44.20525" lon="5.02808">
        <ele>255.37</ele>
        <time>2011-04-29T08:14:51Z</time>
      </trkpt>
      <trkpt lat="44.20513" lon="5.02805">
        <ele>252.96</ele>
        <time>2011-04-29T08:15:06Z</time>
      </trkpt>
      <trkpt lat="44.20506" lon="5.02803">
        <ele>251.04</ele>
        <time>2011-04-29T08:15:15Z</time>
      </trkpt>
      <trkpt lat="44.20494" lon="5.02796">
        <ele>249.6</ele>
        <time>2011-04-29T08:15:29Z</time>
      </trkpt>
      <trkpt lat="44.20489" lon="5.02794">
        <ele>249.12</ele>
        <time>2011-04-29T08:15:34Z</time>
      </trkpt>
      <trkpt lat="44.20485" lon="5.02793">
        <ele>248.64</ele>
        <time>2011-04-29T08:15:38Z</time>
      </trkpt>
      <trkpt lat="44.20478" lon="5.0279">
        <ele>246.72</ele>
        <time>2011-04-29T08:15:46Z</time>
      </trkpt>
      <trkpt lat="44.2047" lon="5.02783">
        <ele>245.27</ele>
        <time>2011-04-29T08:15:57Z</time>
      </trkpt>
      <trkpt lat="44.20467" lon="5.02783">
        <ele>243.83</ele>
        <time>2011-04-29T08:16:01Z</time>
      </trkpt>
      <trkpt lat="44.20461" lon="5.02785">
        <ele>242.39</ele>
        <time>2011-04-29T08:16:07Z</time>
      </trkpt>
      <trkpt lat="44.2045" lon="5.02783">
        <ele>240.47</ele>
        <time>2011-04-29T08:16:20Z</time>
      </trkpt>
      <trkpt lat="44.20446" lon="5.02779">
        <ele>239.99</ele>
        <time>2011-04-29T08:16:25Z</time>
      </trkpt>
      <trkpt lat="44.20443" lon="5.02778">
        <ele>239.02</ele>
        <time>2011-04-29T08:16:29Z</time>
      </trkpt>
      <trkpt lat="44.20433" lon="5.02772">
        <ele>237.1</ele>
        <time>2011-04-29T08:16:40Z</time>
      </trkpt>
      <trkpt lat="44.20433" lon="5.02771">
        <ele>236.62</ele>
        <time>2011-04-29T08:16:41Z</time>
      </trkpt>
      <trkpt lat="44.20423" lon="5.02766">
        <ele>236.14</ele>
        <time>2011-04-29T08:16:51Z</time>
      </trkpt>
      <trkpt lat="44.20421" lon="5.02763">
        <ele>235.18</ele>
        <time>2011-04-29T08:16:54Z</time>
      </trkpt>
      <trkpt lat="44.20416" lon="5.02752">
        <ele>234.22</ele>
        <time>2011-04-29T08:17:03Z</time>
      </trkpt>
      <trkpt lat="44.20415" lon="5.02749">
        <ele>234.7</ele>
        <time>2011-04-29T08:17:05Z</time>
      </trkpt>
      <trkpt lat="44.20411" lon="5.02744">
        <ele>233.26</ele>
        <time>2011-04-29T08:17:10Z</time>
      </trkpt>
      <trkpt lat="44.20408" lon="5.02739">
        <ele>233.74</ele>
        <time>2011-04-29T08:17:15Z</time>
      </trkpt>
      <trkpt lat="44.204" lon="5.02732">
        <ele>232.78</ele>
        <time>2011-04-29T08:17:25Z</time>
      </trkpt>
      <trkpt lat="44.20389" lon="5.02721">
        <ele>230.37</ele>
        <time>2011-04-29T08:17:37Z</time>
      </trkpt>
      <trkpt lat="44.20377" lon="5.02715">
        <ele>229.41</ele>
        <time>2011-04-29T08:17:48Z</time>
      </trkpt>
      <trkpt lat="44.20376" lon="5.02714">
        <ele>229.89</ele>
        <time>2011-04-29T08:17:49Z</time>
      </trkpt>
      <trkpt lat="44.20371" lon="5.02706">
        <ele>229.41</ele>
        <time>2011-04-29T08:17:57Z</time>
      </trkpt>
      <trkpt lat="44.20367" lon="5.02693">
        <ele>227.97</ele>
        <time>2011-04-29T08:18:09Z</time>
      </trkpt>
      <trkpt lat="44.20361" lon="5.02695">
        <ele>227.97</ele>
        <time>2011-04-29T08:18:19Z</time>
      </trkpt>
      <trkpt lat="44.20355" lon="5.02703">
        <ele>227.49</ele>
        <time>2011-04-29T08:18:26Z</time>
      </trkpt>
      <trkpt lat="44.20348" lon="5.02724">
        <ele>227.97</ele>
        <time>2011-04-29T08:18:42Z</time>
      </trkpt>
      <trkpt lat="44.20346" lon="5.02729">
        <ele>227.97</ele>
        <time>2011-04-29T08:18:46Z</time>
      </trkpt>
      <trkpt lat="44.20343" lon="5.02744">
        <ele>228.45</ele>
        <time>2011-04-29T08:18:57Z</time>
      </trkpt>
      <trkpt lat="44.2034" lon="5.02753">
        <ele>228.45</ele>
        <time>2011-04-29T08:19:03Z</time>
      </trkpt>
      <trkpt lat="44.20338" lon="5.02758">
        <ele>229.89</ele>
        <time>2011-04-29T08:19:07Z</time>
      </trkpt>
      <trkpt lat="44.20336" lon="5.02767">
        <ele>229.89</ele>
        <time>2011-04-29T08:19:13Z</time>
      </trkpt>
      <trkpt lat="44.20325" lon="5.02784">
        <ele>230.85</ele>
        <time>2011-04-29T08:19:30Z</time>
      </trkpt>
      <trkpt lat="44.20323" lon="5.02786">
        <ele>230.37</ele>
        <time>2011-04-29T08:19:33Z</time>
      </trkpt>
      <trkpt lat="44.20311" lon="5.02795">
        <ele>231.81</ele>
        <time>2011-04-29T08:19:47Z</time>
      </trkpt>
      <trkpt lat="44.20302" lon="5.02804">
        <ele>232.3</ele>
        <time>2011-04-29T08:19:57Z</time>
      </trkpt>
      <trkpt lat="44.20301" lon="5.02806">
        <ele>232.78</ele>
        <time>2011-04-29T08:19:59Z</time>
      </trkpt>
      <trkpt lat="44.2029" lon="5.02819">
        <ele>234.22</ele>
        <time>2011-04-29T08:20:13Z</time>
      </trkpt>
      <trkpt lat="44.20279" lon="5.02836">
        <ele>235.18</ele>
        <time>2011-04-29T08:20:30Z</time>
      </trkpt>
      <trkpt lat="44.20278" lon="5.02839">
        <ele>236.14</ele>
        <time>2011-04-29T08:20:33Z</time>
      </trkpt>
      <trkpt lat="44.20273" lon="5.02854">
        <ele>237.58</ele>
        <time>2011-04-29T08:20:46Z</time>
      </trkpt>
      <trkpt lat="44.20262" lon="5.02868">
        <ele>238.54</ele>
        <time>2011-04-29T08:20:59Z</time>
      </trkpt>
      <trkpt lat="44.2025" lon="5.0288">
        <ele>240.47</ele>
        <time>2011-04-29T08:21:14Z</time>
      </trkpt>
      <trkpt lat="44.20244" lon="5.02891">
        <ele>241.91</ele>
        <time>2011-04-29T08:21:25Z</time>
      </trkpt>
      <trkpt lat="44.20243" lon="5.02893">
        <ele>241.91</ele>
        <time>2011-04-29T08:21:27Z</time>
      </trkpt>
      <trkpt lat="44.20239" lon="5.02899">
        <ele>242.87</ele>
        <time>2011-04-29T08:21:33Z</time>
      </trkpt>
      <trkpt lat="44.20233" lon="5.02903">
        <ele>242.87</ele>
        <time>2011-04-29T08:21:39Z</time>
      </trkpt>
      <trkpt lat="44.20222" lon="5.0291">
        <ele>243.83</ele>
        <time>2011-04-29T08:21:50Z</time>
      </trkpt>
      <trkpt lat="44.2021" lon="5.02922">
        <ele>244.31</ele>
        <time>2011-04-29T08:22:05Z</time>
      </trkpt>
      <trkpt lat="44.20201" lon="5.02931">
        <ele>245.27</ele>
        <time>2011-04-29T08:22:17Z</time>
      </trkpt>
      <trkpt lat="44.20192" lon="5.02944">
        <ele>246.23</ele>
        <time>2011-04-29T08:22:30Z</time>
      </trkpt>
      <trkpt lat="44.2019" lon="5.02947">
        <ele>247.68</ele>
        <time>2011-04-29T08:22:33Z</time>
      </trkpt>
      <trkpt lat="44.2018" lon="5.02961">
        <ele>248.64</ele>
        <time>2011-04-29T08:22:46Z</time>
      </trkpt>
      <trkpt lat="44.20177" lon="5.02974">
        <ele>249.6</ele>
        <time>2011-04-29T08:22:54Z</time>
      </trkpt>
      <trkpt lat="44.20173" lon="5.02986">
        <ele>250.56</ele>
        <time>2011-04-29T08:23:02Z</time>
      </trkpt>
      <trkpt lat="44.20167" lon="5.03001">
        <ele>252</ele>
        <time>2011-04-29T08:23:17Z</time>
      </trkpt>
      <trkpt lat="44.20166" lon="5.03003">
        <ele>252.96</ele>
        <time>2011-04-29T08:23:19Z</time>
      </trkpt>
      <trkpt lat="44.20163" lon="5.03006">
        <ele>252.96</ele>
        <time>2011-04-29T08:23:23Z</time>
      </trkpt>
      <trkpt lat="44.20155" lon="5.03015">
        <ele>254.41</ele>
        <time>2011-04-29T08:23:36Z</time>
      </trkpt>
      <trkpt lat="44.20145" lon="5.03023">
        <ele>256.33</ele>
        <time>2011-04-29T08:23:50Z</time>
      </trkpt>
      <trkpt lat="44.20138" lon="5.03029">
        <ele>257.29</ele>
        <time>2011-04-29T08:24:01Z</time>
      </trkpt>
      <trkpt lat="44.20126" lon="5.03036">
        <ele>258.25</ele>
        <time>2011-04-29T08:24:13Z</time>
      </trkpt>
      <trkpt lat="44.20117" lon="5.0304">
        <ele>259.21</ele>
        <time>2011-04-29T08:24:23Z</time>
      </trkpt>
      <trkpt lat="44.2011" lon="5.03046">
        <ele>260.17</ele>
        <time>2011-04-29T08:24:32Z</time>
      </trkpt>
      <trkpt lat="44.20103" lon="5.03052">
        <ele>261.14</ele>
        <time>2011-04-29T08:24:42Z</time>
      </trkpt>
      <trkpt lat="44.20094" lon="5.03059">
        <ele>262.1</ele>
        <time>2011-04-29T08:24:54Z</time>
      </trkpt>
      <trkpt lat="44.20085" lon="5.03068">
        <ele>263.54</ele>
        <time>2011-04-29T08:25:04Z</time>
      </trkpt>
      <trkpt lat="44.20074" lon="5.03071">
        <ele>264.98</ele>
        <time>2011-04-29T08:25:15Z</time>
      </trkpt>
      <trkpt lat="44.20071" lon="5.03072">
        <ele>264.98</ele>
        <time>2011-04-29T08:25:19Z</time>
      </trkpt>
      <trkpt lat="44.20067" lon="5.03072">
        <ele>265.46</ele>
        <time>2011-04-29T08:25:22Z</time>
      </trkpt>
      <trkpt lat="44.20065" lon="5.03073">
        <ele>264.98</ele>
        <time>2011-04-29T08:25:24Z</time>
      </trkpt>
      <trkpt lat="44.20048" lon="5.03077">
        <ele>266.42</ele>
        <time>2011-04-29T08:25:38Z</time>
      </trkpt>
      <trkpt lat="44.20035" lon="5.0308">
        <ele>265.94</ele>
        <time>2011-04-29T08:25:49Z</time>
      </trkpt>
      <trkpt lat="44.20021" lon="5.03082">
        <ele>266.42</ele>
        <time>2011-04-29T08:26:02Z</time>
      </trkpt>
      <trkpt lat="44.20013" lon="5.03084">
        <ele>266.9</ele>
        <time>2011-04-29T08:26:09Z</time>
      </trkpt>
      <trkpt lat="44.19999" lon="5.03087">
        <ele>267.38</ele>
        <time>2011-04-29T08:26:22Z</time>
      </trkpt>
      <trkpt lat="44.19991" lon="5.03085">
        <ele>268.35</ele>
        <time>2011-04-29T08:26:30Z</time>
      </trkpt>
      <trkpt lat="44.1998" lon="5.0309">
        <ele>269.31</ele>
        <time>2011-04-29T08:26:43Z</time>
      </trkpt>
      <trkpt lat="44.19974" lon="5.0309">
        <ele>269.31</ele>
        <time>2011-04-29T08:26:49Z</time>
      </trkpt>
      <trkpt lat="44.1997" lon="5.03092">
        <ele>269.79</ele>
        <time>2011-04-29T08:26:53Z</time>
      </trkpt>
      <trkpt lat="44.19958" lon="5.03102">
        <ele>270.27</ele>
        <time>2011-04-29T08:27:06Z</time>
      </trkpt>
      <trkpt lat="44.1995" lon="5.03114">
        <ele>271.71</ele>
        <time>2011-04-29T08:27:17Z</time>
      </trkpt>
      <trkpt lat="44.19945" lon="5.0312">
        <ele>272.19</ele>
        <time>2011-04-29T08:27:24Z</time>
      </trkpt>
      <trkpt lat="44.19933" lon="5.03125">
        <ele>273.63</ele>
        <time>2011-04-29T08:27:37Z</time>
      </trkpt>
      <trkpt lat="44.19921" lon="5.03126">
        <ele>275.07</ele>
        <time>2011-04-29T08:27:49Z</time>
      </trkpt>
      <trkpt lat="44.19912" lon="5.03125">
        <ele>276.04</ele>
        <time>2011-04-29T08:27:59Z</time>
      </trkpt>
      <trkpt lat="44.19901" lon="5.03128">
        <ele>277.48</ele>
        <time>2011-04-29T08:28:11Z</time>
      </trkpt>
      <trkpt lat="44.19892" lon="5.03135">
        <ele>277.48</ele>
        <time>2011-04-29T08:28:22Z</time>
      </trkpt>
      <trkpt lat="44.19885" lon="5.03139">
        <ele>278.44</ele>
        <time>2011-04-29T08:28:29Z</time>
      </trkpt>
      <trkpt lat="44.19876" lon="5.03149">
        <ele>278.44</ele>
        <time>2011-04-29T08:28:39Z</time>
      </trkpt>
      <trkpt lat="44.19874" lon="5.0315">
        <ele>278.44</ele>
        <time>2011-04-29T08:28:41Z</time>
      </trkpt>
      <trkpt lat="44.19864" lon="5.03151">
        <ele>278.92</ele>
        <time>2011-04-29T08:28:53Z</time>
      </trkpt>
      <trkpt lat="44.19856" lon="5.0315">
        <ele>278.92</ele>
        <time>2011-04-29T08:29:05Z</time>
      </trkpt>
      <trkpt lat="44.19843" lon="5.0315">
        <ele>278.92</ele>
        <time>2011-04-29T08:29:17Z</time>
      </trkpt>
      <trkpt lat="44.19827" lon="5.03144">
        <ele>280.36</ele>
        <time>2011-04-29T08:29:32Z</time>
      </trkpt>
      <trkpt lat="44.19825" lon="5.03145">
        <ele>280.84</ele>
        <time>2011-04-29T08:29:34Z</time>
      </trkpt>
      <trkpt lat="44.19821" lon="5.03145">
        <ele>280.36</ele>
        <time>2011-04-29T08:29:37Z</time>
      </trkpt>
      <trkpt lat="44.19814" lon="5.03145">
        <ele>282.28</ele>
        <time>2011-04-29T08:29:44Z</time>
      </trkpt>
      <trkpt lat="44.19812" lon="5.03144">
        <ele>282.28</ele>
        <time>2011-04-29T08:29:46Z</time>
      </trkpt>
      <trkpt lat="44.19799" lon="5.03146">
        <ele>283.25</ele>
        <time>2011-04-29T08:29:59Z</time>
      </trkpt>
      <trkpt lat="44.19787" lon="5.0315">
        <ele>285.17</ele>
        <time>2011-04-29T08:30:11Z</time>
      </trkpt>
      <trkpt lat="44.19775" lon="5.0315">
        <ele>284.69</ele>
        <time>2011-04-29T08:30:23Z</time>
      </trkpt>
      <trkpt lat="44.1976" lon="5.03151">
        <ele>286.13</ele>
        <time>2011-04-29T08:30:37Z</time>
      </trkpt>
      <trkpt lat="44.19751" lon="5.03154">
        <ele>288.05</ele>
        <time>2011-04-29T08:30:49Z</time>
      </trkpt>
      <trkpt lat="44.19742" lon="5.03157">
        <ele>289.01</ele>
        <time>2011-04-29T08:31:00Z</time>
      </trkpt>
      <trkpt lat="44.19739" lon="5.03157">
        <ele>289.01</ele>
        <time>2011-04-29T08:31:03Z</time>
      </trkpt>
      <trkpt lat="44.19727" lon="5.03162">
        <ele>291.9</ele>
        <time>2011-04-29T08:31:17Z</time>
      </trkpt>
      <trkpt lat="44.19714" lon="5.03167">
        <ele>292.86</ele>
        <time>2011-04-29T08:31:32Z</time>
      </trkpt>
      <trkpt lat="44.19707" lon="5.03172">
        <ele>294.78</ele>
        <time>2011-04-29T08:31:44Z</time>
      </trkpt>
      <trkpt lat="44.19699" lon="5.03171">
        <ele>296.22</ele>
        <time>2011-04-29T08:31:55Z</time>
      </trkpt>
      <trkpt lat="44.19692" lon="5.03182">
        <ele>297.67</ele>
        <time>2011-04-29T08:32:09Z</time>
      </trkpt>
      <trkpt lat="44.19701" lon="5.03189">
        <ele>300.07</ele>
        <time>2011-04-29T08:32:21Z</time>
      </trkpt>
      <trkpt lat="44.1971" lon="5.03196">
        <ele>300.07</ele>
        <time>2011-04-29T08:32:31Z</time>
      </trkpt>
      <trkpt lat="44.19719" lon="5.03197">
        <ele>301.03</ele>
        <time>2011-04-29T08:32:42Z</time>
      </trkpt>
      <trkpt lat="44.19729" lon="5.03202">
        <ele>302.47</ele>
        <time>2011-04-29T08:32:56Z</time>
      </trkpt>
      <trkpt lat="44.19747" lon="5.03208">
        <ele>304.39</ele>
        <time>2011-04-29T08:33:16Z</time>
      </trkpt>
      <trkpt lat="44.19761" lon="5.03214">
        <ele>304.88</ele>
        <time>2011-04-29T08:33:27Z</time>
      </trkpt>
      <trkpt lat="44.19769" lon="5.0322">
        <ele>306.8</ele>
        <time>2011-04-29T08:33:39Z</time>
      </trkpt>
      <trkpt lat="44.19781" lon="5.03232">
        <ele>306.8</ele>
        <time>2011-04-29T08:33:51Z</time>
      </trkpt>
      <trkpt lat="44.198" lon="5.03234">
        <ele>309.2</ele>
        <time>2011-04-29T08:34:11Z</time>
      </trkpt>
      <trkpt lat="44.19814" lon="5.03243">
        <ele>311.12</ele>
        <time>2011-04-29T08:34:27Z</time>
      </trkpt>
      <trkpt lat="44.19819" lon="5.03254">
        <ele>312.09</ele>
        <time>2011-04-29T08:34:38Z</time>
      </trkpt>
      <trkpt lat="44.1982" lon="5.0326">
        <ele>313.53</ele>
        <time>2011-04-29T08:34:50Z</time>
      </trkpt>
      <trkpt lat="44.19822" lon="5.03269">
        <ele>313.53</ele>
        <time>2011-04-29T08:35:06Z</time>
      </trkpt>
      <trkpt lat="44.19823" lon="5.0328">
        <ele>315.45</ele>
        <time>2011-04-29T08:35:17Z</time>
      </trkpt>
      <trkpt lat="44.19824" lon="5.0329">
        <ele>316.41</ele>
        <time>2011-04-29T08:35:28Z</time>
      </trkpt>
      <trkpt lat="44.19823" lon="5.03303">
        <ele>318.33</ele>
        <time>2011-04-29T08:35:40Z</time>
      </trkpt>
      <trkpt lat="44.19823" lon="5.03313">
        <ele>319.78</ele>
        <time>2011-04-29T08:35:52Z</time>
      </trkpt>
      <trkpt lat="44.19827" lon="5.03325">
        <ele>321.22</ele>
        <time>2011-04-29T08:36:03Z</time>
      </trkpt>
      <trkpt lat="44.19824" lon="5.03337">
        <ele>323.14</ele>
        <time>2011-04-29T08:36:14Z</time>
      </trkpt>
      <trkpt lat="44.19822" lon="5.03351">
        <ele>324.58</ele>
        <time>2011-04-29T08:36:24Z</time>
      </trkpt>
      <trkpt lat="44.19822" lon="5.03364">
        <ele>325.54</ele>
        <time>2011-04-29T08:36:35Z</time>
      </trkpt>
      <trkpt lat="44.19833" lon="5.03372">
        <ele>327.47</ele>
        <time>2011-04-29T08:36:52Z</time>
      </trkpt>
      <trkpt lat="44.19839" lon="5.03379">
        <ele>328.43</ele>
        <time>2011-04-29T08:37:01Z</time>
      </trkpt>
      <trkpt lat="44.19837" lon="5.03384">
        <ele>329.39</ele>
        <time>2011-04-29T08:37:07Z</time>
      </trkpt>
      <trkpt lat="44.19829" lon="5.03387">
        <ele>331.31</ele>
        <time>2011-04-29T08:37:18Z</time>
      </trkpt>
      <trkpt lat="44.1982" lon="5.03387">
        <ele>332.27</ele>
        <time>2011-04-29T08:37:31Z</time>
      </trkpt>
      <trkpt lat="44.19815" lon="5.03387">
        <ele>333.23</ele>
        <time>2011-04-29T08:37:40Z</time>
      </trkpt>
      <trkpt lat="44.19812" lon="5.03384">
        <ele>335.16</ele>
        <time>2011-04-29T08:37:50Z</time>
      </trkpt>
      <trkpt lat="44.19809" lon="5.03378">
        <ele>335.64</ele>
        <time>2011-04-29T08:37:58Z</time>
      </trkpt>
      <trkpt lat="44.198" lon="5.0337">
        <ele>337.56</ele>
        <time>2011-04-29T08:38:08Z</time>
      </trkpt>
      <trkpt lat="44.19798" lon="5.03367">
        <ele>338.04</ele>
        <time>2011-04-29T08:38:11Z</time>
      </trkpt>
      <trkpt lat="44.19788" lon="5.03358">
        <ele>339</ele>
        <time>2011-04-29T08:38:23Z</time>
      </trkpt>
      <trkpt lat="44.19781" lon="5.03352">
        <ele>340.92</ele>
        <time>2011-04-29T08:38:36Z</time>
      </trkpt>
      <trkpt lat="44.19774" lon="5.03347">
        <ele>342.37</ele>
        <time>2011-04-29T08:38:48Z</time>
      </trkpt>
      <trkpt lat="44.19769" lon="5.03355">
        <ele>343.81</ele>
        <time>2011-04-29T08:38:59Z</time>
      </trkpt>
      <trkpt lat="44.19773" lon="5.03368">
        <ele>345.25</ele>
        <time>2011-04-29T08:39:10Z</time>
      </trkpt>
      <trkpt lat="44.19774" lon="5.03371">
        <ele>344.77</ele>
        <time>2011-04-29T08:39:13Z</time>
      </trkpt>
      <trkpt lat="44.19776" lon="5.03381">
        <ele>345.73</ele>
        <time>2011-04-29T08:39:19Z</time>
      </trkpt>
      <trkpt lat="44.19778" lon="5.034">
        <ele>347.17</ele>
        <time>2011-04-29T08:39:33Z</time>
      </trkpt>
      <trkpt lat="44.19784" lon="5.03413">
        <ele>347.65</ele>
        <time>2011-04-29T08:39:43Z</time>
      </trkpt>
      <trkpt lat="44.19791" lon="5.03428">
        <ele>349.58</ele>
        <time>2011-04-29T08:39:56Z</time>
      </trkpt>
      <trkpt lat="44.19798" lon="5.03442">
        <ele>351.02</ele>
        <time>2011-04-29T08:40:09Z</time>
      </trkpt>
      <trkpt lat="44.198" lon="5.03452">
        <ele>352.46</ele>
        <time>2011-04-29T08:40:20Z</time>
      </trkpt>
      <trkpt lat="44.19802" lon="5.03454">
        <ele>352.46</ele>
        <time>2011-04-29T08:40:22Z</time>
      </trkpt>
      <trkpt lat="44.19806" lon="5.03458">
        <ele>352.94</ele>
        <time>2011-04-29T08:40:28Z</time>
      </trkpt>
      <trkpt lat="44.19809" lon="5.03466">
        <ele>354.86</ele>
        <time>2011-04-29T08:40:37Z</time>
      </trkpt>
      <trkpt lat="44.19818" lon="5.03473">
        <ele>355.34</ele>
        <time>2011-04-29T08:40:49Z</time>
      </trkpt>
      <trkpt lat="44.19829" lon="5.03477">
        <ele>356.79</ele>
        <time>2011-04-29T08:41:00Z</time>
      </trkpt>
      <trkpt lat="44.19828" lon="5.03486">
        <ele>358.71</ele>
        <time>2011-04-29T08:41:11Z</time>
      </trkpt>
      <trkpt lat="44.19827" lon="5.03487">
        <ele>359.19</ele>
        <time>2011-04-29T08:41:16Z</time>
      </trkpt>
      <trkpt lat="44.19821" lon="5.03493">
        <ele>361.59</ele>
        <time>2011-04-29T08:41:28Z</time>
      </trkpt>
      <trkpt lat="44.19817" lon="5.03498">
        <ele>363.04</ele>
        <time>2011-04-29T08:41:38Z</time>
      </trkpt>
      <trkpt lat="44.19813" lon="5.03507">
        <ele>364.48</ele>
        <time>2011-04-29T08:41:48Z</time>
      </trkpt>
      <trkpt lat="44.19811" lon="5.03521">
        <ele>366.4</ele>
        <time>2011-04-29T08:42:00Z</time>
      </trkpt>
      <trkpt lat="44.19811" lon="5.03523">
        <ele>365.92</ele>
        <time>2011-04-29T08:42:02Z</time>
      </trkpt>
      <trkpt lat="44.19809" lon="5.03536">
        <ele>367.84</ele>
        <time>2011-04-29T08:42:12Z</time>
      </trkpt>
      <trkpt lat="44.19811" lon="5.03551">
        <ele>368.8</ele>
        <time>2011-04-29T08:42:24Z</time>
      </trkpt>
      <trkpt lat="44.1981" lon="5.03556">
        <ele>368.8</ele>
        <time>2011-04-29T08:42:28Z</time>
      </trkpt>
      <trkpt lat="44.19808" lon="5.03558">
        <ele>368.8</ele>
        <time>2011-04-29T08:42:30Z</time>
      </trkpt>
      <trkpt lat="44.19808" lon="5.03565">
        <ele>368.8</ele>
        <time>2011-04-29T08:42:43Z</time>
      </trkpt>
      <trkpt lat="44.19808" lon="5.03564">
        <ele>368.32</ele>
        <time>2011-04-29T08:42:48Z</time>
      </trkpt>
      <trkpt lat="44.19803" lon="5.03562">
        <ele>368.8</ele>
        <time>2011-04-29T08:42:59Z</time>
      </trkpt>
      <trkpt lat="44.198" lon="5.03563">
        <ele>368.8</ele>
        <time>2011-04-29T08:43:52Z</time>
      </trkpt>
      <trkpt lat="44.198" lon="5.03563">
        <ele>365.92</ele>
        <time>2011-04-29T08:44:00Z</time>
      </trkpt>
      <trkpt lat="44.198" lon="5.03563">
        <ele>371.21</ele>
        <time>2011-04-29T08:44:01Z</time>
      </trkpt>
      <trkpt lat="44.198" lon="5.03563">
        <ele>364.48</ele>
        <time>2011-04-29T08:44:02Z</time>
      </trkpt>
      <trkpt lat="44.198" lon="5.03563">
        <ele>368.8</ele>
        <time>2011-04-29T08:44:03Z</time>
      </trkpt>
      <trkpt lat="44.198" lon="5.03557">
        <ele>365.44</ele>
        <time>2011-04-29T08:44:20Z</time>
      </trkpt>
      <trkpt lat="44.19799" lon="5.03557">
        <ele>368.8</ele>
        <time>2011-04-29T08:44:21Z</time>
      </trkpt>
      <trkpt lat="44.19795" lon="5.03555">
        <ele>367.36</ele>
        <time>2011-04-29T08:45:20Z</time>
      </trkpt>
      <trkpt lat="44.19795" lon="5.03555">
        <ele>368.8</ele>
        <time>2011-04-29T08:45:22Z</time>
      </trkpt>
      <trkpt lat="44.19798" lon="5.03555">
        <ele>368.32</ele>
        <time>2011-04-29T08:45:30Z</time>
      </trkpt>
      <trkpt lat="44.19787" lon="5.0355">
        <ele>364.48</ele>
        <time>2011-04-29T08:46:13Z</time>
      </trkpt>
      <trkpt lat="44.19787" lon="5.0355">
        <ele>369.76</ele>
        <time>2011-04-29T08:46:14Z</time>
      </trkpt>
      <trkpt lat="44.19789" lon="5.03551">
        <ele>372.65</ele>
        <time>2011-04-29T08:46:15Z</time>
      </trkpt>
      <trkpt lat="44.19791" lon="5.03552">
        <ele>368.8</ele>
        <time>2011-04-29T08:46:17Z</time>
      </trkpt>
      <trkpt lat="44.19791" lon="5.03552">
        <ele>368.8</ele>
        <time>2011-04-29T08:46:18Z</time>
      </trkpt>
      <trkpt lat="44.19803" lon="5.0356">
        <ele>368.8</ele>
        <time>2011-04-29T08:46:59Z</time>
      </trkpt>
      <trkpt lat="44.19813" lon="5.03581">
        <ele>368.8</ele>
        <time>2011-04-29T08:49:48Z</time>
      </trkpt>
      <trkpt lat="44.1981" lon="5.03588">
        <ele>367.36</ele>
        <time>2011-04-29T08:50:02Z</time>
      </trkpt>
      <trkpt lat="44.19794" lon="5.03618">
        <ele>364.96</ele>
        <time>2011-04-29T08:50:28Z</time>
      </trkpt>
      <trkpt lat="44.1979" lon="5.03628">
        <ele>363.04</ele>
        <time>2011-04-29T08:50:37Z</time>
      </trkpt>
      <trkpt lat="44.19782" lon="5.03639">
        <ele>362.07</ele>
        <time>2011-04-29T08:50:47Z</time>
      </trkpt>
      <trkpt lat="44.19782" lon="5.03656">
        <ele>359.19</ele>
        <time>2011-04-29T08:51:03Z</time>
      </trkpt>
      <trkpt lat="44.19773" lon="5.03671">
        <ele>356.79</ele>
        <time>2011-04-29T08:51:20Z</time>
      </trkpt>
      <trkpt lat="44.19766" lon="5.03679">
        <ele>356.79</ele>
        <time>2011-04-29T08:51:25Z</time>
      </trkpt>
      <trkpt lat="44.19752" lon="5.03691">
        <ele>353.42</ele>
        <time>2011-04-29T08:51:38Z</time>
      </trkpt>
      <trkpt lat="44.19748" lon="5.03706">
        <ele>355.34</ele>
        <time>2011-04-29T08:51:48Z</time>
      </trkpt>
      <trkpt lat="44.19744" lon="5.03717">
        <ele>352.94</ele>
        <time>2011-04-29T08:51:59Z</time>
      </trkpt>
      <trkpt lat="44.19738" lon="5.03728">
        <ele>351.5</ele>
        <time>2011-04-29T08:52:07Z</time>
      </trkpt>
      <trkpt lat="44.19738" lon="5.03731">
        <ele>351.5</ele>
        <time>2011-04-29T08:52:10Z</time>
      </trkpt>
      <trkpt lat="44.19736" lon="5.03742">
        <ele>351.5</ele>
        <time>2011-04-29T08:52:18Z</time>
      </trkpt>
      <trkpt lat="44.19729" lon="5.03753">
        <ele>350.54</ele>
        <time>2011-04-29T08:52:26Z</time>
      </trkpt>
      <trkpt lat="44.19725" lon="5.03758">
        <ele>347.65</ele>
        <time>2011-04-29T08:52:31Z</time>
      </trkpt>
      <trkpt lat="44.19724" lon="5.03762">
        <ele>349.58</ele>
        <time>2011-04-29T08:52:34Z</time>
      </trkpt>
      <trkpt lat="44.19723" lon="5.03775">
        <ele>351.02</ele>
        <time>2011-04-29T08:52:44Z</time>
      </trkpt>
      <trkpt lat="44.19723" lon="5.03778">
        <ele>348.13</ele>
        <time>2011-04-29T08:52:47Z</time>
      </trkpt>
      <trkpt lat="44.19721" lon="5.03797">
        <ele>348.13</ele>
        <time>2011-04-29T08:53:01Z</time>
      </trkpt>
      <trkpt lat="44.19708" lon="5.03805">
        <ele>344.29</ele>
        <time>2011-04-29T08:53:10Z</time>
      </trkpt>
      <trkpt lat="44.19704" lon="5.03813">
        <ele>345.25</ele>
        <time>2011-04-29T08:53:16Z</time>
      </trkpt>
      <trkpt lat="44.19699" lon="5.03832">
        <ele>345.73</ele>
        <time>2011-04-29T08:53:30Z</time>
      </trkpt>
      <trkpt lat="44.19676" lon="5.03831">
        <ele>342.85</ele>
        <time>2011-04-29T08:53:40Z</time>
      </trkpt>
      <trkpt lat="44.19671" lon="5.03828">
        <ele>340.44</ele>
        <time>2011-04-29T08:53:44Z</time>
      </trkpt>
      <trkpt lat="44.19664" lon="5.03824">
        <ele>342.37</ele>
        <time>2011-04-29T08:53:48Z</time>
      </trkpt>
      <trkpt lat="44.19658" lon="5.03822">
        <ele>343.81</ele>
        <time>2011-04-29T08:54:03Z</time>
      </trkpt>
      <trkpt lat="44.19657" lon="5.03821">
        <ele>340.44</ele>
        <time>2011-04-29T08:54:04Z</time>
      </trkpt>
      <trkpt lat="44.19655" lon="5.0382">
        <ele>342.85</ele>
        <time>2011-04-29T08:54:31Z</time>
      </trkpt>
      <trkpt lat="44.19649" lon="5.03825">
        <ele>342.37</ele>
        <time>2011-04-29T08:55:36Z</time>
      </trkpt>
      <trkpt lat="44.19649" lon="5.03819">
        <ele>339.48</ele>
        <time>2011-04-29T08:55:55Z</time>
      </trkpt>
      <trkpt lat="44.19647" lon="5.0382">
        <ele>342.37</ele>
        <time>2011-04-29T08:55:57Z</time>
      </trkpt>
      <trkpt lat="44.19642" lon="5.03821">
        <ele>340.44</ele>
        <time>2011-04-29T08:56:02Z</time>
      </trkpt>
      <trkpt lat="44.19636" lon="5.03825">
        <ele>340.44</ele>
        <time>2011-04-29T08:56:06Z</time>
      </trkpt>
      <trkpt lat="44.19634" lon="5.03827">
        <ele>341.41</ele>
        <time>2011-04-29T08:56:08Z</time>
      </trkpt>
      <trkpt lat="44.19627" lon="5.03831">
        <ele>342.37</ele>
        <time>2011-04-29T08:56:15Z</time>
      </trkpt>
      <trkpt lat="44.19621" lon="5.03834">
        <ele>340.44</ele>
        <time>2011-04-29T08:56:19Z</time>
      </trkpt>
      <trkpt lat="44.19612" lon="5.03843">
        <ele>337.08</ele>
        <time>2011-04-29T08:56:30Z</time>
      </trkpt>
      <trkpt lat="44.19611" lon="5.03844">
        <ele>337.08</ele>
        <time>2011-04-29T08:56:31Z</time>
      </trkpt>
      <trkpt lat="44.19609" lon="5.03849">
        <ele>338.52</ele>
        <time>2011-04-29T08:56:35Z</time>
      </trkpt>
      <trkpt lat="44.19607" lon="5.03851">
        <ele>338.52</ele>
        <time>2011-04-29T08:56:37Z</time>
      </trkpt>
      <trkpt lat="44.19605" lon="5.03855">
        <ele>335.64</ele>
        <time>2011-04-29T08:56:40Z</time>
      </trkpt>
      <trkpt lat="44.19605" lon="5.03865">
        <ele>336.6</ele>
        <time>2011-04-29T08:56:49Z</time>
      </trkpt>
      <trkpt lat="44.19606" lon="5.0387">
        <ele>335.16</ele>
        <time>2011-04-29T08:56:51Z</time>
      </trkpt>
      <trkpt lat="44.19605" lon="5.03871">
        <ele>335.16</ele>
        <time>2011-04-29T08:56:52Z</time>
      </trkpt>
      <trkpt lat="44.19589" lon="5.03882">
        <ele>334.68</ele>
        <time>2011-04-29T08:57:07Z</time>
      </trkpt>
      <trkpt lat="44.19588" lon="5.03883">
        <ele>330.83</ele>
        <time>2011-04-29T08:57:08Z</time>
      </trkpt>
      <trkpt lat="44.19587" lon="5.03884">
        <ele>332.75</ele>
        <time>2011-04-29T08:57:09Z</time>
      </trkpt>
      <trkpt lat="44.19583" lon="5.03891">
        <ele>331.79</ele>
        <time>2011-04-29T08:57:18Z</time>
      </trkpt>
      <trkpt lat="44.1958" lon="5.03894">
        <ele>332.75</ele>
        <time>2011-04-29T08:57:21Z</time>
      </trkpt>
      <trkpt lat="44.19562" lon="5.03903">
        <ele>330.83</ele>
        <time>2011-04-29T08:57:35Z</time>
      </trkpt>
      <trkpt lat="44.19558" lon="5.03911">
        <ele>329.87</ele>
        <time>2011-04-29T08:57:47Z</time>
      </trkpt>
      <trkpt lat="44.19544" lon="5.03928">
        <ele>328.43</ele>
        <time>2011-04-29T08:58:05Z</time>
      </trkpt>
      <trkpt lat="44.19539" lon="5.03936">
        <ele>324.58</ele>
        <time>2011-04-29T08:58:11Z</time>
      </trkpt>
      <trkpt lat="44.19539" lon="5.03936">
        <ele>324.58</ele>
        <time>2011-04-29T08:58:12Z</time>
      </trkpt>
      <trkpt lat="44.19538" lon="5.03938">
        <ele>326.02</ele>
        <time>2011-04-29T08:58:15Z</time>
      </trkpt>
      <trkpt lat="44.19537" lon="5.0394">
        <ele>327.47</ele>
        <time>2011-04-29T08:58:19Z</time>
      </trkpt>
      <trkpt lat="44.19534" lon="5.03941">
        <ele>325.06</ele>
        <time>2011-04-29T08:58:23Z</time>
      </trkpt>
      <trkpt lat="44.1952" lon="5.03941">
        <ele>323.62</ele>
        <time>2011-04-29T08:58:33Z</time>
      </trkpt>
      <trkpt lat="44.19516" lon="5.03939">
        <ele>322.18</ele>
        <time>2011-04-29T08:58:38Z</time>
      </trkpt>
      <trkpt lat="44.19506" lon="5.0393">
        <ele>319.78</ele>
        <time>2011-04-29T08:58:47Z</time>
      </trkpt>
      <trkpt lat="44.195" lon="5.03931">
        <ele>315.93</ele>
        <time>2011-04-29T08:58:53Z</time>
      </trkpt>
      <trkpt lat="44.19494" lon="5.03931">
        <ele>315.45</ele>
        <time>2011-04-29T08:58:57Z</time>
      </trkpt>
      <trkpt lat="44.19491" lon="5.0393">
        <ele>317.85</ele>
        <time>2011-04-29T08:58:59Z</time>
      </trkpt>
      <trkpt lat="44.1948" lon="5.03925">
        <ele>318.33</ele>
        <time>2011-04-29T08:59:13Z</time>
      </trkpt>
      <trkpt lat="44.19478" lon="5.03925">
        <ele>315.45</ele>
        <time>2011-04-29T08:59:20Z</time>
      </trkpt>
      <trkpt lat="44.19475" lon="5.03924">
        <ele>317.37</ele>
        <time>2011-04-29T08:59:22Z</time>
      </trkpt>
      <trkpt lat="44.19473" lon="5.03923">
        <ele>318.81</ele>
        <time>2011-04-29T08:59:24Z</time>
      </trkpt>
      <trkpt lat="44.19469" lon="5.03922">
        <ele>318.33</ele>
        <time>2011-04-29T08:59:27Z</time>
      </trkpt>
      <trkpt lat="44.19455" lon="5.03921">
        <ele>314.49</ele>
        <time>2011-04-29T08:59:37Z</time>
      </trkpt>
      <trkpt lat="44.19454" lon="5.0392">
        <ele>314.97</ele>
        <time>2011-04-29T08:59:38Z</time>
      </trkpt>
      <trkpt lat="44.1945" lon="5.03919">
        <ele>314.49</ele>
        <time>2011-04-29T08:59:41Z</time>
      </trkpt>
      <trkpt lat="44.19436" lon="5.03916">
        <ele>314.49</ele>
        <time>2011-04-29T08:59:51Z</time>
      </trkpt>
      <trkpt lat="44.19424" lon="5.03915">
        <ele>312.57</ele>
        <time>2011-04-29T09:00:01Z</time>
      </trkpt>
      <trkpt lat="44.19416" lon="5.03919">
        <ele>308.72</ele>
        <time>2011-04-29T09:00:12Z</time>
      </trkpt>
      <trkpt lat="44.19413" lon="5.03919">
        <ele>310.16</ele>
        <time>2011-04-29T09:00:20Z</time>
      </trkpt>
      <trkpt lat="44.19401" lon="5.03915">
        <ele>304.39</ele>
        <time>2011-04-29T09:00:28Z</time>
      </trkpt>
      <trkpt lat="44.19397" lon="5.03913">
        <ele>307.28</ele>
        <time>2011-04-29T09:00:31Z</time>
      </trkpt>
      <trkpt lat="44.19395" lon="5.03911">
        <ele>305.84</ele>
        <time>2011-04-29T09:00:33Z</time>
      </trkpt>
      <trkpt lat="44.19386" lon="5.03905">
        <ele>306.8</ele>
        <time>2011-04-29T09:00:40Z</time>
      </trkpt>
      <trkpt lat="44.19377" lon="5.03906">
        <ele>307.76</ele>
        <time>2011-04-29T09:00:47Z</time>
      </trkpt>
      <trkpt lat="44.19374" lon="5.03907">
        <ele>304.39</ele>
        <time>2011-04-29T09:00:50Z</time>
      </trkpt>
      <trkpt lat="44.19371" lon="5.03908">
        <ele>302.47</ele>
        <time>2011-04-29T09:00:52Z</time>
      </trkpt>
      <trkpt lat="44.19367" lon="5.03907">
        <ele>306.32</ele>
        <time>2011-04-29T09:00:55Z</time>
      </trkpt>
      <trkpt lat="44.19364" lon="5.03907">
        <ele>307.28</ele>
        <time>2011-04-29T09:00:57Z</time>
      </trkpt>
      <trkpt lat="44.19355" lon="5.03905">
        <ele>306.32</ele>
        <time>2011-04-29T09:01:05Z</time>
      </trkpt>
      <trkpt lat="44.19353" lon="5.03904">
        <ele>304.88</ele>
        <time>2011-04-29T09:01:07Z</time>
      </trkpt>
      <trkpt lat="44.19346" lon="5.03902">
        <ele>306.32</ele>
        <time>2011-04-29T09:01:14Z</time>
      </trkpt>
      <trkpt lat="44.19342" lon="5.03905">
        <ele>306.32</ele>
        <time>2011-04-29T09:01:18Z</time>
      </trkpt>
      <trkpt lat="44.19327" lon="5.03909">
        <ele>306.32</ele>
        <time>2011-04-29T09:01:29Z</time>
      </trkpt>
      <trkpt lat="44.19316" lon="5.03917">
        <ele>306.32</ele>
        <time>2011-04-29T09:01:39Z</time>
      </trkpt>
      <trkpt lat="44.19313" lon="5.03922">
        <ele>306.8</ele>
        <time>2011-04-29T09:01:45Z</time>
      </trkpt>
      <trkpt lat="44.19312" lon="5.03924">
        <ele>306.8</ele>
        <time>2011-04-29T09:01:57Z</time>
      </trkpt>
      <trkpt lat="44.19311" lon="5.03928">
        <ele>307.28</ele>
        <time>2011-04-29T09:02:00Z</time>
      </trkpt>
      <trkpt lat="44.19307" lon="5.03933">
        <ele>307.28</ele>
        <time>2011-04-29T09:02:06Z</time>
      </trkpt>
      <trkpt lat="44.19299" lon="5.03945">
        <ele>307.28</ele>
        <time>2011-04-29T09:02:16Z</time>
      </trkpt>
      <trkpt lat="44.19296" lon="5.03959">
        <ele>307.76</ele>
        <time>2011-04-29T09:02:26Z</time>
      </trkpt>
      <trkpt lat="44.19296" lon="5.0396">
        <ele>307.28</ele>
        <time>2011-04-29T09:02:28Z</time>
      </trkpt>
      <trkpt lat="44.19291" lon="5.03975">
        <ele>307.76</ele>
        <time>2011-04-29T09:02:39Z</time>
      </trkpt>
      <trkpt lat="44.19283" lon="5.03992">
        <ele>308.24</ele>
        <time>2011-04-29T09:02:49Z</time>
      </trkpt>
      <trkpt lat="44.1927" lon="5.04006">
        <ele>309.2</ele>
        <time>2011-04-29T09:03:02Z</time>
      </trkpt>
      <trkpt lat="44.19254" lon="5.04017">
        <ele>308.72</ele>
        <time>2011-04-29T09:03:14Z</time>
      </trkpt>
      <trkpt lat="44.19249" lon="5.0402">
        <ele>308.24</ele>
        <time>2011-04-29T09:03:20Z</time>
      </trkpt>
      <trkpt lat="44.19237" lon="5.04019">
        <ele>307.76</ele>
        <time>2011-04-29T09:03:26Z</time>
      </trkpt>
      <trkpt lat="44.19223" lon="5.04008">
        <ele>307.76</ele>
        <time>2011-04-29T09:03:39Z</time>
      </trkpt>
      <trkpt lat="44.19214" lon="5.03999">
        <ele>307.76</ele>
        <time>2011-04-29T09:03:48Z</time>
      </trkpt>
      <trkpt lat="44.19202" lon="5.03997">
        <ele>308.24</ele>
        <time>2011-04-29T09:04:00Z</time>
      </trkpt>
      <trkpt lat="44.19188" lon="5.03995">
        <ele>307.76</ele>
        <time>2011-04-29T09:04:11Z</time>
      </trkpt>
      <trkpt lat="44.1917" lon="5.03994">
        <ele>308.24</ele>
        <time>2011-04-29T09:04:24Z</time>
      </trkpt>
      <trkpt lat="44.19168" lon="5.03994">
        <ele>308.24</ele>
        <time>2011-04-29T09:04:28Z</time>
      </trkpt>
      <trkpt lat="44.1915" lon="5.03987">
        <ele>308.72</ele>
        <time>2011-04-29T09:04:41Z</time>
      </trkpt>
      <trkpt lat="44.19143" lon="5.03989">
        <ele>308.72</ele>
        <time>2011-04-29T09:04:48Z</time>
      </trkpt>
      <trkpt lat="44.1913" lon="5.03981">
        <ele>309.2</ele>
        <time>2011-04-29T09:04:59Z</time>
      </trkpt>
      <trkpt lat="44.19118" lon="5.03971">
        <ele>309.2</ele>
        <time>2011-04-29T09:05:11Z</time>
      </trkpt>
      <trkpt lat="44.19105" lon="5.03963">
        <ele>308.24</ele>
        <time>2011-04-29T09:05:23Z</time>
      </trkpt>
      <trkpt lat="44.19089" lon="5.03959">
        <ele>308.24</ele>
        <time>2011-04-29T09:05:33Z</time>
      </trkpt>
      <trkpt lat="44.19075" lon="5.03958">
        <ele>308.24</ele>
        <time>2011-04-29T09:05:43Z</time>
      </trkpt>
      <trkpt lat="44.19065" lon="5.03956">
        <ele>308.72</ele>
        <time>2011-04-29T09:05:53Z</time>
      </trkpt>
      <trkpt lat="44.19064" lon="5.03956">
        <ele>308.72</ele>
        <time>2011-04-29T09:05:55Z</time>
      </trkpt>
      <trkpt lat="44.19049" lon="5.03951">
        <ele>308.72</ele>
        <time>2011-04-29T09:06:07Z</time>
      </trkpt>
      <trkpt lat="44.19047" lon="5.03949">
        <ele>308.72</ele>
        <time>2011-04-29T09:06:09Z</time>
      </trkpt>
      <trkpt lat="44.19032" lon="5.03948">
        <ele>308.24</ele>
        <time>2011-04-29T09:06:21Z</time>
      </trkpt>
      <trkpt lat="44.19021" lon="5.03941">
        <ele>308.24</ele>
        <time>2011-04-29T09:06:32Z</time>
      </trkpt>
      <trkpt lat="44.19009" lon="5.0393">
        <ele>308.24</ele>
        <time>2011-04-29T09:06:43Z</time>
      </trkpt>
      <trkpt lat="44.19005" lon="5.03928">
        <ele>308.24</ele>
        <time>2011-04-29T09:06:56Z</time>
      </trkpt>
      <trkpt lat="44.19001" lon="5.03924">
        <ele>308.72</ele>
        <time>2011-04-29T09:07:10Z</time>
      </trkpt>
      <trkpt lat="44.18998" lon="5.0393">
        <ele>308.72</ele>
        <time>2011-04-29T09:07:34Z</time>
      </trkpt>
      <trkpt lat="44.18997" lon="5.03937">
        <ele>308.72</ele>
        <time>2011-04-29T09:07:39Z</time>
      </trkpt>
      <trkpt lat="44.18991" lon="5.03955">
        <ele>309.2</ele>
        <time>2011-04-29T09:07:53Z</time>
      </trkpt>
      <trkpt lat="44.18986" lon="5.03969">
        <ele>310.16</ele>
        <time>2011-04-29T09:08:02Z</time>
      </trkpt>
      <trkpt lat="44.18984" lon="5.03981">
        <ele>311.6</ele>
        <time>2011-04-29T09:08:11Z</time>
      </trkpt>
      <trkpt lat="44.18984" lon="5.03994">
        <ele>312.57</ele>
        <time>2011-04-29T09:08:24Z</time>
      </trkpt>
      <trkpt lat="44.18985" lon="5.03999">
        <ele>313.53</ele>
        <time>2011-04-29T09:08:40Z</time>
      </trkpt>
      <trkpt lat="44.18985" lon="5.04">
        <ele>315.45</ele>
        <time>2011-04-29T09:08:43Z</time>
      </trkpt>
      <trkpt lat="44.18991" lon="5.04003">
        <ele>312.09</ele>
        <time>2011-04-29T09:08:48Z</time>
      </trkpt>
      <trkpt lat="44.18992" lon="5.04003">
        <ele>313.53</ele>
        <time>2011-04-29T09:08:49Z</time>
      </trkpt>
      <trkpt lat="44.18993" lon="5.04003">
        <ele>316.89</ele>
        <time>2011-04-29T09:08:52Z</time>
      </trkpt>
      <trkpt lat="44.18996" lon="5.04002">
        <ele>313.05</ele>
        <time>2011-04-29T09:08:58Z</time>
      </trkpt>
      <trkpt lat="44.18998" lon="5.04003">
        <ele>316.89</ele>
        <time>2011-04-29T09:09:00Z</time>
      </trkpt>
      <trkpt lat="44.19003" lon="5.04005">
        <ele>312.09</ele>
        <time>2011-04-29T09:09:04Z</time>
      </trkpt>
      <trkpt lat="44.19004" lon="5.04005">
        <ele>316.89</ele>
        <time>2011-04-29T09:09:05Z</time>
      </trkpt>
      <trkpt lat="44.19004" lon="5.04005">
        <ele>313.05</ele>
        <time>2011-04-29T09:09:07Z</time>
      </trkpt>
      <trkpt lat="44.19004" lon="5.04005">
        <ele>316.41</ele>
        <time>2011-04-29T09:09:08Z</time>
      </trkpt>
      <trkpt lat="44.19008" lon="5.04008">
        <ele>319.78</ele>
        <time>2011-04-29T09:09:12Z</time>
      </trkpt>
      <trkpt lat="44.19009" lon="5.04009">
        <ele>314.97</ele>
        <time>2011-04-29T09:09:13Z</time>
      </trkpt>
      <trkpt lat="44.19011" lon="5.04013">
        <ele>319.3</ele>
        <time>2011-04-29T09:09:16Z</time>
      </trkpt>
      <trkpt lat="44.19012" lon="5.04013">
        <ele>318.33</ele>
        <time>2011-04-29T09:09:17Z</time>
      </trkpt>
      <trkpt lat="44.19014" lon="5.04014">
        <ele>315.93</ele>
        <time>2011-04-29T09:09:20Z</time>
      </trkpt>
      <trkpt lat="44.19014" lon="5.04015">
        <ele>319.78</ele>
        <time>2011-04-29T09:09:21Z</time>
      </trkpt>
      <trkpt lat="44.19015" lon="5.04016">
        <ele>315.45</ele>
        <time>2011-04-29T09:09:22Z</time>
      </trkpt>
      <trkpt lat="44.19019" lon="5.04016">
        <ele>318.33</ele>
        <time>2011-04-29T09:09:25Z</time>
      </trkpt>
      <trkpt lat="44.19026" lon="5.04015">
        <ele>316.41</ele>
        <time>2011-04-29T09:09:30Z</time>
      </trkpt>
      <trkpt lat="44.19028" lon="5.04015">
        <ele>319.78</ele>
        <time>2011-04-29T09:09:31Z</time>
      </trkpt>
      <trkpt lat="44.19029" lon="5.04015">
        <ele>318.81</ele>
        <time>2011-04-29T09:09:32Z</time>
      </trkpt>
      <trkpt lat="44.19031" lon="5.04016">
        <ele>314.97</ele>
        <time>2011-04-29T09:09:33Z</time>
      </trkpt>
      <trkpt lat="44.19032" lon="5.04017">
        <ele>318.33</ele>
        <time>2011-04-29T09:09:34Z</time>
      </trkpt>
      <trkpt lat="44.19036" lon="5.04018">
        <ele>321.22</ele>
        <time>2011-04-29T09:09:37Z</time>
      </trkpt>
      <trkpt lat="44.19038" lon="5.04017">
        <ele>316.41</ele>
        <time>2011-04-29T09:09:42Z</time>
      </trkpt>
      <trkpt lat="44.19039" lon="5.04017">
        <ele>318.81</ele>
        <time>2011-04-29T09:09:43Z</time>
      </trkpt>
      <trkpt lat="44.1904" lon="5.04017">
        <ele>322.18</ele>
        <time>2011-04-29T09:09:44Z</time>
      </trkpt>
      <trkpt lat="44.19041" lon="5.04017">
        <ele>321.22</ele>
        <time>2011-04-29T09:09:45Z</time>
      </trkpt>
      <trkpt lat="44.19041" lon="5.04016">
        <ele>316.41</ele>
        <time>2011-04-29T09:09:46Z</time>
      </trkpt>
      <trkpt lat="44.19042" lon="5.04016">
        <ele>318.81</ele>
        <time>2011-04-29T09:09:47Z</time>
      </trkpt>
      <trkpt lat="44.19043" lon="5.04017">
        <ele>322.18</ele>
        <time>2011-04-29T09:09:48Z</time>
      </trkpt>
      <trkpt lat="44.19044" lon="5.04019">
        <ele>319.3</ele>
        <time>2011-04-29T09:09:49Z</time>
      </trkpt>
      <trkpt lat="44.19047" lon="5.04026">
        <ele>321.22</ele>
        <time>2011-04-29T09:09:56Z</time>
      </trkpt>
      <trkpt lat="44.19049" lon="5.04028">
        <ele>322.18</ele>
        <time>2011-04-29T09:10:01Z</time>
      </trkpt>
      <trkpt lat="44.19049" lon="5.04028">
        <ele>318.81</ele>
        <time>2011-04-29T09:10:02Z</time>
      </trkpt>
      <trkpt lat="44.19048" lon="5.04029">
        <ele>320.74</ele>
        <time>2011-04-29T09:10:03Z</time>
      </trkpt>
      <trkpt lat="44.19051" lon="5.04034">
        <ele>322.18</ele>
        <time>2011-04-29T09:10:08Z</time>
      </trkpt>
      <trkpt lat="44.19054" lon="5.04035">
        <ele>320.74</ele>
        <time>2011-04-29T09:10:14Z</time>
      </trkpt>
      <trkpt lat="44.19055" lon="5.04035">
        <ele>324.58</ele>
        <time>2011-04-29T09:10:15Z</time>
      </trkpt>
      <trkpt lat="44.19055" lon="5.04035">
        <ele>321.7</ele>
        <time>2011-04-29T09:10:16Z</time>
      </trkpt>
      <trkpt lat="44.19058" lon="5.0404">
        <ele>325.54</ele>
        <time>2011-04-29T09:10:20Z</time>
      </trkpt>
      <trkpt lat="44.1906" lon="5.04045">
        <ele>320.74</ele>
        <time>2011-04-29T09:10:25Z</time>
      </trkpt>
      <trkpt lat="44.19059" lon="5.04047">
        <ele>325.54</ele>
        <time>2011-04-29T09:10:27Z</time>
      </trkpt>
      <trkpt lat="44.19059" lon="5.04049">
        <ele>321.7</ele>
        <time>2011-04-29T09:10:29Z</time>
      </trkpt>
      <trkpt lat="44.19061" lon="5.0405">
        <ele>325.54</ele>
        <time>2011-04-29T09:10:31Z</time>
      </trkpt>
      <trkpt lat="44.19062" lon="5.04051">
        <ele>321.7</ele>
        <time>2011-04-29T09:10:32Z</time>
      </trkpt>
      <trkpt lat="44.19065" lon="5.04051">
        <ele>325.54</ele>
        <time>2011-04-29T09:10:34Z</time>
      </trkpt>
      <trkpt lat="44.19066" lon="5.04052">
        <ele>325.06</ele>
        <time>2011-04-29T09:10:35Z</time>
      </trkpt>
      <trkpt lat="44.19075" lon="5.0406">
        <ele>328.91</ele>
        <time>2011-04-29T09:10:44Z</time>
      </trkpt>
      <trkpt lat="44.19077" lon="5.04061">
        <ele>325.06</ele>
        <time>2011-04-29T09:10:45Z</time>
      </trkpt>
      <trkpt lat="44.19078" lon="5.04062">
        <ele>326.5</ele>
        <time>2011-04-29T09:10:49Z</time>
      </trkpt>
      <trkpt lat="44.19081" lon="5.04064">
        <ele>326.5</ele>
        <time>2011-04-29T09:10:51Z</time>
      </trkpt>
      <trkpt lat="44.19082" lon="5.04065">
        <ele>326.5</ele>
        <time>2011-04-29T09:10:53Z</time>
      </trkpt>
      <trkpt lat="44.1909" lon="5.04071">
        <ele>327.47</ele>
        <time>2011-04-29T09:11:04Z</time>
      </trkpt>
      <trkpt lat="44.19095" lon="5.04078">
        <ele>328.43</ele>
        <time>2011-04-29T09:11:13Z</time>
      </trkpt>
      <trkpt lat="44.19096" lon="5.04079">
        <ele>328.43</ele>
        <time>2011-04-29T09:11:14Z</time>
      </trkpt>
      <trkpt lat="44.19103" lon="5.04093">
        <ele>329.87</ele>
        <time>2011-04-29T09:11:27Z</time>
      </trkpt>
      <trkpt lat="44.19103" lon="5.04094">
        <ele>329.87</ele>
        <time>2011-04-29T09:11:28Z</time>
      </trkpt>
      <trkpt lat="44.19107" lon="5.04102">
        <ele>329.87</ele>
        <time>2011-04-29T09:11:40Z</time>
      </trkpt>
      <trkpt lat="44.19109" lon="5.04105">
        <ele>329.39</ele>
        <time>2011-04-29T09:11:43Z</time>
      </trkpt>
      <trkpt lat="44.1911" lon="5.04113">
        <ele>329.39</ele>
        <time>2011-04-29T09:11:53Z</time>
      </trkpt>
      <trkpt lat="44.19117" lon="5.04128">
        <ele>327.95</ele>
        <time>2011-04-29T09:12:15Z</time>
      </trkpt>
      <trkpt lat="44.19125" lon="5.0414">
        <ele>327.95</ele>
        <time>2011-04-29T09:12:26Z</time>
      </trkpt>
      <trkpt lat="44.19127" lon="5.04151">
        <ele>327.47</ele>
        <time>2011-04-29T09:12:35Z</time>
      </trkpt>
      <trkpt lat="44.19131" lon="5.04163">
        <ele>327.47</ele>
        <time>2011-04-29T09:12:44Z</time>
      </trkpt>
      <trkpt lat="44.19133" lon="5.0417">
        <ele>328.43</ele>
        <time>2011-04-29T09:12:52Z</time>
      </trkpt>
      <trkpt lat="44.19137" lon="5.04183">
        <ele>328.91</ele>
        <time>2011-04-29T09:13:04Z</time>
      </trkpt>
      <trkpt lat="44.19137" lon="5.04184">
        <ele>328.43</ele>
        <time>2011-04-29T09:13:05Z</time>
      </trkpt>
      <trkpt lat="44.19137" lon="5.04188">
        <ele>328.91</ele>
        <time>2011-04-29T09:13:08Z</time>
      </trkpt>
      <trkpt lat="44.19137" lon="5.04207">
        <ele>327.47</ele>
        <time>2011-04-29T09:13:23Z</time>
      </trkpt>
      <trkpt lat="44.19136" lon="5.04211">
        <ele>328.91</ele>
        <time>2011-04-29T09:13:26Z</time>
      </trkpt>
      <trkpt lat="44.19134" lon="5.04228">
        <ele>326.99</ele>
        <time>2011-04-29T09:13:38Z</time>
      </trkpt>
      <trkpt lat="44.19132" lon="5.04247">
        <ele>327.95</ele>
        <time>2011-04-29T09:13:50Z</time>
      </trkpt>
      <trkpt lat="44.19131" lon="5.04255">
        <ele>326.99</ele>
        <time>2011-04-29T09:13:57Z</time>
      </trkpt>
      <trkpt lat="44.19127" lon="5.04272">
        <ele>327.95</ele>
        <time>2011-04-29T09:14:09Z</time>
      </trkpt>
      <trkpt lat="44.19124" lon="5.04292">
        <ele>327.47</ele>
        <time>2011-04-29T09:14:21Z</time>
      </trkpt>
      <trkpt lat="44.19122" lon="5.04306">
        <ele>327.47</ele>
        <time>2011-04-29T09:14:29Z</time>
      </trkpt>
      <trkpt lat="44.19116" lon="5.04322">
        <ele>328.91</ele>
        <time>2011-04-29T09:14:42Z</time>
      </trkpt>
      <trkpt lat="44.19111" lon="5.04331">
        <ele>328.43</ele>
        <time>2011-04-29T09:14:49Z</time>
      </trkpt>
      <trkpt lat="44.1911" lon="5.04333">
        <ele>327.95</ele>
        <time>2011-04-29T09:14:51Z</time>
      </trkpt>
      <trkpt lat="44.19109" lon="5.0434">
        <ele>328.91</ele>
        <time>2011-04-29T09:14:57Z</time>
      </trkpt>
      <trkpt lat="44.19108" lon="5.04343">
        <ele>328.91</ele>
        <time>2011-04-29T09:14:59Z</time>
      </trkpt>
      <trkpt lat="44.19107" lon="5.04345">
        <ele>328.91</ele>
        <time>2011-04-29T09:15:01Z</time>
      </trkpt>
      <trkpt lat="44.19102" lon="5.04364">
        <ele>329.39</ele>
        <time>2011-04-29T09:15:15Z</time>
      </trkpt>
      <trkpt lat="44.19096" lon="5.04378">
        <ele>329.87</ele>
        <time>2011-04-29T09:15:28Z</time>
      </trkpt>
      <trkpt lat="44.19096" lon="5.04378">
        <ele>330.35</ele>
        <time>2011-04-29T09:15:29Z</time>
      </trkpt>
      <trkpt lat="44.19095" lon="5.04382">
        <ele>330.35</ele>
        <time>2011-04-29T09:15:32Z</time>
      </trkpt>
      <trkpt lat="44.19093" lon="5.04389">
        <ele>330.83</ele>
        <time>2011-04-29T09:15:38Z</time>
      </trkpt>
      <trkpt lat="44.19092" lon="5.04391">
        <ele>331.31</ele>
        <time>2011-04-29T09:15:40Z</time>
      </trkpt>
      <trkpt lat="44.19087" lon="5.04409">
        <ele>331.31</ele>
        <time>2011-04-29T09:15:54Z</time>
      </trkpt>
      <trkpt lat="44.19087" lon="5.04419">
        <ele>331.79</ele>
        <time>2011-04-29T09:16:06Z</time>
      </trkpt>
      <trkpt lat="44.19086" lon="5.04427">
        <ele>331.31</ele>
        <time>2011-04-29T09:16:15Z</time>
      </trkpt>
      <trkpt lat="44.19087" lon="5.0443">
        <ele>332.27</ele>
        <time>2011-04-29T09:16:17Z</time>
      </trkpt>
      <trkpt lat="44.19086" lon="5.0444">
        <ele>332.27</ele>
        <time>2011-04-29T09:16:28Z</time>
      </trkpt>
      <trkpt lat="44.19087" lon="5.0446">
        <ele>332.75</ele>
        <time>2011-04-29T09:16:41Z</time>
      </trkpt>
      <trkpt lat="44.19088" lon="5.04476">
        <ele>333.71</ele>
        <time>2011-04-29T09:16:53Z</time>
      </trkpt>
      <trkpt lat="44.19089" lon="5.04491">
        <ele>334.68</ele>
        <time>2011-04-29T09:17:04Z</time>
      </trkpt>
      <trkpt lat="44.1909" lon="5.04507">
        <ele>335.16</ele>
        <time>2011-04-29T09:17:14Z</time>
      </trkpt>
      <trkpt lat="44.19092" lon="5.04525">
        <ele>335.16</ele>
        <time>2011-04-29T09:17:27Z</time>
      </trkpt>
      <trkpt lat="44.19091" lon="5.04532">
        <ele>336.12</ele>
        <time>2011-04-29T09:17:32Z</time>
      </trkpt>
      <trkpt lat="44.19095" lon="5.04549">
        <ele>336.12</ele>
        <time>2011-04-29T09:17:44Z</time>
      </trkpt>
      <trkpt lat="44.19095" lon="5.0456">
        <ele>336.12</ele>
        <time>2011-04-29T09:17:59Z</time>
      </trkpt>
      <trkpt lat="44.19095" lon="5.04576">
        <ele>336.6</ele>
        <time>2011-04-29T09:18:10Z</time>
      </trkpt>
      <trkpt lat="44.19095" lon="5.04592">
        <ele>336.6</ele>
        <time>2011-04-29T09:18:21Z</time>
      </trkpt>
      <trkpt lat="44.19095" lon="5.04602">
        <ele>336.6</ele>
        <time>2011-04-29T09:18:30Z</time>
      </trkpt>
      <trkpt lat="44.19094" lon="5.04606">
        <ele>337.56</ele>
        <time>2011-04-29T09:18:33Z</time>
      </trkpt>
      <trkpt lat="44.19093" lon="5.0461">
        <ele>337.56</ele>
        <time>2011-04-29T09:18:36Z</time>
      </trkpt>
      <trkpt lat="44.19095" lon="5.04635">
        <ele>337.56</ele>
        <time>2011-04-29T09:18:48Z</time>
      </trkpt>
      <trkpt lat="44.19095" lon="5.04646">
        <ele>339</ele>
        <time>2011-04-29T09:18:56Z</time>
      </trkpt>
      <trkpt lat="44.1909" lon="5.04661">
        <ele>338.52</ele>
        <time>2011-04-29T09:19:09Z</time>
      </trkpt>
      <trkpt lat="44.19089" lon="5.04663">
        <ele>338.52</ele>
        <time>2011-04-29T09:19:11Z</time>
      </trkpt>
      <trkpt lat="44.19087" lon="5.0467">
        <ele>338.04</ele>
        <time>2011-04-29T09:19:16Z</time>
      </trkpt>
      <trkpt lat="44.19082" lon="5.04683">
        <ele>338.52</ele>
        <time>2011-04-29T09:19:26Z</time>
      </trkpt>
      <trkpt lat="44.19079" lon="5.04695">
        <ele>338.52</ele>
        <time>2011-04-29T09:19:36Z</time>
      </trkpt>
      <trkpt lat="44.19078" lon="5.04701">
        <ele>339.48</ele>
        <time>2011-04-29T09:19:41Z</time>
      </trkpt>
      <trkpt lat="44.19071" lon="5.04716">
        <ele>339.96</ele>
        <time>2011-04-29T09:19:54Z</time>
      </trkpt>
      <trkpt lat="44.19069" lon="5.04716">
        <ele>340.44</ele>
        <time>2011-04-29T09:19:56Z</time>
      </trkpt>
      <trkpt lat="44.19069" lon="5.04719">
        <ele>339.96</ele>
        <time>2011-04-29T09:19:58Z</time>
      </trkpt>
      <trkpt lat="44.19066" lon="5.04723">
        <ele>340.44</ele>
        <time>2011-04-29T09:20:01Z</time>
      </trkpt>
      <trkpt lat="44.19058" lon="5.04739">
        <ele>340.92</ele>
        <time>2011-04-29T09:20:13Z</time>
      </trkpt>
      <trkpt lat="44.19057" lon="5.0474">
        <ele>341.41</ele>
        <time>2011-04-29T09:20:15Z</time>
      </trkpt>
      <trkpt lat="44.19051" lon="5.04756">
        <ele>342.37</ele>
        <time>2011-04-29T09:20:26Z</time>
      </trkpt>
      <trkpt lat="44.19049" lon="5.04768">
        <ele>343.33</ele>
        <time>2011-04-29T09:20:35Z</time>
      </trkpt>
      <trkpt lat="44.19051" lon="5.04777">
        <ele>344.77</ele>
        <time>2011-04-29T09:20:46Z</time>
      </trkpt>
      <trkpt lat="44.19055" lon="5.04788">
        <ele>346.69</ele>
        <time>2011-04-29T09:20:55Z</time>
      </trkpt>
      <trkpt lat="44.19047" lon="5.04796">
        <ele>347.65</ele>
        <time>2011-04-29T09:21:10Z</time>
      </trkpt>
      <trkpt lat="44.19052" lon="5.04808">
        <ele>349.1</ele>
        <time>2011-04-29T09:21:26Z</time>
      </trkpt>
      <trkpt lat="44.19065" lon="5.04823">
        <ele>349.58</ele>
        <time>2011-04-29T09:21:41Z</time>
      </trkpt>
      <trkpt lat="44.19076" lon="5.04834">
        <ele>350.54</ele>
        <time>2011-04-29T09:21:55Z</time>
      </trkpt>
      <trkpt lat="44.19088" lon="5.04843">
        <ele>351.98</ele>
        <time>2011-04-29T09:22:10Z</time>
      </trkpt>
      <trkpt lat="44.19098" lon="5.04853">
        <ele>353.9</ele>
        <time>2011-04-29T09:22:25Z</time>
      </trkpt>
      <trkpt lat="44.19107" lon="5.04859">
        <ele>355.34</ele>
        <time>2011-04-29T09:22:38Z</time>
      </trkpt>
      <trkpt lat="44.19117" lon="5.04867">
        <ele>357.27</ele>
        <time>2011-04-29T09:22:51Z</time>
      </trkpt>
      <trkpt lat="44.19127" lon="5.04875">
        <ele>358.23</ele>
        <time>2011-04-29T09:23:04Z</time>
      </trkpt>
      <trkpt lat="44.19137" lon="5.04882">
        <ele>360.63</ele>
        <time>2011-04-29T09:23:18Z</time>
      </trkpt>
      <trkpt lat="44.19143" lon="5.04886">
        <ele>361.11</ele>
        <time>2011-04-29T09:23:29Z</time>
      </trkpt>
      <trkpt lat="44.19152" lon="5.04896">
        <ele>362.07</ele>
        <time>2011-04-29T09:23:50Z</time>
      </trkpt>
      <trkpt lat="44.19157" lon="5.049">
        <ele>362.55</ele>
        <time>2011-04-29T09:23:55Z</time>
      </trkpt>
      <trkpt lat="44.19158" lon="5.04901">
        <ele>362.55</ele>
        <time>2011-04-29T09:23:57Z</time>
      </trkpt>
      <trkpt lat="44.1916" lon="5.04903">
        <ele>363.04</ele>
        <time>2011-04-29T09:23:59Z</time>
      </trkpt>
      <trkpt lat="44.19169" lon="5.0491">
        <ele>363.52</ele>
        <time>2011-04-29T09:24:10Z</time>
      </trkpt>
      <trkpt lat="44.19175" lon="5.04914">
        <ele>364</ele>
        <time>2011-04-29T09:24:16Z</time>
      </trkpt>
      <trkpt lat="44.19186" lon="5.04922">
        <ele>365.92</ele>
        <time>2011-04-29T09:24:30Z</time>
      </trkpt>
      <trkpt lat="44.19197" lon="5.0493">
        <ele>367.36</ele>
        <time>2011-04-29T09:24:44Z</time>
      </trkpt>
      <trkpt lat="44.19199" lon="5.04931">
        <ele>367.84</ele>
        <time>2011-04-29T09:24:47Z</time>
      </trkpt>
      <trkpt lat="44.19202" lon="5.04935">
        <ele>367.84</ele>
        <time>2011-04-29T09:24:51Z</time>
      </trkpt>
      <trkpt lat="44.19211" lon="5.0494">
        <ele>368.8</ele>
        <time>2011-04-29T09:25:03Z</time>
      </trkpt>
      <trkpt lat="44.19218" lon="5.04947">
        <ele>369.28</ele>
        <time>2011-04-29T09:25:14Z</time>
      </trkpt>
      <trkpt lat="44.19227" lon="5.04956">
        <ele>370.24</ele>
        <time>2011-04-29T09:25:26Z</time>
      </trkpt>
      <trkpt lat="44.19237" lon="5.04967">
        <ele>372.17</ele>
        <time>2011-04-29T09:25:40Z</time>
      </trkpt>
      <trkpt lat="44.19248" lon="5.04974">
        <ele>374.09</ele>
        <time>2011-04-29T09:25:55Z</time>
      </trkpt>
      <trkpt lat="44.19257" lon="5.04984">
        <ele>374.57</ele>
        <time>2011-04-29T09:26:07Z</time>
      </trkpt>
      <trkpt lat="44.19269" lon="5.04991">
        <ele>376.97</ele>
        <time>2011-04-29T09:26:25Z</time>
      </trkpt>
      <trkpt lat="44.19277" lon="5.05003">
        <ele>378.42</ele>
        <time>2011-04-29T09:26:39Z</time>
      </trkpt>
      <trkpt lat="44.19285" lon="5.05014">
        <ele>379.38</ele>
        <time>2011-04-29T09:26:52Z</time>
      </trkpt>
      <trkpt lat="44.19292" lon="5.05021">
        <ele>380.82</ele>
        <time>2011-04-29T09:27:05Z</time>
      </trkpt>
      <trkpt lat="44.19297" lon="5.0503">
        <ele>381.78</ele>
        <time>2011-04-29T09:27:17Z</time>
      </trkpt>
      <trkpt lat="44.19304" lon="5.05043">
        <ele>382.74</ele>
        <time>2011-04-29T09:27:29Z</time>
      </trkpt>
      <trkpt lat="44.1931" lon="5.05052">
        <ele>383.22</ele>
        <time>2011-04-29T09:27:39Z</time>
      </trkpt>
      <trkpt lat="44.19313" lon="5.05066">
        <ele>382.74</ele>
        <time>2011-04-29T09:27:51Z</time>
      </trkpt>
      <trkpt lat="44.19316" lon="5.05086">
        <ele>383.7</ele>
        <time>2011-04-29T09:28:04Z</time>
      </trkpt>
      <trkpt lat="44.19316" lon="5.05087">
        <ele>383.7</ele>
        <time>2011-04-29T09:28:05Z</time>
      </trkpt>
      <trkpt lat="44.19316" lon="5.05094">
        <ele>383.7</ele>
        <time>2011-04-29T09:28:09Z</time>
      </trkpt>
      <trkpt lat="44.19318" lon="5.05113">
        <ele>383.7</ele>
        <time>2011-04-29T09:28:21Z</time>
      </trkpt>
      <trkpt lat="44.19318" lon="5.05116">
        <ele>383.7</ele>
        <time>2011-04-29T09:28:23Z</time>
      </trkpt>
      <trkpt lat="44.19322" lon="5.0514">
        <ele>384.66</ele>
        <time>2011-04-29T09:28:38Z</time>
      </trkpt>
      <trkpt lat="44.19324" lon="5.0516">
        <ele>385.15</ele>
        <time>2011-04-29T09:28:50Z</time>
      </trkpt>
      <trkpt lat="44.19325" lon="5.05172">
        <ele>385.63</ele>
        <time>2011-04-29T09:29:00Z</time>
      </trkpt>
      <trkpt lat="44.19325" lon="5.05185">
        <ele>387.07</ele>
        <time>2011-04-29T09:29:09Z</time>
      </trkpt>
      <trkpt lat="44.19326" lon="5.05202">
        <ele>388.51</ele>
        <time>2011-04-29T09:29:22Z</time>
      </trkpt>
      <trkpt lat="44.19329" lon="5.05214">
        <ele>388.99</ele>
        <time>2011-04-29T09:29:29Z</time>
      </trkpt>
      <trkpt lat="44.19331" lon="5.05227">
        <ele>390.91</ele>
        <time>2011-04-29T09:29:39Z</time>
      </trkpt>
      <trkpt lat="44.19333" lon="5.05238">
        <ele>391.87</ele>
        <time>2011-04-29T09:29:50Z</time>
      </trkpt>
      <trkpt lat="44.19334" lon="5.05248">
        <ele>392.84</ele>
        <time>2011-04-29T09:30:00Z</time>
      </trkpt>
      <trkpt lat="44.19335" lon="5.05263">
        <ele>394.28</ele>
        <time>2011-04-29T09:30:13Z</time>
      </trkpt>
      <trkpt lat="44.19336" lon="5.05276">
        <ele>394.76</ele>
        <time>2011-04-29T09:30:24Z</time>
      </trkpt>
      <trkpt lat="44.19335" lon="5.05288">
        <ele>395.24</ele>
        <time>2011-04-29T09:30:34Z</time>
      </trkpt>
      <trkpt lat="44.19333" lon="5.05301">
        <ele>395.24</ele>
        <time>2011-04-29T09:30:42Z</time>
      </trkpt>
      <trkpt lat="44.19331" lon="5.0531">
        <ele>395.24</ele>
        <time>2011-04-29T09:30:49Z</time>
      </trkpt>
      <trkpt lat="44.19328" lon="5.0533">
        <ele>395.24</ele>
        <time>2011-04-29T09:31:02Z</time>
      </trkpt>
      <trkpt lat="44.19329" lon="5.05346">
        <ele>394.76</ele>
        <time>2011-04-29T09:31:13Z</time>
      </trkpt>
      <trkpt lat="44.19333" lon="5.05362">
        <ele>394.28</ele>
        <time>2011-04-29T09:31:23Z</time>
      </trkpt>
      <trkpt lat="44.19335" lon="5.05372">
        <ele>392.84</ele>
        <time>2011-04-29T09:31:33Z</time>
      </trkpt>
      <trkpt lat="44.19335" lon="5.05373">
        <ele>393.8</ele>
        <time>2011-04-29T09:31:37Z</time>
      </trkpt>
      <trkpt lat="44.19334" lon="5.05374">
        <ele>394.76</ele>
        <time>2011-04-29T09:31:40Z</time>
      </trkpt>
      <trkpt lat="44.19331" lon="5.05376">
        <ele>396.2</ele>
        <time>2011-04-29T09:31:51Z</time>
      </trkpt>
      <trkpt lat="44.19328" lon="5.0538">
        <ele>395.72</ele>
        <time>2011-04-29T09:31:56Z</time>
      </trkpt>
      <trkpt lat="44.19321" lon="5.05392">
        <ele>397.16</ele>
        <time>2011-04-29T09:32:07Z</time>
      </trkpt>
      <trkpt lat="44.19314" lon="5.05401">
        <ele>398.12</ele>
        <time>2011-04-29T09:32:18Z</time>
      </trkpt>
      <trkpt lat="44.1931" lon="5.0541">
        <ele>399.57</ele>
        <time>2011-04-29T09:32:26Z</time>
      </trkpt>
      <trkpt lat="44.19303" lon="5.05422">
        <ele>400.05</ele>
        <time>2011-04-29T09:32:38Z</time>
      </trkpt>
      <trkpt lat="44.19303" lon="5.05423">
        <ele>400.53</ele>
        <time>2011-04-29T09:32:39Z</time>
      </trkpt>
      <trkpt lat="44.19297" lon="5.05434">
        <ele>401.01</ele>
        <time>2011-04-29T09:32:48Z</time>
      </trkpt>
      <trkpt lat="44.19292" lon="5.05444">
        <ele>401.49</ele>
        <time>2011-04-29T09:32:59Z</time>
      </trkpt>
      <trkpt lat="44.19288" lon="5.0545">
        <ele>400.05</ele>
        <time>2011-04-29T09:33:06Z</time>
      </trkpt>
      <trkpt lat="44.19282" lon="5.05462">
        <ele>402.45</ele>
        <time>2011-04-29T09:33:18Z</time>
      </trkpt>
      <trkpt lat="44.19275" lon="5.05468">
        <ele>401.97</ele>
        <time>2011-04-29T09:33:29Z</time>
      </trkpt>
      <trkpt lat="44.1927" lon="5.05473">
        <ele>402.45</ele>
        <time>2011-04-29T09:33:35Z</time>
      </trkpt>
      <trkpt lat="44.19268" lon="5.05477">
        <ele>401.01</ele>
        <time>2011-04-29T09:33:38Z</time>
      </trkpt>
      <trkpt lat="44.19259" lon="5.05489">
        <ele>401.49</ele>
        <time>2011-04-29T09:33:49Z</time>
      </trkpt>
      <trkpt lat="44.19253" lon="5.055">
        <ele>401.97</ele>
        <time>2011-04-29T09:33:58Z</time>
      </trkpt>
      <trkpt lat="44.19246" lon="5.05513">
        <ele>402.45</ele>
        <time>2011-04-29T09:34:11Z</time>
      </trkpt>
      <trkpt lat="44.19245" lon="5.05515">
        <ele>403.41</ele>
        <time>2011-04-29T09:34:13Z</time>
      </trkpt>
      <trkpt lat="44.19244" lon="5.05519">
        <ele>402.45</ele>
        <time>2011-04-29T09:34:15Z</time>
      </trkpt>
      <trkpt lat="44.19239" lon="5.05529">
        <ele>402.93</ele>
        <time>2011-04-29T09:34:24Z</time>
      </trkpt>
      <trkpt lat="44.19234" lon="5.05538">
        <ele>401.97</ele>
        <time>2011-04-29T09:34:35Z</time>
      </trkpt>
      <trkpt lat="44.19231" lon="5.05544">
        <ele>401.01</ele>
        <time>2011-04-29T09:35:06Z</time>
      </trkpt>
      <trkpt lat="44.19227" lon="5.05545">
        <ele>399.08</ele>
        <time>2011-04-29T09:35:19Z</time>
      </trkpt>
      <trkpt lat="44.19223" lon="5.05545">
        <ele>399.08</ele>
        <time>2011-04-29T09:35:32Z</time>
      </trkpt>
      <trkpt lat="44.19221" lon="5.05544">
        <ele>400.53</ele>
        <time>2011-04-29T09:35:46Z</time>
      </trkpt>
      <trkpt lat="44.19216" lon="5.05546">
        <ele>401.97</ele>
        <time>2011-04-29T09:35:58Z</time>
      </trkpt>
      <trkpt lat="44.19213" lon="5.05547">
        <ele>403.41</ele>
        <time>2011-04-29T09:36:12Z</time>
      </trkpt>
      <trkpt lat="44.19212" lon="5.05549">
        <ele>402.45</ele>
        <time>2011-04-29T09:36:30Z</time>
      </trkpt>
      <trkpt lat="44.19212" lon="5.05549">
        <ele>403.89</ele>
        <time>2011-04-29T09:38:00Z</time>
      </trkpt>
      <trkpt lat="44.19211" lon="5.05552">
        <ele>404.37</ele>
        <time>2011-04-29T09:38:16Z</time>
      </trkpt>
      <trkpt lat="44.19211" lon="5.05554">
        <ele>404.85</ele>
        <time>2011-04-29T09:38:34Z</time>
      </trkpt>
      <trkpt lat="44.19208" lon="5.05556">
        <ele>404.85</ele>
        <time>2011-04-29T09:38:54Z</time>
      </trkpt>
      <trkpt lat="44.19207" lon="5.05561">
        <ele>405.81</ele>
        <time>2011-04-29T09:39:07Z</time>
      </trkpt>
      <trkpt lat="44.19204" lon="5.05564">
        <ele>407.26</ele>
        <time>2011-04-29T09:39:18Z</time>
      </trkpt>
      <trkpt lat="44.192" lon="5.05564">
        <ele>408.22</ele>
        <time>2011-04-29T09:39:31Z</time>
      </trkpt>
      <trkpt lat="44.19198" lon="5.05565">
        <ele>409.66</ele>
        <time>2011-04-29T09:39:43Z</time>
      </trkpt>
      <trkpt lat="44.19197" lon="5.05566">
        <ele>411.1</ele>
        <time>2011-04-29T09:39:55Z</time>
      </trkpt>
      <trkpt lat="44.19196" lon="5.05565">
        <ele>411.58</ele>
        <time>2011-04-29T09:40:15Z</time>
      </trkpt>
      <trkpt lat="44.19192" lon="5.05565">
        <ele>413.02</ele>
        <time>2011-04-29T09:40:43Z</time>
      </trkpt>
      <trkpt lat="44.19184" lon="5.05565">
        <ele>413.98</ele>
        <time>2011-04-29T09:40:54Z</time>
      </trkpt>
      <trkpt lat="44.19178" lon="5.05566">
        <ele>416.87</ele>
        <time>2011-04-29T09:41:10Z</time>
      </trkpt>
      <trkpt lat="44.19173" lon="5.05562">
        <ele>419.27</ele>
        <time>2011-04-29T09:41:24Z</time>
      </trkpt>
      <trkpt lat="44.19169" lon="5.05557">
        <ele>420.71</ele>
        <time>2011-04-29T09:41:41Z</time>
      </trkpt>
      <trkpt lat="44.19167" lon="5.05555">
        <ele>423.6</ele>
        <time>2011-04-29T09:42:00Z</time>
      </trkpt>
      <trkpt lat="44.19164" lon="5.05553">
        <ele>424.56</ele>
        <time>2011-04-29T09:42:23Z</time>
      </trkpt>
      <trkpt lat="44.19154" lon="5.05547">
        <ele>426</ele>
        <time>2011-04-29T09:42:34Z</time>
      </trkpt>
      <trkpt lat="44.19149" lon="5.05543">
        <ele>427.44</ele>
        <time>2011-04-29T09:42:50Z</time>
      </trkpt>
      <trkpt lat="44.19139" lon="5.05542">
        <ele>428.89</ele>
        <time>2011-04-29T09:43:03Z</time>
      </trkpt>
      <trkpt lat="44.19136" lon="5.05544">
        <ele>430.33</ele>
        <time>2011-04-29T09:43:13Z</time>
      </trkpt>
      <trkpt lat="44.19135" lon="5.05546">
        <ele>430.33</ele>
        <time>2011-04-29T09:43:52Z</time>
      </trkpt>
      <trkpt lat="44.19134" lon="5.05547">
        <ele>430.33</ele>
        <time>2011-04-29T09:44:24Z</time>
      </trkpt>
      <trkpt lat="44.19133" lon="5.05548">
        <ele>430.81</ele>
        <time>2011-04-29T09:44:36Z</time>
      </trkpt>
      <trkpt lat="44.19134" lon="5.05551">
        <ele>430.33</ele>
        <time>2011-04-29T09:45:03Z</time>
      </trkpt>
      <trkpt lat="44.1914" lon="5.05562">
        <ele>431.29</ele>
        <time>2011-04-29T09:45:17Z</time>
      </trkpt>
      <trkpt lat="44.19145" lon="5.05572">
        <ele>431.29</ele>
        <time>2011-04-29T09:45:29Z</time>
      </trkpt>
      <trkpt lat="44.19148" lon="5.05583">
        <ele>431.77</ele>
        <time>2011-04-29T09:45:43Z</time>
      </trkpt>
      <trkpt lat="44.19148" lon="5.05586">
        <ele>431.77</ele>
        <time>2011-04-29T09:46:11Z</time>
      </trkpt>
      <trkpt lat="44.19145" lon="5.05578">
        <ele>430.81</ele>
        <time>2011-04-29T09:46:20Z</time>
      </trkpt>
      <trkpt lat="44.19139" lon="5.05563">
        <ele>431.29</ele>
        <time>2011-04-29T09:46:34Z</time>
      </trkpt>
      <trkpt lat="44.19133" lon="5.05559">
        <ele>430.81</ele>
        <time>2011-04-29T09:46:49Z</time>
      </trkpt>
      <trkpt lat="44.19135" lon="5.05547">
        <ele>428.4</ele>
        <time>2011-04-29T09:47:23Z</time>
      </trkpt>
      <trkpt lat="44.19143" lon="5.05544">
        <ele>425.04</ele>
        <time>2011-04-29T09:47:43Z</time>
      </trkpt>
      <trkpt lat="44.1915" lon="5.05549">
        <ele>423.6</ele>
        <time>2011-04-29T09:47:58Z</time>
      </trkpt>
      <trkpt lat="44.19157" lon="5.05558">
        <ele>421.19</ele>
        <time>2011-04-29T09:48:22Z</time>
      </trkpt>
      <trkpt lat="44.19163" lon="5.05558">
        <ele>419.27</ele>
        <time>2011-04-29T09:48:33Z</time>
      </trkpt>
      <trkpt lat="44.19168" lon="5.05565">
        <ele>415.91</ele>
        <time>2011-04-29T09:48:53Z</time>
      </trkpt>
      <trkpt lat="44.19177" lon="5.05565">
        <ele>414.95</ele>
        <time>2011-04-29T09:49:06Z</time>
      </trkpt>
      <trkpt lat="44.19184" lon="5.05568">
        <ele>411.58</ele>
        <time>2011-04-29T09:49:18Z</time>
      </trkpt>
      <trkpt lat="44.19192" lon="5.05568">
        <ele>410.14</ele>
        <time>2011-04-29T09:49:30Z</time>
      </trkpt>
      <trkpt lat="44.19198" lon="5.05569">
        <ele>407.74</ele>
        <time>2011-04-29T09:49:44Z</time>
      </trkpt>
      <trkpt lat="44.19202" lon="5.05571">
        <ele>407.74</ele>
        <time>2011-04-29T09:50:01Z</time>
      </trkpt>
      <trkpt lat="44.19207" lon="5.05557">
        <ele>405.33</ele>
        <time>2011-04-29T09:50:19Z</time>
      </trkpt>
      <trkpt lat="44.19212" lon="5.05551">
        <ele>403.41</ele>
        <time>2011-04-29T09:50:26Z</time>
      </trkpt>
      <trkpt lat="44.19216" lon="5.05548">
        <ele>403.89</ele>
        <time>2011-04-29T09:50:29Z</time>
      </trkpt>
      <trkpt lat="44.19223" lon="5.0555">
        <ele>406.29</ele>
        <time>2011-04-29T09:50:41Z</time>
      </trkpt>
      <trkpt lat="44.19225" lon="5.05556">
        <ele>406.77</ele>
        <time>2011-04-29T09:50:53Z</time>
      </trkpt>
      <trkpt lat="44.19223" lon="5.05567">
        <ele>405.81</ele>
        <time>2011-04-29T09:51:03Z</time>
      </trkpt>
      <trkpt lat="44.19221" lon="5.05583">
        <ele>405.33</ele>
        <time>2011-04-29T09:51:14Z</time>
      </trkpt>
      <trkpt lat="44.19219" lon="5.05591">
        <ele>405.33</ele>
        <time>2011-04-29T09:51:24Z</time>
      </trkpt>
      <trkpt lat="44.1922" lon="5.05609">
        <ele>406.77</ele>
        <time>2011-04-29T09:52:19Z</time>
      </trkpt>
      <trkpt lat="44.19224" lon="5.05619">
        <ele>408.22</ele>
        <time>2011-04-29T09:52:36Z</time>
      </trkpt>
      <trkpt lat="44.1923" lon="5.05633">
        <ele>409.66</ele>
        <time>2011-04-29T09:52:51Z</time>
      </trkpt>
      <trkpt lat="44.19235" lon="5.05644">
        <ele>410.14</ele>
        <time>2011-04-29T09:53:03Z</time>
      </trkpt>
      <trkpt lat="44.19241" lon="5.05657">
        <ele>410.14</ele>
        <time>2011-04-29T09:53:16Z</time>
      </trkpt>
      <trkpt lat="44.19246" lon="5.05662">
        <ele>411.1</ele>
        <time>2011-04-29T09:53:29Z</time>
      </trkpt>
      <trkpt lat="44.19247" lon="5.05662">
        <ele>411.58</ele>
        <time>2011-04-29T09:53:56Z</time>
      </trkpt>
      <trkpt lat="44.19251" lon="5.05657">
        <ele>413.5</ele>
        <time>2011-04-29T09:56:01Z</time>
      </trkpt>
      <trkpt lat="44.19252" lon="5.0565">
        <ele>414.47</ele>
        <time>2011-04-29T09:57:24Z</time>
      </trkpt>
      <trkpt lat="44.19248" lon="5.05641">
        <ele>414.95</ele>
        <time>2011-04-29T09:57:38Z</time>
      </trkpt>
      <trkpt lat="44.19249" lon="5.05638">
        <ele>415.43</ele>
        <time>2011-04-29T09:57:50Z</time>
      </trkpt>
      <trkpt lat="44.19251" lon="5.05628">
        <ele>416.39</ele>
        <time>2011-04-29T09:58:14Z</time>
      </trkpt>
      <trkpt lat="44.19253" lon="5.05621">
        <ele>418.31</ele>
        <time>2011-04-29T09:58:27Z</time>
      </trkpt>
      <trkpt lat="44.19254" lon="5.05613">
        <ele>418.79</ele>
        <time>2011-04-29T09:58:40Z</time>
      </trkpt>
      <trkpt lat="44.19257" lon="5.05614">
        <ele>421.19</ele>
        <time>2011-04-29T09:59:11Z</time>
      </trkpt>
      <trkpt lat="44.19259" lon="5.05612">
        <ele>424.56</ele>
        <time>2011-04-29T09:59:38Z</time>
      </trkpt>
      <trkpt lat="44.19262" lon="5.05613">
        <ele>425.04</ele>
        <time>2011-04-29T10:00:04Z</time>
      </trkpt>
      <trkpt lat="44.19267" lon="5.05615">
        <ele>427.92</ele>
        <time>2011-04-29T10:00:16Z</time>
      </trkpt>
      <trkpt lat="44.19272" lon="5.05626">
        <ele>429.85</ele>
        <time>2011-04-29T10:00:43Z</time>
      </trkpt>
      <trkpt lat="44.19274" lon="5.05631">
        <ele>429.85</ele>
        <time>2011-04-29T10:01:25Z</time>
      </trkpt>
      <trkpt lat="44.19278" lon="5.05636">
        <ele>431.29</ele>
        <time>2011-04-29T10:01:41Z</time>
      </trkpt>
      <trkpt lat="44.19282" lon="5.05648">
        <ele>432.25</ele>
        <time>2011-04-29T10:02:04Z</time>
      </trkpt>
      <trkpt lat="44.19283" lon="5.0566">
        <ele>431.77</ele>
        <time>2011-04-29T10:02:17Z</time>
      </trkpt>
      <trkpt lat="44.19286" lon="5.05662">
        <ele>433.69</ele>
        <time>2011-04-29T10:02:31Z</time>
      </trkpt>
      <trkpt lat="44.19289" lon="5.05664">
        <ele>437.06</ele>
        <time>2011-04-29T10:02:46Z</time>
      </trkpt>
      <trkpt lat="44.19296" lon="5.05668">
        <ele>439.46</ele>
        <time>2011-04-29T10:03:08Z</time>
      </trkpt>
      <trkpt lat="44.19302" lon="5.05667">
        <ele>441.38</ele>
        <time>2011-04-29T10:03:18Z</time>
      </trkpt>
      <trkpt lat="44.19307" lon="5.05661">
        <ele>441.38</ele>
        <time>2011-04-29T10:03:31Z</time>
      </trkpt>
      <trkpt lat="44.1931" lon="5.05661">
        <ele>443.79</ele>
        <time>2011-04-29T10:03:45Z</time>
      </trkpt>
      <trkpt lat="44.19315" lon="5.05662">
        <ele>445.23</ele>
        <time>2011-04-29T10:03:59Z</time>
      </trkpt>
      <trkpt lat="44.19318" lon="5.05666">
        <ele>447.63</ele>
        <time>2011-04-29T10:04:12Z</time>
      </trkpt>
      <trkpt lat="44.19323" lon="5.05665">
        <ele>449.55</ele>
        <time>2011-04-29T10:04:28Z</time>
      </trkpt>
      <trkpt lat="44.1933" lon="5.05663">
        <ele>451.96</ele>
        <time>2011-04-29T10:04:45Z</time>
      </trkpt>
      <trkpt lat="44.19338" lon="5.0566">
        <ele>453.4</ele>
        <time>2011-04-29T10:05:04Z</time>
      </trkpt>
      <trkpt lat="44.19343" lon="5.05659">
        <ele>455.32</ele>
        <time>2011-04-29T10:05:15Z</time>
      </trkpt>
      <trkpt lat="44.19348" lon="5.05654">
        <ele>456.28</ele>
        <time>2011-04-29T10:05:32Z</time>
      </trkpt>
      <trkpt lat="44.19355" lon="5.0565">
        <ele>458.21</ele>
        <time>2011-04-29T10:05:46Z</time>
      </trkpt>
      <trkpt lat="44.19359" lon="5.05648">
        <ele>459.65</ele>
        <time>2011-04-29T10:06:01Z</time>
      </trkpt>
      <trkpt lat="44.19363" lon="5.05645">
        <ele>460.61</ele>
        <time>2011-04-29T10:06:15Z</time>
      </trkpt>
      <trkpt lat="44.1937" lon="5.05639">
        <ele>461.57</ele>
        <time>2011-04-29T10:06:26Z</time>
      </trkpt>
      <trkpt lat="44.19376" lon="5.05634">
        <ele>463.01</ele>
        <time>2011-04-29T10:06:38Z</time>
      </trkpt>
      <trkpt lat="44.19383" lon="5.05631">
        <ele>463.97</ele>
        <time>2011-04-29T10:06:50Z</time>
      </trkpt>
      <trkpt lat="44.1939" lon="5.05634">
        <ele>467.34</ele>
        <time>2011-04-29T10:07:11Z</time>
      </trkpt>
      <trkpt lat="44.19397" lon="5.05637">
        <ele>468.78</ele>
        <time>2011-04-29T10:07:25Z</time>
      </trkpt>
      <trkpt lat="44.19401" lon="5.0564">
        <ele>470.22</ele>
        <time>2011-04-29T10:07:38Z</time>
      </trkpt>
      <trkpt lat="44.1941" lon="5.05645">
        <ele>471.18</ele>
        <time>2011-04-29T10:07:50Z</time>
      </trkpt>
      <trkpt lat="44.19416" lon="5.05651">
        <ele>472.63</ele>
        <time>2011-04-29T10:08:02Z</time>
      </trkpt>
      <trkpt lat="44.19419" lon="5.05653">
        <ele>474.07</ele>
        <time>2011-04-29T10:08:14Z</time>
      </trkpt>
      <trkpt lat="44.19426" lon="5.05654">
        <ele>475.99</ele>
        <time>2011-04-29T10:08:29Z</time>
      </trkpt>
      <trkpt lat="44.19433" lon="5.05662">
        <ele>477.91</ele>
        <time>2011-04-29T10:08:39Z</time>
      </trkpt>
      <trkpt lat="44.19437" lon="5.05665">
        <ele>478.87</ele>
        <time>2011-04-29T10:08:50Z</time>
      </trkpt>
      <trkpt lat="44.19444" lon="5.05669">
        <ele>479.84</ele>
        <time>2011-04-29T10:09:02Z</time>
      </trkpt>
      <trkpt lat="44.19451" lon="5.05677">
        <ele>481.28</ele>
        <time>2011-04-29T10:09:12Z</time>
      </trkpt>
      <trkpt lat="44.19459" lon="5.05684">
        <ele>482.72</ele>
        <time>2011-04-29T10:09:25Z</time>
      </trkpt>
      <trkpt lat="44.19466" lon="5.0569">
        <ele>483.68</ele>
        <time>2011-04-29T10:09:37Z</time>
      </trkpt>
      <trkpt lat="44.19472" lon="5.05694">
        <ele>485.12</ele>
        <time>2011-04-29T10:09:47Z</time>
      </trkpt>
      <trkpt lat="44.19478" lon="5.05701">
        <ele>485.6</ele>
        <time>2011-04-29T10:10:01Z</time>
      </trkpt>
      <trkpt lat="44.19481" lon="5.05705">
        <ele>485.6</ele>
        <time>2011-04-29T10:10:14Z</time>
      </trkpt>
      <trkpt lat="44.19487" lon="5.05712">
        <ele>485.12</ele>
        <time>2011-04-29T10:10:28Z</time>
      </trkpt>
      <trkpt lat="44.19495" lon="5.05722">
        <ele>485.12</ele>
        <time>2011-04-29T10:10:41Z</time>
      </trkpt>
      <trkpt lat="44.19501" lon="5.05731">
        <ele>485.12</ele>
        <time>2011-04-29T10:10:51Z</time>
      </trkpt>
      <trkpt lat="44.19506" lon="5.05737">
        <ele>485.12</ele>
        <time>2011-04-29T10:11:01Z</time>
      </trkpt>
      <trkpt lat="44.19512" lon="5.05743">
        <ele>485.12</ele>
        <time>2011-04-29T10:11:10Z</time>
      </trkpt>
      <trkpt lat="44.19521" lon="5.05752">
        <ele>485.12</ele>
        <time>2011-04-29T10:11:22Z</time>
      </trkpt>
      <trkpt lat="44.1953" lon="5.05758">
        <ele>486.08</ele>
        <time>2011-04-29T10:11:33Z</time>
      </trkpt>
      <trkpt lat="44.1954" lon="5.05764">
        <ele>486.56</ele>
        <time>2011-04-29T10:11:45Z</time>
      </trkpt>
      <trkpt lat="44.19548" lon="5.05771">
        <ele>487.53</ele>
        <time>2011-04-29T10:11:57Z</time>
      </trkpt>
      <trkpt lat="44.19557" lon="5.05774">
        <ele>488.97</ele>
        <time>2011-04-29T10:12:11Z</time>
      </trkpt>
      <trkpt lat="44.19562" lon="5.05773">
        <ele>489.45</ele>
        <time>2011-04-29T10:12:18Z</time>
      </trkpt>
      <trkpt lat="44.19561" lon="5.05763">
        <ele>488.97</ele>
        <time>2011-04-29T10:12:30Z</time>
      </trkpt>
      <trkpt lat="44.1956" lon="5.05755">
        <ele>488.97</ele>
        <time>2011-04-29T10:12:37Z</time>
      </trkpt>
      <trkpt lat="44.19556" lon="5.05737">
        <ele>489.45</ele>
        <time>2011-04-29T10:12:51Z</time>
      </trkpt>
      <trkpt lat="44.19554" lon="5.05721">
        <ele>489.93</ele>
        <time>2011-04-29T10:13:02Z</time>
      </trkpt>
      <trkpt lat="44.19555" lon="5.05706">
        <ele>490.89</ele>
        <time>2011-04-29T10:13:14Z</time>
      </trkpt>
      <trkpt lat="44.19554" lon="5.05692">
        <ele>490.89</ele>
        <time>2011-04-29T10:13:25Z</time>
      </trkpt>
      <trkpt lat="44.19555" lon="5.05686">
        <ele>490.89</ele>
        <time>2011-04-29T10:13:29Z</time>
      </trkpt>
      <trkpt lat="44.19556" lon="5.05666">
        <ele>491.37</ele>
        <time>2011-04-29T10:13:44Z</time>
      </trkpt>
      <trkpt lat="44.19556" lon="5.05652">
        <ele>491.37</ele>
        <time>2011-04-29T10:13:57Z</time>
      </trkpt>
      <trkpt lat="44.19557" lon="5.05639">
        <ele>492.33</ele>
        <time>2011-04-29T10:14:08Z</time>
      </trkpt>
      <trkpt lat="44.19556" lon="5.05624">
        <ele>491.85</ele>
        <time>2011-04-29T10:14:20Z</time>
      </trkpt>
      <trkpt lat="44.19558" lon="5.05607">
        <ele>493.29</ele>
        <time>2011-04-29T10:14:33Z</time>
      </trkpt>
      <trkpt lat="44.1956" lon="5.05592">
        <ele>494.26</ele>
        <time>2011-04-29T10:14:45Z</time>
      </trkpt>
      <trkpt lat="44.19561" lon="5.05586">
        <ele>494.26</ele>
        <time>2011-04-29T10:14:51Z</time>
      </trkpt>
      <trkpt lat="44.19561" lon="5.05566">
        <ele>495.22</ele>
        <time>2011-04-29T10:15:07Z</time>
      </trkpt>
      <trkpt lat="44.19561" lon="5.0555">
        <ele>495.7</ele>
        <time>2011-04-29T10:15:22Z</time>
      </trkpt>
      <trkpt lat="44.19558" lon="5.05535">
        <ele>495.7</ele>
        <time>2011-04-29T10:15:34Z</time>
      </trkpt>
      <trkpt lat="44.19556" lon="5.05518">
        <ele>495.7</ele>
        <time>2011-04-29T10:15:47Z</time>
      </trkpt>
      <trkpt lat="44.19555" lon="5.05504">
        <ele>496.18</ele>
        <time>2011-04-29T10:16:00Z</time>
      </trkpt>
      <trkpt lat="44.19554" lon="5.05487">
        <ele>497.62</ele>
        <time>2011-04-29T10:16:14Z</time>
      </trkpt>
      <trkpt lat="44.19555" lon="5.05472">
        <ele>498.1</ele>
        <time>2011-04-29T10:16:27Z</time>
      </trkpt>
      <trkpt lat="44.19555" lon="5.0545">
        <ele>500.02</ele>
        <time>2011-04-29T10:16:45Z</time>
      </trkpt>
      <trkpt lat="44.19558" lon="5.05437">
        <ele>500.98</ele>
        <time>2011-04-29T10:16:57Z</time>
      </trkpt>
      <trkpt lat="44.19566" lon="5.05432">
        <ele>502.43</ele>
        <time>2011-04-29T10:17:09Z</time>
      </trkpt>
      <trkpt lat="44.19575" lon="5.0543">
        <ele>503.87</ele>
        <time>2011-04-29T10:17:22Z</time>
      </trkpt>
      <trkpt lat="44.19581" lon="5.05438">
        <ele>504.35</ele>
        <time>2011-04-29T10:17:37Z</time>
      </trkpt>
      <trkpt lat="44.19584" lon="5.05447">
        <ele>505.31</ele>
        <time>2011-04-29T10:17:51Z</time>
      </trkpt>
      <trkpt lat="44.19585" lon="5.0545">
        <ele>505.79</ele>
        <time>2011-04-29T10:17:55Z</time>
      </trkpt>
      <trkpt lat="44.1959" lon="5.05462">
        <ele>506.75</ele>
        <time>2011-04-29T10:18:09Z</time>
      </trkpt>
      <trkpt lat="44.1959" lon="5.05463">
        <ele>501.46</ele>
        <time>2011-04-29T10:18:54Z</time>
      </trkpt>
      <trkpt lat="44.1959" lon="5.05463">
        <ele>506.27</ele>
        <time>2011-04-29T10:18:55Z</time>
      </trkpt>
      <trkpt lat="44.1959" lon="5.05463">
        <ele>510.12</ele>
        <time>2011-04-29T10:18:56Z</time>
      </trkpt>
      <trkpt lat="44.1959" lon="5.05463">
        <ele>507.23</ele>
        <time>2011-04-29T10:18:57Z</time>
      </trkpt>
      <trkpt lat="44.1959" lon="5.05463">
        <ele>506.75</ele>
        <time>2011-04-29T10:18:59Z</time>
      </trkpt>
      <trkpt lat="44.1959" lon="5.05462">
        <ele>503.87</ele>
        <time>2011-04-29T10:19:47Z</time>
      </trkpt>
      <trkpt lat="44.1959" lon="5.05462">
        <ele>499.54</ele>
        <time>2011-04-29T11:05:44Z</time>
      </trkpt>
      <trkpt lat="44.1959" lon="5.05462">
        <ele>510.12</ele>
        <time>2011-04-29T11:05:45Z</time>
      </trkpt>
      <trkpt lat="44.1959" lon="5.05462">
        <ele>511.08</ele>
        <time>2011-04-29T11:05:50Z</time>
      </trkpt>
      <trkpt lat="44.19588" lon="5.05467">
        <ele>512.04</ele>
        <time>2011-04-29T11:05:51Z</time>
      </trkpt>
      <trkpt lat="44.19592" lon="5.05472">
        <ele>508.67</ele>
        <time>2011-04-29T11:05:55Z</time>
      </trkpt>
      <trkpt lat="44.19592" lon="5.05472">
        <ele>505.79</ele>
        <time>2011-04-29T11:05:59Z</time>
      </trkpt>
      <trkpt lat="44.19592" lon="5.05469">
        <ele>502.43</ele>
        <time>2011-04-29T11:06:05Z</time>
      </trkpt>
      <trkpt lat="44.19592" lon="5.05466">
        <ele>499.54</ele>
        <time>2011-04-29T11:06:16Z</time>
      </trkpt>
      <trkpt lat="44.19594" lon="5.05465">
        <ele>496.18</ele>
        <time>2011-04-29T11:06:39Z</time>
      </trkpt>
      <trkpt lat="44.19588" lon="5.05453">
        <ele>495.22</ele>
        <time>2011-04-29T11:08:36Z</time>
      </trkpt>
      <trkpt lat="44.19588" lon="5.05451">
        <ele>495.22</ele>
        <time>2011-04-29T11:09:28Z</time>
      </trkpt>
      <trkpt lat="44.19585" lon="5.05444">
        <ele>494.74</ele>
        <time>2011-04-29T11:11:13Z</time>
      </trkpt>
      <trkpt lat="44.19581" lon="5.05427">
        <ele>494.26</ele>
        <time>2011-04-29T11:11:26Z</time>
      </trkpt>
      <trkpt lat="44.19578" lon="5.05407">
        <ele>492.33</ele>
        <time>2011-04-29T11:11:41Z</time>
      </trkpt>
      <trkpt lat="44.19578" lon="5.05398">
        <ele>492.33</ele>
        <time>2011-04-29T11:11:47Z</time>
      </trkpt>
      <trkpt lat="44.19579" lon="5.05386">
        <ele>491.37</ele>
        <time>2011-04-29T11:11:55Z</time>
      </trkpt>
      <trkpt lat="44.19579" lon="5.05363">
        <ele>489.93</ele>
        <time>2011-04-29T11:12:10Z</time>
      </trkpt>
      <trkpt lat="44.1958" lon="5.05348">
        <ele>488.97</ele>
        <time>2011-04-29T11:12:20Z</time>
      </trkpt>
      <trkpt lat="44.1958" lon="5.05339">
        <ele>488.49</ele>
        <time>2011-04-29T11:12:26Z</time>
      </trkpt>
      <trkpt lat="44.19579" lon="5.05318">
        <ele>487.53</ele>
        <time>2011-04-29T11:12:40Z</time>
      </trkpt>
      <trkpt lat="44.19579" lon="5.05295">
        <ele>486.08</ele>
        <time>2011-04-29T11:12:55Z</time>
      </trkpt>
      <trkpt lat="44.19578" lon="5.05274">
        <ele>484.64</ele>
        <time>2011-04-29T11:13:10Z</time>
      </trkpt>
      <trkpt lat="44.19578" lon="5.05262">
        <ele>483.68</ele>
        <time>2011-04-29T11:13:18Z</time>
      </trkpt>
      <trkpt lat="44.19579" lon="5.05256">
        <ele>483.68</ele>
        <time>2011-04-29T11:13:22Z</time>
      </trkpt>
      <trkpt lat="44.1958" lon="5.05233">
        <ele>481.76</ele>
        <time>2011-04-29T11:13:38Z</time>
      </trkpt>
      <trkpt lat="44.19586" lon="5.05213">
        <ele>480.8</ele>
        <time>2011-04-29T11:13:51Z</time>
      </trkpt>
      <trkpt lat="44.19592" lon="5.05196">
        <ele>479.84</ele>
        <time>2011-04-29T11:14:03Z</time>
      </trkpt>
      <trkpt lat="44.19598" lon="5.05181">
        <ele>478.87</ele>
        <time>2011-04-29T11:14:15Z</time>
      </trkpt>
      <trkpt lat="44.19607" lon="5.05168">
        <ele>476.95</ele>
        <time>2011-04-29T11:14:27Z</time>
      </trkpt>
      <trkpt lat="44.19612" lon="5.05162">
        <ele>476.47</ele>
        <time>2011-04-29T11:14:33Z</time>
      </trkpt>
      <trkpt lat="44.19622" lon="5.05157">
        <ele>475.51</ele>
        <time>2011-04-29T11:14:41Z</time>
      </trkpt>
      <trkpt lat="44.19633" lon="5.05145">
        <ele>473.11</ele>
        <time>2011-04-29T11:14:55Z</time>
      </trkpt>
      <trkpt lat="44.19645" lon="5.05135">
        <ele>473.11</ele>
        <time>2011-04-29T11:15:06Z</time>
      </trkpt>
      <trkpt lat="44.19657" lon="5.05125">
        <ele>472.63</ele>
        <time>2011-04-29T11:15:18Z</time>
      </trkpt>
      <trkpt lat="44.19667" lon="5.05115">
        <ele>472.63</ele>
        <time>2011-04-29T11:15:29Z</time>
      </trkpt>
      <trkpt lat="44.19675" lon="5.05113">
        <ele>471.18</ele>
        <time>2011-04-29T11:15:42Z</time>
      </trkpt>
      <trkpt lat="44.19687" lon="5.05101">
        <ele>469.74</ele>
        <time>2011-04-29T11:15:55Z</time>
      </trkpt>
      <trkpt lat="44.19694" lon="5.05093">
        <ele>469.74</ele>
        <time>2011-04-29T11:16:05Z</time>
      </trkpt>
      <trkpt lat="44.19699" lon="5.05082">
        <ele>470.22</ele>
        <time>2011-04-29T11:16:17Z</time>
      </trkpt>
      <trkpt lat="44.19707" lon="5.05087">
        <ele>467.34</ele>
        <time>2011-04-29T11:16:46Z</time>
      </trkpt>
      <trkpt lat="44.19731" lon="5.05091">
        <ele>463.97</ele>
        <time>2011-04-29T11:17:38Z</time>
      </trkpt>
      <trkpt lat="44.19745" lon="5.05078">
        <ele>463.49</ele>
        <time>2011-04-29T11:17:58Z</time>
      </trkpt>
      <trkpt lat="44.19757" lon="5.05069">
        <ele>462.53</ele>
        <time>2011-04-29T11:18:20Z</time>
      </trkpt>
      <trkpt lat="44.19767" lon="5.05065">
        <ele>461.09</ele>
        <time>2011-04-29T11:18:34Z</time>
      </trkpt>
      <trkpt lat="44.19779" lon="5.05061">
        <ele>457.72</ele>
        <time>2011-04-29T11:19:13Z</time>
      </trkpt>
      <trkpt lat="44.19823" lon="5.05049">
        <ele>455.32</ele>
        <time>2011-04-29T11:19:45Z</time>
      </trkpt>
      <trkpt lat="44.19846" lon="5.05035">
        <ele>451.96</ele>
        <time>2011-04-29T11:20:22Z</time>
      </trkpt>
      <trkpt lat="44.19897" lon="5.05026">
        <ele>449.07</ele>
        <time>2011-04-29T11:20:55Z</time>
      </trkpt>
      <trkpt lat="44.19924" lon="5.05014">
        <ele>446.19</ele>
        <time>2011-04-29T11:21:25Z</time>
      </trkpt>
      <trkpt lat="44.19939" lon="5.05013">
        <ele>444.27</ele>
        <time>2011-04-29T11:21:42Z</time>
      </trkpt>
      <trkpt lat="44.19961" lon="5.05013">
        <ele>440.9</ele>
        <time>2011-04-29T11:22:08Z</time>
      </trkpt>
      <trkpt lat="44.19978" lon="5.05015">
        <ele>438.98</ele>
        <time>2011-04-29T11:22:33Z</time>
      </trkpt>
      <trkpt lat="44.20003" lon="5.05019">
        <ele>436.1</ele>
        <time>2011-04-29T11:22:57Z</time>
      </trkpt>
      <trkpt lat="44.20042" lon="5.05023">
        <ele>434.17</ele>
        <time>2011-04-29T11:23:20Z</time>
      </trkpt>
      <trkpt lat="44.20057" lon="5.05026">
        <ele>431.29</ele>
        <time>2011-04-29T11:23:51Z</time>
      </trkpt>
      <trkpt lat="44.20085" lon="5.0503">
        <ele>428.4</ele>
        <time>2011-04-29T11:24:11Z</time>
      </trkpt>
      <trkpt lat="44.20102" lon="5.0503">
        <ele>427.44</ele>
        <time>2011-04-29T11:24:27Z</time>
      </trkpt>
      <trkpt lat="44.20138" lon="5.05028">
        <ele>424.56</ele>
        <time>2011-04-29T11:25:01Z</time>
      </trkpt>
      <trkpt lat="44.20161" lon="5.05023">
        <ele>423.6</ele>
        <time>2011-04-29T11:25:23Z</time>
      </trkpt>
      <trkpt lat="44.20186" lon="5.05001">
        <ele>420.71</ele>
        <time>2011-04-29T11:26:10Z</time>
      </trkpt>
      <trkpt lat="44.20207" lon="5.04975">
        <ele>418.79</ele>
        <time>2011-04-29T11:26:36Z</time>
      </trkpt>
      <trkpt lat="44.20227" lon="5.0496">
        <ele>417.35</ele>
        <time>2011-04-29T11:26:55Z</time>
      </trkpt>
      <trkpt lat="44.20243" lon="5.04943">
        <ele>415.91</ele>
        <time>2011-04-29T11:27:14Z</time>
      </trkpt>
      <trkpt lat="44.2026" lon="5.04926">
        <ele>415.43</ele>
        <time>2011-04-29T11:27:33Z</time>
      </trkpt>
      <trkpt lat="44.20274" lon="5.04915">
        <ele>413.98</ele>
        <time>2011-04-29T11:27:50Z</time>
      </trkpt>
      <trkpt lat="44.20287" lon="5.04901">
        <ele>413.5</ele>
        <time>2011-04-29T11:28:04Z</time>
      </trkpt>
      <trkpt lat="44.20299" lon="5.04891">
        <ele>412.54</ele>
        <time>2011-04-29T11:28:15Z</time>
      </trkpt>
      <trkpt lat="44.2031" lon="5.0488">
        <ele>411.58</ele>
        <time>2011-04-29T11:28:32Z</time>
      </trkpt>
      <trkpt lat="44.2033" lon="5.04856">
        <ele>410.62</ele>
        <time>2011-04-29T11:28:55Z</time>
      </trkpt>
      <trkpt lat="44.20344" lon="5.04829">
        <ele>411.1</ele>
        <time>2011-04-29T11:29:12Z</time>
      </trkpt>
      <trkpt lat="44.20343" lon="5.04817">
        <ele>411.58</ele>
        <time>2011-04-29T11:29:24Z</time>
      </trkpt>
      <trkpt lat="44.2034" lon="5.04808">
        <ele>413.02</ele>
        <time>2011-04-29T11:29:35Z</time>
      </trkpt>
      <trkpt lat="44.20339" lon="5.04806">
        <ele>413.02</ele>
        <time>2011-04-29T11:29:37Z</time>
      </trkpt>
      <trkpt lat="44.2033" lon="5.04794">
        <ele>413.98</ele>
        <time>2011-04-29T11:29:51Z</time>
      </trkpt>
      <trkpt lat="44.20327" lon="5.04782">
        <ele>414.95</ele>
        <time>2011-04-29T11:30:02Z</time>
      </trkpt>
      <trkpt lat="44.20322" lon="5.04769">
        <ele>415.43</ele>
        <time>2011-04-29T11:30:15Z</time>
      </trkpt>
      <trkpt lat="44.20321" lon="5.04759">
        <ele>416.39</ele>
        <time>2011-04-29T11:30:25Z</time>
      </trkpt>
      <trkpt lat="44.20317" lon="5.04745">
        <ele>416.87</ele>
        <time>2011-04-29T11:30:36Z</time>
      </trkpt>
      <trkpt lat="44.20313" lon="5.04728">
        <ele>417.83</ele>
        <time>2011-04-29T11:30:49Z</time>
      </trkpt>
      <trkpt lat="44.2031" lon="5.04719">
        <ele>418.79</ele>
        <time>2011-04-29T11:30:59Z</time>
      </trkpt>
      <trkpt lat="44.2031" lon="5.04711">
        <ele>420.23</ele>
        <time>2011-04-29T11:31:10Z</time>
      </trkpt>
      <trkpt lat="44.2031" lon="5.04701">
        <ele>421.19</ele>
        <time>2011-04-29T11:31:28Z</time>
      </trkpt>
      <trkpt lat="44.2031" lon="5.04688">
        <ele>421.68</ele>
        <time>2011-04-29T11:31:38Z</time>
      </trkpt>
      <trkpt lat="44.20309" lon="5.04674">
        <ele>423.12</ele>
        <time>2011-04-29T11:31:51Z</time>
      </trkpt>
      <trkpt lat="44.20309" lon="5.04667">
        <ele>423.6</ele>
        <time>2011-04-29T11:31:57Z</time>
      </trkpt>
      <trkpt lat="44.20309" lon="5.0465">
        <ele>425.04</ele>
        <time>2011-04-29T11:32:09Z</time>
      </trkpt>
      <trkpt lat="44.20308" lon="5.04636">
        <ele>426</ele>
        <time>2011-04-29T11:32:20Z</time>
      </trkpt>
      <trkpt lat="44.20307" lon="5.04632">
        <ele>426</ele>
        <time>2011-04-29T11:32:24Z</time>
      </trkpt>
      <trkpt lat="44.20307" lon="5.04619">
        <ele>426.48</ele>
        <time>2011-04-29T11:32:34Z</time>
      </trkpt>
      <trkpt lat="44.20304" lon="5.04604">
        <ele>427.92</ele>
        <time>2011-04-29T11:32:48Z</time>
      </trkpt>
      <trkpt lat="44.20305" lon="5.04592">
        <ele>427.92</ele>
        <time>2011-04-29T11:33:03Z</time>
      </trkpt>
      <trkpt lat="44.20311" lon="5.04585">
        <ele>426.96</ele>
        <time>2011-04-29T11:33:13Z</time>
      </trkpt>
      <trkpt lat="44.2031" lon="5.04583">
        <ele>426.48</ele>
        <time>2011-04-29T11:33:37Z</time>
      </trkpt>
      <trkpt lat="44.20323" lon="5.04577">
        <ele>426</ele>
        <time>2011-04-29T11:33:56Z</time>
      </trkpt>
      <trkpt lat="44.20328" lon="5.04571">
        <ele>425.52</ele>
        <time>2011-04-29T11:34:01Z</time>
      </trkpt>
      <trkpt lat="44.2033" lon="5.04566">
        <ele>426</ele>
        <time>2011-04-29T11:34:04Z</time>
      </trkpt>
      <trkpt lat="44.20335" lon="5.04557">
        <ele>425.52</ele>
        <time>2011-04-29T11:34:11Z</time>
      </trkpt>
      <trkpt lat="44.20337" lon="5.04546">
        <ele>425.04</ele>
        <time>2011-04-29T11:34:17Z</time>
      </trkpt>
      <trkpt lat="44.20347" lon="5.04525">
        <ele>424.08</ele>
        <time>2011-04-29T11:34:32Z</time>
      </trkpt>
      <trkpt lat="44.20356" lon="5.04516">
        <ele>422.64</ele>
        <time>2011-04-29T11:34:41Z</time>
      </trkpt>
      <trkpt lat="44.20362" lon="5.04507">
        <ele>422.64</ele>
        <time>2011-04-29T11:34:48Z</time>
      </trkpt>
      <trkpt lat="44.20372" lon="5.04493">
        <ele>421.19</ele>
        <time>2011-04-29T11:35:01Z</time>
      </trkpt>
      <trkpt lat="44.20383" lon="5.04478">
        <ele>419.75</ele>
        <time>2011-04-29T11:35:15Z</time>
      </trkpt>
      <trkpt lat="44.20392" lon="5.04466">
        <ele>418.79</ele>
        <time>2011-04-29T11:35:27Z</time>
      </trkpt>
      <trkpt lat="44.20403" lon="5.04458">
        <ele>416.87</ele>
        <time>2011-04-29T11:35:40Z</time>
      </trkpt>
      <trkpt lat="44.20403" lon="5.04458">
        <ele>416.87</ele>
        <time>2011-04-29T11:35:41Z</time>
      </trkpt>
      <trkpt lat="44.20414" lon="5.04449">
        <ele>415.91</ele>
        <time>2011-04-29T11:35:51Z</time>
      </trkpt>
      <trkpt lat="44.20422" lon="5.04443">
        <ele>414.47</ele>
        <time>2011-04-29T11:36:01Z</time>
      </trkpt>
      <trkpt lat="44.20425" lon="5.04442">
        <ele>413.98</ele>
        <time>2011-04-29T11:36:04Z</time>
      </trkpt>
      <trkpt lat="44.20438" lon="5.0443">
        <ele>412.06</ele>
        <time>2011-04-29T11:36:16Z</time>
      </trkpt>
      <trkpt lat="44.20448" lon="5.04422">
        <ele>410.14</ele>
        <time>2011-04-29T11:36:28Z</time>
      </trkpt>
      <trkpt lat="44.20459" lon="5.04414">
        <ele>408.22</ele>
        <time>2011-04-29T11:36:40Z</time>
      </trkpt>
      <trkpt lat="44.2047" lon="5.04408">
        <ele>407.26</ele>
        <time>2011-04-29T11:36:50Z</time>
      </trkpt>
      <trkpt lat="44.20486" lon="5.04405">
        <ele>404.85</ele>
        <time>2011-04-29T11:37:03Z</time>
      </trkpt>
      <trkpt lat="44.20498" lon="5.04397">
        <ele>402.93</ele>
        <time>2011-04-29T11:37:15Z</time>
      </trkpt>
      <trkpt lat="44.20509" lon="5.04397">
        <ele>402.93</ele>
        <time>2011-04-29T11:37:26Z</time>
      </trkpt>
      <trkpt lat="44.20511" lon="5.04398">
        <ele>402.93</ele>
        <time>2011-04-29T11:37:27Z</time>
      </trkpt>
      <trkpt lat="44.20522" lon="5.04401">
        <ele>402.93</ele>
        <time>2011-04-29T11:37:40Z</time>
      </trkpt>
      <trkpt lat="44.2053" lon="5.04405">
        <ele>402.45</ele>
        <time>2011-04-29T11:37:59Z</time>
      </trkpt>
      <trkpt lat="44.20533" lon="5.04407">
        <ele>402.45</ele>
        <time>2011-04-29T11:38:25Z</time>
      </trkpt>
      <trkpt lat="44.20543" lon="5.04407">
        <ele>402.45</ele>
        <time>2011-04-29T11:39:11Z</time>
      </trkpt>
      <trkpt lat="44.20552" lon="5.04407">
        <ele>401.49</ele>
        <time>2011-04-29T11:39:22Z</time>
      </trkpt>
      <trkpt lat="44.20571" lon="5.04404">
        <ele>401.97</ele>
        <time>2011-04-29T11:39:34Z</time>
      </trkpt>
      <trkpt lat="44.20573" lon="5.04404">
        <ele>401.97</ele>
        <time>2011-04-29T11:39:36Z</time>
      </trkpt>
      <trkpt lat="44.20583" lon="5.04403">
        <ele>401.49</ele>
        <time>2011-04-29T11:39:49Z</time>
      </trkpt>
      <trkpt lat="44.20589" lon="5.04402">
        <ele>401.97</ele>
        <time>2011-04-29T11:39:54Z</time>
      </trkpt>
      <trkpt lat="44.20605" lon="5.04405">
        <ele>402.45</ele>
        <time>2011-04-29T11:40:07Z</time>
      </trkpt>
      <trkpt lat="44.20616" lon="5.04408">
        <ele>401.49</ele>
        <time>2011-04-29T11:40:18Z</time>
      </trkpt>
      <trkpt lat="44.20634" lon="5.04413">
        <ele>401.97</ele>
        <time>2011-04-29T11:40:32Z</time>
      </trkpt>
      <trkpt lat="44.20638" lon="5.04414">
        <ele>401.49</ele>
        <time>2011-04-29T11:40:36Z</time>
      </trkpt>
      <trkpt lat="44.20648" lon="5.0442">
        <ele>401.01</ele>
        <time>2011-04-29T11:40:46Z</time>
      </trkpt>
      <trkpt lat="44.20659" lon="5.04427">
        <ele>400.05</ele>
        <time>2011-04-29T11:40:57Z</time>
      </trkpt>
      <trkpt lat="44.20675" lon="5.04434">
        <ele>398.6</ele>
        <time>2011-04-29T11:41:11Z</time>
      </trkpt>
      <trkpt lat="44.20692" lon="5.04441">
        <ele>396.68</ele>
        <time>2011-04-29T11:41:24Z</time>
      </trkpt>
      <trkpt lat="44.20705" lon="5.04449">
        <ele>395.24</ele>
        <time>2011-04-29T11:41:38Z</time>
      </trkpt>
      <trkpt lat="44.2071" lon="5.04453">
        <ele>394.76</ele>
        <time>2011-04-29T11:41:43Z</time>
      </trkpt>
      <trkpt lat="44.20716" lon="5.04459">
        <ele>394.28</ele>
        <time>2011-04-29T11:41:50Z</time>
      </trkpt>
      <trkpt lat="44.2073" lon="5.04471">
        <ele>393.32</ele>
        <time>2011-04-29T11:42:02Z</time>
      </trkpt>
      <trkpt lat="44.20744" lon="5.04481">
        <ele>392.84</ele>
        <time>2011-04-29T11:42:14Z</time>
      </trkpt>
      <trkpt lat="44.20747" lon="5.04485">
        <ele>392.84</ele>
        <time>2011-04-29T11:42:29Z</time>
      </trkpt>
      <trkpt lat="44.20744" lon="5.0447">
        <ele>390.91</ele>
        <time>2011-04-29T11:42:43Z</time>
      </trkpt>
      <trkpt lat="44.20742" lon="5.04461">
        <ele>389.95</ele>
        <time>2011-04-29T11:42:55Z</time>
      </trkpt>
      <trkpt lat="44.20738" lon="5.04442">
        <ele>388.51</ele>
        <time>2011-04-29T11:43:11Z</time>
      </trkpt>
      <trkpt lat="44.20737" lon="5.04429">
        <ele>387.07</ele>
        <time>2011-04-29T11:43:24Z</time>
      </trkpt>
      <trkpt lat="44.20745" lon="5.04419">
        <ele>384.66</ele>
        <time>2011-04-29T11:43:41Z</time>
      </trkpt>
      <trkpt lat="44.20755" lon="5.04409">
        <ele>382.26</ele>
        <time>2011-04-29T11:43:54Z</time>
      </trkpt>
      <trkpt lat="44.20763" lon="5.04399">
        <ele>379.38</ele>
        <time>2011-04-29T11:44:11Z</time>
      </trkpt>
      <trkpt lat="44.20769" lon="5.04394">
        <ele>376.01</ele>
        <time>2011-04-29T11:44:28Z</time>
      </trkpt>
      <trkpt lat="44.20781" lon="5.04383">
        <ele>372.65</ele>
        <time>2011-04-29T11:44:49Z</time>
      </trkpt>
      <trkpt lat="44.20794" lon="5.04378">
        <ele>369.76</ele>
        <time>2011-04-29T11:45:09Z</time>
      </trkpt>
      <trkpt lat="44.20814" lon="5.04369">
        <ele>367.36</ele>
        <time>2011-04-29T11:45:28Z</time>
      </trkpt>
      <trkpt lat="44.20823" lon="5.04368">
        <ele>365.44</ele>
        <time>2011-04-29T11:45:40Z</time>
      </trkpt>
      <trkpt lat="44.20834" lon="5.04368">
        <ele>363.04</ele>
        <time>2011-04-29T11:45:55Z</time>
      </trkpt>
      <trkpt lat="44.20849" lon="5.04365">
        <ele>361.59</ele>
        <time>2011-04-29T11:46:07Z</time>
      </trkpt>
      <trkpt lat="44.20859" lon="5.04363">
        <ele>360.15</ele>
        <time>2011-04-29T11:46:20Z</time>
      </trkpt>
      <trkpt lat="44.20875" lon="5.04361">
        <ele>357.27</ele>
        <time>2011-04-29T11:46:42Z</time>
      </trkpt>
      <trkpt lat="44.20889" lon="5.04356">
        <ele>354.86</ele>
        <time>2011-04-29T11:46:57Z</time>
      </trkpt>
      <trkpt lat="44.20898" lon="5.04353">
        <ele>352.94</ele>
        <time>2011-04-29T11:47:11Z</time>
      </trkpt>
      <trkpt lat="44.2091" lon="5.04349">
        <ele>350.54</ele>
        <time>2011-04-29T11:47:26Z</time>
      </trkpt>
      <trkpt lat="44.20923" lon="5.04342">
        <ele>348.62</ele>
        <time>2011-04-29T11:47:37Z</time>
      </trkpt>
      <trkpt lat="44.20933" lon="5.04326">
        <ele>347.17</ele>
        <time>2011-04-29T11:47:52Z</time>
      </trkpt>
      <trkpt lat="44.2094" lon="5.04306">
        <ele>343.81</ele>
        <time>2011-04-29T11:48:07Z</time>
      </trkpt>
      <trkpt lat="44.20942" lon="5.04288">
        <ele>341.89</ele>
        <time>2011-04-29T11:48:20Z</time>
      </trkpt>
      <trkpt lat="44.20944" lon="5.04285">
        <ele>341.41</ele>
        <time>2011-04-29T11:48:23Z</time>
      </trkpt>
      <trkpt lat="44.20953" lon="5.04271">
        <ele>340.92</ele>
        <time>2011-04-29T11:48:35Z</time>
      </trkpt>
      <trkpt lat="44.20958" lon="5.04257">
        <ele>339</ele>
        <time>2011-04-29T11:48:46Z</time>
      </trkpt>
      <trkpt lat="44.20963" lon="5.04245">
        <ele>337.08</ele>
        <time>2011-04-29T11:49:09Z</time>
      </trkpt>
      <trkpt lat="44.20995" lon="5.0424">
        <ele>336.6</ele>
        <time>2011-04-29T11:49:47Z</time>
      </trkpt>
      <trkpt lat="44.21007" lon="5.04243">
        <ele>335.16</ele>
        <time>2011-04-29T11:49:58Z</time>
      </trkpt>
      <trkpt lat="44.21023" lon="5.04249">
        <ele>333.71</ele>
        <time>2011-04-29T11:50:17Z</time>
      </trkpt>
      <trkpt lat="44.21039" lon="5.04251">
        <ele>332.27</ele>
        <time>2011-04-29T11:50:28Z</time>
      </trkpt>
      <trkpt lat="44.21061" lon="5.04247">
        <ele>330.83</ele>
        <time>2011-04-29T11:50:46Z</time>
      </trkpt>
      <trkpt lat="44.21074" lon="5.0424">
        <ele>329.87</ele>
        <time>2011-04-29T11:51:00Z</time>
      </trkpt>
      <trkpt lat="44.21087" lon="5.04228">
        <ele>329.87</ele>
        <time>2011-04-29T11:51:14Z</time>
      </trkpt>
      <trkpt lat="44.21094" lon="5.04219">
        <ele>330.35</ele>
        <time>2011-04-29T11:51:23Z</time>
      </trkpt>
      <trkpt lat="44.21102" lon="5.0421">
        <ele>330.35</ele>
        <time>2011-04-29T11:51:33Z</time>
      </trkpt>
      <trkpt lat="44.21112" lon="5.04199">
        <ele>330.83</ele>
        <time>2011-04-29T11:51:45Z</time>
      </trkpt>
      <trkpt lat="44.21121" lon="5.04189">
        <ele>331.31</ele>
        <time>2011-04-29T11:51:55Z</time>
      </trkpt>
      <trkpt lat="44.21134" lon="5.04179">
        <ele>332.27</ele>
        <time>2011-04-29T11:52:09Z</time>
      </trkpt>
      <trkpt lat="44.21145" lon="5.04174">
        <ele>333.23</ele>
        <time>2011-04-29T11:52:22Z</time>
      </trkpt>
      <trkpt lat="44.21152" lon="5.04166">
        <ele>332.75</ele>
        <time>2011-04-29T11:52:32Z</time>
      </trkpt>
      <trkpt lat="44.21161" lon="5.04153">
        <ele>333.23</ele>
        <time>2011-04-29T11:52:43Z</time>
      </trkpt>
      <trkpt lat="44.21167" lon="5.04145">
        <ele>333.23</ele>
        <time>2011-04-29T11:52:50Z</time>
      </trkpt>
      <trkpt lat="44.21174" lon="5.04127">
        <ele>332.75</ele>
        <time>2011-04-29T11:53:02Z</time>
      </trkpt>
      <trkpt lat="44.21181" lon="5.04114">
        <ele>331.79</ele>
        <time>2011-04-29T11:53:11Z</time>
      </trkpt>
      <trkpt lat="44.2119" lon="5.04095">
        <ele>331.31</ele>
        <time>2011-04-29T11:53:25Z</time>
      </trkpt>
      <trkpt lat="44.21192" lon="5.04092">
        <ele>330.83</ele>
        <time>2011-04-29T11:53:28Z</time>
      </trkpt>
      <trkpt lat="44.21197" lon="5.04082">
        <ele>331.31</ele>
        <time>2011-04-29T11:53:35Z</time>
      </trkpt>
      <trkpt lat="44.21202" lon="5.04073">
        <ele>330.83</ele>
        <time>2011-04-29T11:53:42Z</time>
      </trkpt>
      <trkpt lat="44.21204" lon="5.04067">
        <ele>331.31</ele>
        <time>2011-04-29T11:53:45Z</time>
      </trkpt>
      <trkpt lat="44.21208" lon="5.04053">
        <ele>330.83</ele>
        <time>2011-04-29T11:53:57Z</time>
      </trkpt>
      <trkpt lat="44.21208" lon="5.04052">
        <ele>330.83</ele>
        <time>2011-04-29T11:53:58Z</time>
      </trkpt>
      <trkpt lat="44.21214" lon="5.04034">
        <ele>332.27</ele>
        <time>2011-04-29T11:54:10Z</time>
      </trkpt>
      <trkpt lat="44.21219" lon="5.04027">
        <ele>331.79</ele>
        <time>2011-04-29T11:54:16Z</time>
      </trkpt>
      <trkpt lat="44.21223" lon="5.04014">
        <ele>332.75</ele>
        <time>2011-04-29T11:54:25Z</time>
      </trkpt>
      <trkpt lat="44.21225" lon="5.04012">
        <ele>332.27</ele>
        <time>2011-04-29T11:54:27Z</time>
      </trkpt>
      <trkpt lat="44.21231" lon="5.04003">
        <ele>333.23</ele>
        <time>2011-04-29T11:54:38Z</time>
      </trkpt>
      <trkpt lat="44.21238" lon="5.03996">
        <ele>333.23</ele>
        <time>2011-04-29T11:54:49Z</time>
      </trkpt>
      <trkpt lat="44.21241" lon="5.03996">
        <ele>333.23</ele>
        <time>2011-04-29T11:54:52Z</time>
      </trkpt>
      <trkpt lat="44.21251" lon="5.03993">
        <ele>332.75</ele>
        <time>2011-04-29T11:55:04Z</time>
      </trkpt>
      <trkpt lat="44.21262" lon="5.03995">
        <ele>331.31</ele>
        <time>2011-04-29T11:55:18Z</time>
      </trkpt>
      <trkpt lat="44.21283" lon="5.04003">
        <ele>329.87</ele>
        <time>2011-04-29T11:55:34Z</time>
      </trkpt>
      <trkpt lat="44.21296" lon="5.04009">
        <ele>329.39</ele>
        <time>2011-04-29T11:55:48Z</time>
      </trkpt>
      <trkpt lat="44.21299" lon="5.04011">
        <ele>328.91</ele>
        <time>2011-04-29T11:55:52Z</time>
      </trkpt>
      <trkpt lat="44.21304" lon="5.04011">
        <ele>328.91</ele>
        <time>2011-04-29T11:55:55Z</time>
      </trkpt>
      <trkpt lat="44.21321" lon="5.04012">
        <ele>328.43</ele>
        <time>2011-04-29T11:56:08Z</time>
      </trkpt>
      <trkpt lat="44.21338" lon="5.04014">
        <ele>328.43</ele>
        <time>2011-04-29T11:56:24Z</time>
      </trkpt>
      <trkpt lat="44.21353" lon="5.04018">
        <ele>325.54</ele>
        <time>2011-04-29T11:56:37Z</time>
      </trkpt>
      <trkpt lat="44.21369" lon="5.04022">
        <ele>325.06</ele>
        <time>2011-04-29T11:56:48Z</time>
      </trkpt>
      <trkpt lat="44.2138" lon="5.04028">
        <ele>323.14</ele>
        <time>2011-04-29T11:57:03Z</time>
      </trkpt>
      <trkpt lat="44.21394" lon="5.04033">
        <ele>322.66</ele>
        <time>2011-04-29T11:57:13Z</time>
      </trkpt>
      <trkpt lat="44.21397" lon="5.04035">
        <ele>321.7</ele>
        <time>2011-04-29T11:57:15Z</time>
      </trkpt>
      <trkpt lat="44.21406" lon="5.04039">
        <ele>320.74</ele>
        <time>2011-04-29T11:57:20Z</time>
      </trkpt>
      <trkpt lat="44.21413" lon="5.04044">
        <ele>320.74</ele>
        <time>2011-04-29T11:57:25Z</time>
      </trkpt>
      <trkpt lat="44.21419" lon="5.04048">
        <ele>321.7</ele>
        <time>2011-04-29T11:57:30Z</time>
      </trkpt>
      <trkpt lat="44.21423" lon="5.0405">
        <ele>320.74</ele>
        <time>2011-04-29T11:57:33Z</time>
      </trkpt>
      <trkpt lat="44.21429" lon="5.04056">
        <ele>319.3</ele>
        <time>2011-04-29T11:57:38Z</time>
      </trkpt>
      <trkpt lat="44.21442" lon="5.04065">
        <ele>319.3</ele>
        <time>2011-04-29T11:57:50Z</time>
      </trkpt>
      <trkpt lat="44.21448" lon="5.04068">
        <ele>319.78</ele>
        <time>2011-04-29T11:57:56Z</time>
      </trkpt>
      <trkpt lat="44.21465" lon="5.04071">
        <ele>319.78</ele>
        <time>2011-04-29T11:58:12Z</time>
      </trkpt>
      <trkpt lat="44.21479" lon="5.04069">
        <ele>320.26</ele>
        <time>2011-04-29T11:58:25Z</time>
      </trkpt>
      <trkpt lat="44.21484" lon="5.04068">
        <ele>320.26</ele>
        <time>2011-04-29T11:58:29Z</time>
      </trkpt>
      <trkpt lat="44.21496" lon="5.04064">
        <ele>320.74</ele>
        <time>2011-04-29T11:58:40Z</time>
      </trkpt>
      <trkpt lat="44.21497" lon="5.04062">
        <ele>320.74</ele>
        <time>2011-04-29T11:58:42Z</time>
      </trkpt>
      <trkpt lat="44.21513" lon="5.04053">
        <ele>322.18</ele>
        <time>2011-04-29T11:58:56Z</time>
      </trkpt>
      <trkpt lat="44.21529" lon="5.04043">
        <ele>322.18</ele>
        <time>2011-04-29T11:59:10Z</time>
      </trkpt>
      <trkpt lat="44.21539" lon="5.04035">
        <ele>322.66</ele>
        <time>2011-04-29T11:59:23Z</time>
      </trkpt>
      <trkpt lat="44.21545" lon="5.04029">
        <ele>323.14</ele>
        <time>2011-04-29T11:59:28Z</time>
      </trkpt>
      <trkpt lat="44.21556" lon="5.04015">
        <ele>323.62</ele>
        <time>2011-04-29T11:59:39Z</time>
      </trkpt>
      <trkpt lat="44.21567" lon="5.04">
        <ele>324.1</ele>
        <time>2011-04-29T11:59:53Z</time>
      </trkpt>
      <trkpt lat="44.21575" lon="5.03987">
        <ele>324.1</ele>
        <time>2011-04-29T12:00:02Z</time>
      </trkpt>
      <trkpt lat="44.21579" lon="5.0398">
        <ele>323.14</ele>
        <time>2011-04-29T12:00:08Z</time>
      </trkpt>
      <trkpt lat="44.21593" lon="5.03983">
        <ele>324.1</ele>
        <time>2011-04-29T12:00:19Z</time>
      </trkpt>
      <trkpt lat="44.21599" lon="5.0399">
        <ele>323.14</ele>
        <time>2011-04-29T12:00:25Z</time>
      </trkpt>
      <trkpt lat="44.21604" lon="5.04">
        <ele>323.14</ele>
        <time>2011-04-29T12:00:31Z</time>
      </trkpt>
      <trkpt lat="44.21601" lon="5.04021">
        <ele>323.62</ele>
        <time>2011-04-29T12:00:45Z</time>
      </trkpt>
      <trkpt lat="44.21603" lon="5.04032">
        <ele>323.14</ele>
        <time>2011-04-29T12:00:52Z</time>
      </trkpt>
      <trkpt lat="44.21615" lon="5.04034">
        <ele>324.1</ele>
        <time>2011-04-29T12:01:05Z</time>
      </trkpt>
      <trkpt lat="44.21626" lon="5.04027">
        <ele>325.54</ele>
        <time>2011-04-29T12:01:19Z</time>
      </trkpt>
      <trkpt lat="44.21635" lon="5.04023">
        <ele>324.58</ele>
        <time>2011-04-29T12:01:27Z</time>
      </trkpt>
      <trkpt lat="44.21637" lon="5.04022">
        <ele>325.54</ele>
        <time>2011-04-29T12:01:29Z</time>
      </trkpt>
      <trkpt lat="44.21649" lon="5.04015">
        <ele>326.99</ele>
        <time>2011-04-29T12:01:38Z</time>
      </trkpt>
      <trkpt lat="44.21653" lon="5.04014">
        <ele>327.95</ele>
        <time>2011-04-29T12:01:41Z</time>
      </trkpt>
      <trkpt lat="44.21655" lon="5.04013">
        <ele>326.99</ele>
        <time>2011-04-29T12:01:42Z</time>
      </trkpt>
      <trkpt lat="44.21657" lon="5.04013">
        <ele>325.06</ele>
        <time>2011-04-29T12:01:44Z</time>
      </trkpt>
      <trkpt lat="44.21659" lon="5.04013">
        <ele>327.95</ele>
        <time>2011-04-29T12:01:46Z</time>
      </trkpt>
      <trkpt lat="44.21666" lon="5.04013">
        <ele>328.43</ele>
        <time>2011-04-29T12:01:54Z</time>
      </trkpt>
      <trkpt lat="44.2167" lon="5.04015">
        <ele>329.87</ele>
        <time>2011-04-29T12:02:03Z</time>
      </trkpt>
      <trkpt lat="44.21673" lon="5.04015">
        <ele>328.91</ele>
        <time>2011-04-29T12:02:24Z</time>
      </trkpt>
      <trkpt lat="44.21673" lon="5.04011">
        <ele>329.39</ele>
        <time>2011-04-29T12:02:39Z</time>
      </trkpt>
      <trkpt lat="44.21676" lon="5.04002">
        <ele>329.39</ele>
        <time>2011-04-29T12:05:19Z</time>
      </trkpt>
      <trkpt lat="44.2168" lon="5.03992">
        <ele>330.35</ele>
        <time>2011-04-29T12:05:29Z</time>
      </trkpt>
      <trkpt lat="44.21685" lon="5.03982">
        <ele>331.31</ele>
        <time>2011-04-29T12:05:41Z</time>
      </trkpt>
      <trkpt lat="44.21685" lon="5.03977">
        <ele>332.27</ele>
        <time>2011-04-29T12:05:45Z</time>
      </trkpt>
      <trkpt lat="44.21689" lon="5.03965">
        <ele>333.23</ele>
        <time>2011-04-29T12:05:58Z</time>
      </trkpt>
      <trkpt lat="44.21696" lon="5.0396">
        <ele>332.27</ele>
        <time>2011-04-29T12:06:09Z</time>
      </trkpt>
      <trkpt lat="44.21705" lon="5.03951">
        <ele>334.2</ele>
        <time>2011-04-29T12:06:22Z</time>
      </trkpt>
      <trkpt lat="44.21711" lon="5.03943">
        <ele>335.64</ele>
        <time>2011-04-29T12:06:35Z</time>
      </trkpt>
      <trkpt lat="44.21713" lon="5.03941">
        <ele>337.08</ele>
        <time>2011-04-29T12:06:38Z</time>
      </trkpt>
      <trkpt lat="44.21717" lon="5.03935">
        <ele>337.08</ele>
        <time>2011-04-29T12:06:46Z</time>
      </trkpt>
      <trkpt lat="44.21719" lon="5.03933">
        <ele>337.56</ele>
        <time>2011-04-29T12:06:49Z</time>
      </trkpt>
      <trkpt lat="44.21721" lon="5.03929">
        <ele>338.04</ele>
        <time>2011-04-29T12:06:53Z</time>
      </trkpt>
      <trkpt lat="44.21728" lon="5.03919">
        <ele>339.96</ele>
        <time>2011-04-29T12:07:05Z</time>
      </trkpt>
      <trkpt lat="44.21736" lon="5.03911">
        <ele>340.44</ele>
        <time>2011-04-29T12:07:17Z</time>
      </trkpt>
      <trkpt lat="44.21746" lon="5.03904">
        <ele>340.44</ele>
        <time>2011-04-29T12:07:30Z</time>
      </trkpt>
      <trkpt lat="44.21749" lon="5.039">
        <ele>340.44</ele>
        <time>2011-04-29T12:07:35Z</time>
      </trkpt>
      <trkpt lat="44.21748" lon="5.03894">
        <ele>338.52</ele>
        <time>2011-04-29T12:07:45Z</time>
      </trkpt>
      <trkpt lat="44.21749" lon="5.03891">
        <ele>337.56</ele>
        <time>2011-04-29T12:07:47Z</time>
      </trkpt>
      <trkpt lat="44.2175" lon="5.03891">
        <ele>337.56</ele>
        <time>2011-04-29T12:07:50Z</time>
      </trkpt>
      <trkpt lat="44.21748" lon="5.03888">
        <ele>336.6</ele>
        <time>2011-04-29T12:07:55Z</time>
      </trkpt>
      <trkpt lat="44.21738" lon="5.03884">
        <ele>337.08</ele>
        <time>2011-04-29T12:08:05Z</time>
      </trkpt>
      <trkpt lat="44.21731" lon="5.03877">
        <ele>337.56</ele>
        <time>2011-04-29T12:08:15Z</time>
      </trkpt>
      <trkpt lat="44.21726" lon="5.03866">
        <ele>338.52</ele>
        <time>2011-04-29T12:08:25Z</time>
      </trkpt>
      <trkpt lat="44.21723" lon="5.03856">
        <ele>338.04</ele>
        <time>2011-04-29T12:08:32Z</time>
      </trkpt>
      <trkpt lat="44.21723" lon="5.03856">
        <ele>338.04</ele>
        <time>2011-04-29T12:08:34Z</time>
      </trkpt>
      <trkpt lat="44.21724" lon="5.03835">
        <ele>338.04</ele>
        <time>2011-04-29T12:08:44Z</time>
      </trkpt>
      <trkpt lat="44.21724" lon="5.0383">
        <ele>339</ele>
        <time>2011-04-29T12:08:48Z</time>
      </trkpt>
      <trkpt lat="44.21724" lon="5.03817">
        <ele>339.48</ele>
        <time>2011-04-29T12:08:58Z</time>
      </trkpt>
      <trkpt lat="44.21722" lon="5.03801">
        <ele>339.96</ele>
        <time>2011-04-29T12:09:10Z</time>
      </trkpt>
      <trkpt lat="44.21721" lon="5.0379">
        <ele>340.92</ele>
        <time>2011-04-29T12:09:18Z</time>
      </trkpt>
      <trkpt lat="44.2172" lon="5.03781">
        <ele>341.41</ele>
        <time>2011-04-29T12:09:35Z</time>
      </trkpt>
      <trkpt lat="44.21719" lon="5.03773">
        <ele>342.37</ele>
        <time>2011-04-29T12:09:41Z</time>
      </trkpt>
      <trkpt lat="44.21717" lon="5.03769">
        <ele>346.21</ele>
        <time>2011-04-29T12:09:43Z</time>
      </trkpt>
      <trkpt lat="44.21715" lon="5.03764">
        <ele>342.85</ele>
        <time>2011-04-29T12:09:46Z</time>
      </trkpt>
      <trkpt lat="44.21704" lon="5.03741">
        <ele>342.85</ele>
        <time>2011-04-29T12:09:59Z</time>
      </trkpt>
      <trkpt lat="44.21701" lon="5.03737">
        <ele>342.37</ele>
        <time>2011-04-29T12:10:07Z</time>
      </trkpt>
      <trkpt lat="44.217" lon="5.03738">
        <ele>341.89</ele>
        <time>2011-04-29T12:10:08Z</time>
      </trkpt>
      <trkpt lat="44.21685" lon="5.03724">
        <ele>341.89</ele>
        <time>2011-04-29T12:10:17Z</time>
      </trkpt>
      <trkpt lat="44.21677" lon="5.0372">
        <ele>341.89</ele>
        <time>2011-04-29T12:10:28Z</time>
      </trkpt>
      <trkpt lat="44.21661" lon="5.0371">
        <ele>341.89</ele>
        <time>2011-04-29T12:10:41Z</time>
      </trkpt>
      <trkpt lat="44.21647" lon="5.037">
        <ele>342.37</ele>
        <time>2011-04-29T12:10:54Z</time>
      </trkpt>
      <trkpt lat="44.21645" lon="5.03696">
        <ele>342.37</ele>
        <time>2011-04-29T12:10:57Z</time>
      </trkpt>
      <trkpt lat="44.21635" lon="5.03692">
        <ele>342.37</ele>
        <time>2011-04-29T12:11:09Z</time>
      </trkpt>
      <trkpt lat="44.21626" lon="5.03686">
        <ele>342.85</ele>
        <time>2011-04-29T12:11:18Z</time>
      </trkpt>
      <trkpt lat="44.21617" lon="5.0368">
        <ele>342.85</ele>
        <time>2011-04-29T12:11:28Z</time>
      </trkpt>
      <trkpt lat="44.21605" lon="5.03669">
        <ele>342.85</ele>
        <time>2011-04-29T12:11:39Z</time>
      </trkpt>
      <trkpt lat="44.21599" lon="5.03662">
        <ele>342.85</ele>
        <time>2011-04-29T12:11:44Z</time>
      </trkpt>
      <trkpt lat="44.21587" lon="5.03655">
        <ele>343.81</ele>
        <time>2011-04-29T12:11:56Z</time>
      </trkpt>
      <trkpt lat="44.21579" lon="5.03648">
        <ele>343.81</ele>
        <time>2011-04-29T12:12:05Z</time>
      </trkpt>
      <trkpt lat="44.2157" lon="5.03641">
        <ele>344.77</ele>
        <time>2011-04-29T12:12:16Z</time>
      </trkpt>
      <trkpt lat="44.21557" lon="5.03635">
        <ele>345.25</ele>
        <time>2011-04-29T12:12:28Z</time>
      </trkpt>
      <trkpt lat="44.21547" lon="5.03631">
        <ele>345.73</ele>
        <time>2011-04-29T12:12:39Z</time>
      </trkpt>
      <trkpt lat="44.21536" lon="5.0362">
        <ele>346.69</ele>
        <time>2011-04-29T12:12:51Z</time>
      </trkpt>
      <trkpt lat="44.21527" lon="5.03608">
        <ele>347.65</ele>
        <time>2011-04-29T12:13:02Z</time>
      </trkpt>
      <trkpt lat="44.21526" lon="5.03608">
        <ele>347.65</ele>
        <time>2011-04-29T12:13:03Z</time>
      </trkpt>
      <trkpt lat="44.21516" lon="5.03597">
        <ele>348.13</ele>
        <time>2011-04-29T12:13:14Z</time>
      </trkpt>
      <trkpt lat="44.21507" lon="5.03588">
        <ele>348.13</ele>
        <time>2011-04-29T12:13:24Z</time>
      </trkpt>
      <trkpt lat="44.21506" lon="5.03588">
        <ele>348.13</ele>
        <time>2011-04-29T12:13:26Z</time>
      </trkpt>
      <trkpt lat="44.21499" lon="5.0358">
        <ele>348.13</ele>
        <time>2011-04-29T12:13:36Z</time>
      </trkpt>
      <trkpt lat="44.21498" lon="5.03578">
        <ele>348.62</ele>
        <time>2011-04-29T12:13:40Z</time>
      </trkpt>
      <trkpt lat="44.21497" lon="5.03573">
        <ele>348.13</ele>
        <time>2011-04-29T12:13:42Z</time>
      </trkpt>
      <trkpt lat="44.21494" lon="5.0356">
        <ele>347.65</ele>
        <time>2011-04-29T12:13:53Z</time>
      </trkpt>
      <trkpt lat="44.21493" lon="5.03558">
        <ele>349.1</ele>
        <time>2011-04-29T12:13:54Z</time>
      </trkpt>
      <trkpt lat="44.21492" lon="5.03548">
        <ele>349.1</ele>
        <time>2011-04-29T12:13:59Z</time>
      </trkpt>
      <trkpt lat="44.2149" lon="5.03535">
        <ele>350.06</ele>
        <time>2011-04-29T12:14:08Z</time>
      </trkpt>
      <trkpt lat="44.2149" lon="5.03522">
        <ele>350.54</ele>
        <time>2011-04-29T12:14:18Z</time>
      </trkpt>
      <trkpt lat="44.21489" lon="5.03507">
        <ele>351.5</ele>
        <time>2011-04-29T12:14:30Z</time>
      </trkpt>
      <trkpt lat="44.21491" lon="5.03496">
        <ele>352.94</ele>
        <time>2011-04-29T12:14:40Z</time>
      </trkpt>
      <trkpt lat="44.21488" lon="5.03488">
        <ele>352.94</ele>
        <time>2011-04-29T12:14:46Z</time>
      </trkpt>
      <trkpt lat="44.21484" lon="5.03481">
        <ele>353.42</ele>
        <time>2011-04-29T12:14:52Z</time>
      </trkpt>
      <trkpt lat="44.21483" lon="5.03479">
        <ele>352.94</ele>
        <time>2011-04-29T12:14:54Z</time>
      </trkpt>
      <trkpt lat="44.21482" lon="5.03468">
        <ele>352.46</ele>
        <time>2011-04-29T12:15:02Z</time>
      </trkpt>
      <trkpt lat="44.21477" lon="5.03461">
        <ele>352.46</ele>
        <time>2011-04-29T12:15:06Z</time>
      </trkpt>
      <trkpt lat="44.21474" lon="5.03458">
        <ele>352.46</ele>
        <time>2011-04-29T12:15:12Z</time>
      </trkpt>
      <trkpt lat="44.21467" lon="5.0345">
        <ele>351.5</ele>
        <time>2011-04-29T12:15:20Z</time>
      </trkpt>
      <trkpt lat="44.21466" lon="5.03431">
        <ele>351.5</ele>
        <time>2011-04-29T12:15:32Z</time>
      </trkpt>
      <trkpt lat="44.21468" lon="5.03421">
        <ele>352.46</ele>
        <time>2011-04-29T12:15:41Z</time>
      </trkpt>
      <trkpt lat="44.21472" lon="5.03403">
        <ele>351.98</ele>
        <time>2011-04-29T12:15:51Z</time>
      </trkpt>
      <trkpt lat="44.21479" lon="5.03386">
        <ele>351.98</ele>
        <time>2011-04-29T12:16:01Z</time>
      </trkpt>
      <trkpt lat="44.21481" lon="5.03385">
        <ele>351.5</ele>
        <time>2011-04-29T12:16:06Z</time>
      </trkpt>
      <trkpt lat="44.21487" lon="5.03385">
        <ele>351.5</ele>
        <time>2011-04-29T12:16:10Z</time>
      </trkpt>
      <trkpt lat="44.21501" lon="5.03379">
        <ele>351.02</ele>
        <time>2011-04-29T12:16:23Z</time>
      </trkpt>
      <trkpt lat="44.21507" lon="5.03378">
        <ele>350.54</ele>
        <time>2011-04-29T12:16:34Z</time>
      </trkpt>
      <trkpt lat="44.21508" lon="5.03377">
        <ele>350.06</ele>
        <time>2011-04-29T12:16:40Z</time>
      </trkpt>
      <trkpt lat="44.21509" lon="5.03376">
        <ele>350.06</ele>
        <time>2011-04-29T12:16:50Z</time>
      </trkpt>
      <trkpt lat="44.21509" lon="5.03376">
        <ele>350.06</ele>
        <time>2011-04-29T12:16:52Z</time>
      </trkpt>
      <trkpt lat="44.2152" lon="5.03376">
        <ele>348.13</ele>
        <time>2011-04-29T12:17:02Z</time>
      </trkpt>
      <trkpt lat="44.21532" lon="5.03373">
        <ele>346.69</ele>
        <time>2011-04-29T12:17:12Z</time>
      </trkpt>
      <trkpt lat="44.21543" lon="5.03367">
        <ele>345.73</ele>
        <time>2011-04-29T12:17:21Z</time>
      </trkpt>
      <trkpt lat="44.21545" lon="5.03365">
        <ele>345.25</ele>
        <time>2011-04-29T12:17:26Z</time>
      </trkpt>
      <trkpt lat="44.21548" lon="5.0336">
        <ele>345.25</ele>
        <time>2011-04-29T12:17:29Z</time>
      </trkpt>
      <trkpt lat="44.21553" lon="5.03355">
        <ele>345.25</ele>
        <time>2011-04-29T12:17:35Z</time>
      </trkpt>
      <trkpt lat="44.21556" lon="5.03349">
        <ele>345.25</ele>
        <time>2011-04-29T12:17:39Z</time>
      </trkpt>
      <trkpt lat="44.21556" lon="5.03341">
        <ele>344.29</ele>
        <time>2011-04-29T12:17:52Z</time>
      </trkpt>
      <trkpt lat="44.21556" lon="5.03341">
        <ele>344.29</ele>
        <time>2011-04-29T12:17:55Z</time>
      </trkpt>
      <trkpt lat="44.2155" lon="5.03334">
        <ele>343.33</ele>
        <time>2011-04-29T12:18:06Z</time>
      </trkpt>
      <trkpt lat="44.21546" lon="5.03326">
        <ele>341.41</ele>
        <time>2011-04-29T12:18:17Z</time>
      </trkpt>
      <trkpt lat="44.21543" lon="5.03319">
        <ele>341.41</ele>
        <time>2011-04-29T12:18:33Z</time>
      </trkpt>
      <trkpt lat="44.21538" lon="5.03315">
        <ele>340.44</ele>
        <time>2011-04-29T12:18:41Z</time>
      </trkpt>
      <trkpt lat="44.21536" lon="5.03311">
        <ele>338.04</ele>
        <time>2011-04-29T12:19:04Z</time>
      </trkpt>
      <trkpt lat="44.21535" lon="5.03304">
        <ele>338.04</ele>
        <time>2011-04-29T12:19:09Z</time>
      </trkpt>
      <trkpt lat="44.21535" lon="5.03301">
        <ele>338.04</ele>
        <time>2011-04-29T12:19:11Z</time>
      </trkpt>
      <trkpt lat="44.21533" lon="5.03298">
        <ele>337.08</ele>
        <time>2011-04-29T12:19:13Z</time>
      </trkpt>
      <trkpt lat="44.21531" lon="5.03297">
        <ele>337.08</ele>
        <time>2011-04-29T12:19:15Z</time>
      </trkpt>
      <trkpt lat="44.21521" lon="5.03282">
        <ele>335.64</ele>
        <time>2011-04-29T12:19:26Z</time>
      </trkpt>
      <trkpt lat="44.21518" lon="5.03278">
        <ele>336.12</ele>
        <time>2011-04-29T12:19:29Z</time>
      </trkpt>
      <trkpt lat="44.21516" lon="5.03277">
        <ele>336.12</ele>
        <time>2011-04-29T12:19:31Z</time>
      </trkpt>
      <trkpt lat="44.21513" lon="5.03273">
        <ele>334.68</ele>
        <time>2011-04-29T12:19:34Z</time>
      </trkpt>
      <trkpt lat="44.21511" lon="5.0327">
        <ele>336.12</ele>
        <time>2011-04-29T12:19:36Z</time>
      </trkpt>
      <trkpt lat="44.21504" lon="5.03262">
        <ele>334.68</ele>
        <time>2011-04-29T12:19:43Z</time>
      </trkpt>
      <trkpt lat="44.215" lon="5.03261">
        <ele>334.2</ele>
        <time>2011-04-29T12:19:47Z</time>
      </trkpt>
      <trkpt lat="44.21491" lon="5.03257">
        <ele>333.71</ele>
        <time>2011-04-29T12:19:58Z</time>
      </trkpt>
      <trkpt lat="44.21491" lon="5.03257">
        <ele>332.75</ele>
        <time>2011-04-29T12:20:18Z</time>
      </trkpt>
      <trkpt lat="44.2149" lon="5.03257">
        <ele>333.23</ele>
        <time>2011-04-29T12:20:52Z</time>
      </trkpt>
      <trkpt lat="44.21489" lon="5.03252">
        <ele>333.23</ele>
        <time>2011-04-29T12:21:12Z</time>
      </trkpt>
      <trkpt lat="44.21482" lon="5.03243">
        <ele>331.79</ele>
        <time>2011-04-29T12:21:23Z</time>
      </trkpt>
      <trkpt lat="44.21479" lon="5.03239">
        <ele>330.83</ele>
        <time>2011-04-29T12:21:28Z</time>
      </trkpt>
      <trkpt lat="44.21473" lon="5.03235">
        <ele>331.31</ele>
        <time>2011-04-29T12:21:34Z</time>
      </trkpt>
      <trkpt lat="44.21466" lon="5.03226">
        <ele>330.83</ele>
        <time>2011-04-29T12:21:45Z</time>
      </trkpt>
      <trkpt lat="44.21468" lon="5.03211">
        <ele>329.39</ele>
        <time>2011-04-29T12:21:56Z</time>
      </trkpt>
      <trkpt lat="44.2147" lon="5.03202">
        <ele>328.91</ele>
        <time>2011-04-29T12:22:06Z</time>
      </trkpt>
      <trkpt lat="44.21477" lon="5.03196">
        <ele>327.47</ele>
        <time>2011-04-29T12:22:22Z</time>
      </trkpt>
      <trkpt lat="44.2148" lon="5.03193">
        <ele>328.43</ele>
        <time>2011-04-29T12:22:25Z</time>
      </trkpt>
      <trkpt lat="44.21484" lon="5.0319">
        <ele>327.95</ele>
        <time>2011-04-29T12:22:29Z</time>
      </trkpt>
      <trkpt lat="44.21486" lon="5.03188">
        <ele>327.95</ele>
        <time>2011-04-29T12:22:32Z</time>
      </trkpt>
      <trkpt lat="44.21495" lon="5.03174">
        <ele>326.99</ele>
        <time>2011-04-29T12:22:49Z</time>
      </trkpt>
      <trkpt lat="44.21497" lon="5.03166">
        <ele>323.62</ele>
        <time>2011-04-29T12:22:56Z</time>
      </trkpt>
      <trkpt lat="44.21497" lon="5.03165">
        <ele>324.1</ele>
        <time>2011-04-29T12:22:57Z</time>
      </trkpt>
      <trkpt lat="44.21496" lon="5.0316">
        <ele>326.5</ele>
        <time>2011-04-29T12:23:00Z</time>
      </trkpt>
      <trkpt lat="44.21494" lon="5.03152">
        <ele>325.06</ele>
        <time>2011-04-29T12:23:06Z</time>
      </trkpt>
      <trkpt lat="44.21488" lon="5.03146">
        <ele>323.62</ele>
        <time>2011-04-29T12:23:16Z</time>
      </trkpt>
      <trkpt lat="44.21484" lon="5.03137">
        <ele>323.14</ele>
        <time>2011-04-29T12:23:23Z</time>
      </trkpt>
      <trkpt lat="44.21482" lon="5.03135">
        <ele>322.18</ele>
        <time>2011-04-29T12:23:25Z</time>
      </trkpt>
      <trkpt lat="44.21477" lon="5.0313">
        <ele>322.18</ele>
        <time>2011-04-29T12:23:32Z</time>
      </trkpt>
      <trkpt lat="44.21471" lon="5.03124">
        <ele>321.7</ele>
        <time>2011-04-29T12:23:39Z</time>
      </trkpt>
      <trkpt lat="44.21468" lon="5.03116">
        <ele>320.74</ele>
        <time>2011-04-29T12:23:44Z</time>
      </trkpt>
      <trkpt lat="44.21463" lon="5.0311">
        <ele>319.78</ele>
        <time>2011-04-29T12:23:50Z</time>
      </trkpt>
      <trkpt lat="44.2146" lon="5.03109">
        <ele>319.78</ele>
        <time>2011-04-29T12:23:53Z</time>
      </trkpt>
      <trkpt lat="44.21451" lon="5.03104">
        <ele>320.26</ele>
        <time>2011-04-29T12:24:05Z</time>
      </trkpt>
      <trkpt lat="44.2145" lon="5.03105">
        <ele>320.26</ele>
        <time>2011-04-29T12:24:28Z</time>
      </trkpt>
      <trkpt lat="44.21449" lon="5.03104">
        <ele>320.26</ele>
        <time>2011-04-29T12:24:46Z</time>
      </trkpt>
      <trkpt lat="44.21449" lon="5.03104">
        <ele>319.78</ele>
        <time>2011-04-29T12:25:11Z</time>
      </trkpt>
      <trkpt lat="44.21448" lon="5.03101">
        <ele>320.26</ele>
        <time>2011-04-29T12:25:42Z</time>
      </trkpt>
      <trkpt lat="44.21445" lon="5.03092">
        <ele>319.78</ele>
        <time>2011-04-29T12:25:50Z</time>
      </trkpt>
      <trkpt lat="44.21445" lon="5.03083">
        <ele>320.74</ele>
        <time>2011-04-29T12:25:57Z</time>
      </trkpt>
      <trkpt lat="44.21443" lon="5.0306">
        <ele>321.7</ele>
        <time>2011-04-29T12:26:13Z</time>
      </trkpt>
      <trkpt lat="44.2144" lon="5.0304">
        <ele>323.62</ele>
        <time>2011-04-29T12:26:28Z</time>
      </trkpt>
      <trkpt lat="44.21439" lon="5.03032">
        <ele>324.1</ele>
        <time>2011-04-29T12:26:40Z</time>
      </trkpt>
      <trkpt lat="44.2144" lon="5.03031">
        <ele>323.62</ele>
        <time>2011-04-29T12:26:57Z</time>
      </trkpt>
      <trkpt lat="44.21443" lon="5.03031">
        <ele>324.1</ele>
        <time>2011-04-29T12:27:10Z</time>
      </trkpt>
      <trkpt lat="44.21447" lon="5.03029">
        <ele>323.62</ele>
        <time>2011-04-29T12:27:15Z</time>
      </trkpt>
      <trkpt lat="44.21452" lon="5.0302">
        <ele>322.18</ele>
        <time>2011-04-29T12:27:26Z</time>
      </trkpt>
      <trkpt lat="44.21451" lon="5.03013">
        <ele>321.7</ele>
        <time>2011-04-29T12:27:31Z</time>
      </trkpt>
      <trkpt lat="44.21452" lon="5.03006">
        <ele>320.74</ele>
        <time>2011-04-29T12:27:35Z</time>
      </trkpt>
      <trkpt lat="44.2145" lon="5.03">
        <ele>320.74</ele>
        <time>2011-04-29T12:27:47Z</time>
      </trkpt>
      <trkpt lat="44.21451" lon="5.02991">
        <ele>320.26</ele>
        <time>2011-04-29T12:27:57Z</time>
      </trkpt>
      <trkpt lat="44.21453" lon="5.02973">
        <ele>320.74</ele>
        <time>2011-04-29T12:28:11Z</time>
      </trkpt>
      <trkpt lat="44.21457" lon="5.02961">
        <ele>321.22</ele>
        <time>2011-04-29T12:28:19Z</time>
      </trkpt>
      <trkpt lat="44.21464" lon="5.02951">
        <ele>321.7</ele>
        <time>2011-04-29T12:28:30Z</time>
      </trkpt>
      <trkpt lat="44.21469" lon="5.0294">
        <ele>321.22</ele>
        <time>2011-04-29T12:28:38Z</time>
      </trkpt>
      <trkpt lat="44.21477" lon="5.0293">
        <ele>321.22</ele>
        <time>2011-04-29T12:28:47Z</time>
      </trkpt>
      <trkpt lat="44.21483" lon="5.0292">
        <ele>321.7</ele>
        <time>2011-04-29T12:28:54Z</time>
      </trkpt>
      <trkpt lat="44.21484" lon="5.02909">
        <ele>321.7</ele>
        <time>2011-04-29T12:28:59Z</time>
      </trkpt>
      <trkpt lat="44.21492" lon="5.02892">
        <ele>321.22</ele>
        <time>2011-04-29T12:29:11Z</time>
      </trkpt>
      <trkpt lat="44.21494" lon="5.02891">
        <ele>321.22</ele>
        <time>2011-04-29T12:29:14Z</time>
      </trkpt>
      <trkpt lat="44.21509" lon="5.02899">
        <ele>322.18</ele>
        <time>2011-04-29T12:29:28Z</time>
      </trkpt>
      <trkpt lat="44.21519" lon="5.02899">
        <ele>323.62</ele>
        <time>2011-04-29T12:29:39Z</time>
      </trkpt>
      <trkpt lat="44.21532" lon="5.029">
        <ele>324.58</ele>
        <time>2011-04-29T12:29:52Z</time>
      </trkpt>
      <trkpt lat="44.21537" lon="5.02896">
        <ele>325.06</ele>
        <time>2011-04-29T12:29:56Z</time>
      </trkpt>
      <trkpt lat="44.21543" lon="5.02879">
        <ele>325.54</ele>
        <time>2011-04-29T12:30:08Z</time>
      </trkpt>
      <trkpt lat="44.21543" lon="5.02875">
        <ele>325.54</ele>
        <time>2011-04-29T12:30:14Z</time>
      </trkpt>
      <trkpt lat="44.21551" lon="5.02856">
        <ele>324.58</ele>
        <time>2011-04-29T12:30:28Z</time>
      </trkpt>
      <trkpt lat="44.21557" lon="5.02842">
        <ele>325.06</ele>
        <time>2011-04-29T12:30:40Z</time>
      </trkpt>
      <trkpt lat="44.21565" lon="5.02829">
        <ele>327.47</ele>
        <time>2011-04-29T12:30:54Z</time>
      </trkpt>
      <trkpt lat="44.21571" lon="5.02817">
        <ele>328.43</ele>
        <time>2011-04-29T12:31:06Z</time>
      </trkpt>
      <trkpt lat="44.21573" lon="5.02816">
        <ele>329.39</ele>
        <time>2011-04-29T12:31:08Z</time>
      </trkpt>
      <trkpt lat="44.21584" lon="5.02804">
        <ele>329.87</ele>
        <time>2011-04-29T12:31:20Z</time>
      </trkpt>
      <trkpt lat="44.21592" lon="5.02797">
        <ele>331.31</ele>
        <time>2011-04-29T12:31:31Z</time>
      </trkpt>
      <trkpt lat="44.21599" lon="5.0279">
        <ele>332.27</ele>
        <time>2011-04-29T12:31:39Z</time>
      </trkpt>
      <trkpt lat="44.21606" lon="5.02784">
        <ele>333.23</ele>
        <time>2011-04-29T12:31:48Z</time>
      </trkpt>
      <trkpt lat="44.21619" lon="5.02777">
        <ele>333.23</ele>
        <time>2011-04-29T12:32:02Z</time>
      </trkpt>
      <trkpt lat="44.21632" lon="5.02768">
        <ele>332.75</ele>
        <time>2011-04-29T12:32:16Z</time>
      </trkpt>
      <trkpt lat="44.21636" lon="5.02765">
        <ele>332.27</ele>
        <time>2011-04-29T12:32:20Z</time>
      </trkpt>
      <trkpt lat="44.2164" lon="5.02761">
        <ele>332.75</ele>
        <time>2011-04-29T12:32:24Z</time>
      </trkpt>
      <trkpt lat="44.21647" lon="5.02758">
        <ele>332.75</ele>
        <time>2011-04-29T12:32:32Z</time>
      </trkpt>
      <trkpt lat="44.21661" lon="5.0275">
        <ele>331.31</ele>
        <time>2011-04-29T12:32:44Z</time>
      </trkpt>
      <trkpt lat="44.21672" lon="5.02741">
        <ele>330.83</ele>
        <time>2011-04-29T12:32:56Z</time>
      </trkpt>
      <trkpt lat="44.21689" lon="5.02731">
        <ele>330.35</ele>
        <time>2011-04-29T12:33:10Z</time>
      </trkpt>
      <trkpt lat="44.217" lon="5.02724">
        <ele>329.87</ele>
        <time>2011-04-29T12:33:21Z</time>
      </trkpt>
      <trkpt lat="44.21705" lon="5.02722">
        <ele>329.87</ele>
        <time>2011-04-29T12:33:26Z</time>
      </trkpt>
      <trkpt lat="44.21712" lon="5.02719">
        <ele>330.35</ele>
        <time>2011-04-29T12:33:32Z</time>
      </trkpt>
      <trkpt lat="44.21727" lon="5.02713">
        <ele>330.35</ele>
        <time>2011-04-29T12:33:45Z</time>
      </trkpt>
      <trkpt lat="44.21741" lon="5.02705">
        <ele>330.35</ele>
        <time>2011-04-29T12:33:58Z</time>
      </trkpt>
      <trkpt lat="44.21746" lon="5.02702">
        <ele>330.83</ele>
        <time>2011-04-29T12:34:03Z</time>
      </trkpt>
      <trkpt lat="44.21758" lon="5.02696">
        <ele>332.27</ele>
        <time>2011-04-29T12:34:17Z</time>
      </trkpt>
      <trkpt lat="44.21769" lon="5.02687">
        <ele>332.75</ele>
        <time>2011-04-29T12:34:29Z</time>
      </trkpt>
      <trkpt lat="44.21774" lon="5.02685">
        <ele>333.23</ele>
        <time>2011-04-29T12:34:33Z</time>
      </trkpt>
      <trkpt lat="44.21777" lon="5.02682">
        <ele>333.23</ele>
        <time>2011-04-29T12:34:36Z</time>
      </trkpt>
      <trkpt lat="44.21782" lon="5.02676">
        <ele>332.27</ele>
        <time>2011-04-29T12:34:50Z</time>
      </trkpt>
      <trkpt lat="44.21783" lon="5.02673">
        <ele>331.79</ele>
        <time>2011-04-29T12:35:12Z</time>
      </trkpt>
      <trkpt lat="44.21785" lon="5.02672">
        <ele>331.79</ele>
        <time>2011-04-29T12:35:48Z</time>
      </trkpt>
      <trkpt lat="44.21785" lon="5.02672">
        <ele>332.27</ele>
        <time>2011-04-29T12:36:27Z</time>
      </trkpt>
      <trkpt lat="44.21786" lon="5.02661">
        <ele>330.83</ele>
        <time>2011-04-29T12:36:40Z</time>
      </trkpt>
      <trkpt lat="44.21785" lon="5.02657">
        <ele>330.35</ele>
        <time>2011-04-29T12:36:44Z</time>
      </trkpt>
      <trkpt lat="44.2178" lon="5.0264">
        <ele>328.91</ele>
        <time>2011-04-29T12:36:58Z</time>
      </trkpt>
      <trkpt lat="44.21779" lon="5.02637">
        <ele>328.91</ele>
        <time>2011-04-29T12:37:00Z</time>
      </trkpt>
      <trkpt lat="44.21777" lon="5.02632">
        <ele>327.95</ele>
        <time>2011-04-29T12:37:04Z</time>
      </trkpt>
      <trkpt lat="44.21773" lon="5.02617">
        <ele>327.47</ele>
        <time>2011-04-29T12:37:16Z</time>
      </trkpt>
      <trkpt lat="44.21772" lon="5.02611">
        <ele>326.5</ele>
        <time>2011-04-29T12:37:21Z</time>
      </trkpt>
      <trkpt lat="44.21772" lon="5.02608">
        <ele>326.02</ele>
        <time>2011-04-29T12:37:23Z</time>
      </trkpt>
      <trkpt lat="44.21771" lon="5.02593">
        <ele>324.58</ele>
        <time>2011-04-29T12:37:35Z</time>
      </trkpt>
      <trkpt lat="44.2177" lon="5.02579">
        <ele>322.66</ele>
        <time>2011-04-29T12:37:46Z</time>
      </trkpt>
      <trkpt lat="44.2177" lon="5.02566">
        <ele>320.74</ele>
        <time>2011-04-29T12:37:57Z</time>
      </trkpt>
      <trkpt lat="44.21772" lon="5.02552">
        <ele>318.81</ele>
        <time>2011-04-29T12:38:08Z</time>
      </trkpt>
      <trkpt lat="44.21774" lon="5.02546">
        <ele>316.89</ele>
        <time>2011-04-29T12:38:15Z</time>
      </trkpt>
      <trkpt lat="44.21778" lon="5.0254">
        <ele>315.93</ele>
        <time>2011-04-29T12:38:21Z</time>
      </trkpt>
      <trkpt lat="44.21782" lon="5.02528">
        <ele>314.01</ele>
        <time>2011-04-29T12:38:31Z</time>
      </trkpt>
      <trkpt lat="44.21784" lon="5.02514">
        <ele>312.57</ele>
        <time>2011-04-29T12:38:44Z</time>
      </trkpt>
      <trkpt lat="44.21782" lon="5.02507">
        <ele>312.57</ele>
        <time>2011-04-29T12:38:49Z</time>
      </trkpt>
      <trkpt lat="44.21775" lon="5.02498">
        <ele>310.16</ele>
        <time>2011-04-29T12:39:00Z</time>
      </trkpt>
      <trkpt lat="44.21774" lon="5.02497">
        <ele>310.16</ele>
        <time>2011-04-29T12:39:03Z</time>
      </trkpt>
      <trkpt lat="44.21767" lon="5.02485">
        <ele>307.76</ele>
        <time>2011-04-29T12:39:17Z</time>
      </trkpt>
      <trkpt lat="44.21761" lon="5.02474">
        <ele>305.36</ele>
        <time>2011-04-29T12:39:28Z</time>
      </trkpt>
      <trkpt lat="44.21756" lon="5.02466">
        <ele>303.91</ele>
        <time>2011-04-29T12:39:37Z</time>
      </trkpt>
      <trkpt lat="44.21752" lon="5.02462">
        <ele>301.99</ele>
        <time>2011-04-29T12:39:45Z</time>
      </trkpt>
      <trkpt lat="44.21751" lon="5.02451">
        <ele>301.03</ele>
        <time>2011-04-29T12:39:51Z</time>
      </trkpt>
      <trkpt lat="44.21745" lon="5.02436">
        <ele>298.63</ele>
        <time>2011-04-29T12:40:03Z</time>
      </trkpt>
      <trkpt lat="44.21743" lon="5.02426">
        <ele>295.74</ele>
        <time>2011-04-29T12:40:16Z</time>
      </trkpt>
      <trkpt lat="44.21739" lon="5.02414">
        <ele>293.82</ele>
        <time>2011-04-29T12:40:27Z</time>
      </trkpt>
      <trkpt lat="44.21738" lon="5.02402">
        <ele>291.42</ele>
        <time>2011-04-29T12:40:37Z</time>
      </trkpt>
      <trkpt lat="44.21737" lon="5.02401">
        <ele>291.42</ele>
        <time>2011-04-29T12:40:38Z</time>
      </trkpt>
      <trkpt lat="44.21734" lon="5.02393">
        <ele>289.49</ele>
        <time>2011-04-29T12:40:45Z</time>
      </trkpt>
      <trkpt lat="44.21731" lon="5.02377">
        <ele>288.05</ele>
        <time>2011-04-29T12:40:59Z</time>
      </trkpt>
      <trkpt lat="44.2173" lon="5.02375">
        <ele>288.05</ele>
        <time>2011-04-29T12:41:02Z</time>
      </trkpt>
      <trkpt lat="44.21718" lon="5.02369">
        <ele>288.05</ele>
        <time>2011-04-29T12:41:15Z</time>
      </trkpt>
      <trkpt lat="44.21716" lon="5.02369">
        <ele>288.05</ele>
        <time>2011-04-29T12:41:17Z</time>
      </trkpt>
      <trkpt lat="44.21707" lon="5.02363">
        <ele>288.53</ele>
        <time>2011-04-29T12:41:30Z</time>
      </trkpt>
      <trkpt lat="44.21698" lon="5.02356">
        <ele>289.49</ele>
        <time>2011-04-29T12:41:40Z</time>
      </trkpt>
      <trkpt lat="44.2169" lon="5.02354">
        <ele>290.46</ele>
        <time>2011-04-29T12:41:52Z</time>
      </trkpt>
      <trkpt lat="44.21682" lon="5.02347">
        <ele>289.49</ele>
        <time>2011-04-29T12:42:04Z</time>
      </trkpt>
      <trkpt lat="44.2168" lon="5.02339">
        <ele>288.53</ele>
        <time>2011-04-29T12:42:20Z</time>
      </trkpt>
      <trkpt lat="44.21671" lon="5.02332">
        <ele>287.09</ele>
        <time>2011-04-29T12:42:31Z</time>
      </trkpt>
      <trkpt lat="44.21662" lon="5.02322">
        <ele>286.61</ele>
        <time>2011-04-29T12:42:41Z</time>
      </trkpt>
      <trkpt lat="44.2166" lon="5.02313">
        <ele>285.17</ele>
        <time>2011-04-29T12:42:49Z</time>
      </trkpt>
      <trkpt lat="44.21653" lon="5.02306">
        <ele>285.17</ele>
        <time>2011-04-29T12:42:57Z</time>
      </trkpt>
      <trkpt lat="44.21637" lon="5.02299">
        <ele>285.17</ele>
        <time>2011-04-29T12:43:10Z</time>
      </trkpt>
      <trkpt lat="44.21625" lon="5.02285">
        <ele>285.17</ele>
        <time>2011-04-29T12:43:23Z</time>
      </trkpt>
      <trkpt lat="44.21614" lon="5.02275">
        <ele>286.61</ele>
        <time>2011-04-29T12:43:35Z</time>
      </trkpt>
      <trkpt lat="44.2161" lon="5.02268">
        <ele>287.09</ele>
        <time>2011-04-29T12:43:41Z</time>
      </trkpt>
      <trkpt lat="44.21604" lon="5.02266">
        <ele>287.57</ele>
        <time>2011-04-29T12:43:45Z</time>
      </trkpt>
      <trkpt lat="44.21598" lon="5.02261">
        <ele>286.13</ele>
        <time>2011-04-29T12:43:52Z</time>
      </trkpt>
      <trkpt lat="44.21589" lon="5.02259">
        <ele>285.65</ele>
        <time>2011-04-29T12:44:08Z</time>
      </trkpt>
      <trkpt lat="44.21578" lon="5.02261">
        <ele>285.17</ele>
        <time>2011-04-29T12:44:18Z</time>
      </trkpt>
      <trkpt lat="44.21566" lon="5.02259">
        <ele>284.21</ele>
        <time>2011-04-29T12:44:31Z</time>
      </trkpt>
      <trkpt lat="44.21557" lon="5.02258">
        <ele>283.73</ele>
        <time>2011-04-29T12:44:43Z</time>
      </trkpt>
      <trkpt lat="44.21551" lon="5.02256">
        <ele>282.77</ele>
        <time>2011-04-29T12:44:54Z</time>
      </trkpt>
      <trkpt lat="44.2154" lon="5.02252">
        <ele>281.8</ele>
        <time>2011-04-29T12:45:04Z</time>
      </trkpt>
      <trkpt lat="44.21529" lon="5.0225">
        <ele>281.32</ele>
        <time>2011-04-29T12:45:12Z</time>
      </trkpt>
      <trkpt lat="44.21514" lon="5.0224">
        <ele>278.92</ele>
        <time>2011-04-29T12:45:25Z</time>
      </trkpt>
      <trkpt lat="44.21506" lon="5.02231">
        <ele>278.44</ele>
        <time>2011-04-29T12:45:34Z</time>
      </trkpt>
      <trkpt lat="44.21501" lon="5.02219">
        <ele>276.52</ele>
        <time>2011-04-29T12:45:46Z</time>
      </trkpt>
      <trkpt lat="44.21496" lon="5.02216">
        <ele>276.04</ele>
        <time>2011-04-29T12:45:51Z</time>
      </trkpt>
      <trkpt lat="44.21484" lon="5.02209">
        <ele>275.07</ele>
        <time>2011-04-29T12:46:01Z</time>
      </trkpt>
      <trkpt lat="44.21469" lon="5.02204">
        <ele>275.56</ele>
        <time>2011-04-29T12:46:14Z</time>
      </trkpt>
      <trkpt lat="44.21463" lon="5.02205">
        <ele>276.04</ele>
        <time>2011-04-29T12:46:21Z</time>
      </trkpt>
      <trkpt lat="44.21457" lon="5.0221">
        <ele>276.04</ele>
        <time>2011-04-29T12:46:26Z</time>
      </trkpt>
      <trkpt lat="44.21449" lon="5.02221">
        <ele>274.11</ele>
        <time>2011-04-29T12:46:39Z</time>
      </trkpt>
      <trkpt lat="44.21442" lon="5.0223">
        <ele>272.67</ele>
        <time>2011-04-29T12:46:50Z</time>
      </trkpt>
      <trkpt lat="44.21442" lon="5.0223">
        <ele>273.15</ele>
        <time>2011-04-29T12:46:51Z</time>
      </trkpt>
      <trkpt lat="44.21428" lon="5.02237">
        <ele>270.75</ele>
        <time>2011-04-29T12:47:03Z</time>
      </trkpt>
      <trkpt lat="44.21419" lon="5.02246">
        <ele>269.31</ele>
        <time>2011-04-29T12:47:13Z</time>
      </trkpt>
      <trkpt lat="44.21415" lon="5.02248">
        <ele>268.83</ele>
        <time>2011-04-29T12:47:18Z</time>
      </trkpt>
      <trkpt lat="44.21407" lon="5.02251">
        <ele>266.42</ele>
        <time>2011-04-29T12:47:31Z</time>
      </trkpt>
      <trkpt lat="44.21402" lon="5.02254">
        <ele>265.46</ele>
        <time>2011-04-29T12:47:37Z</time>
      </trkpt>
      <trkpt lat="44.214" lon="5.02254">
        <ele>264.98</ele>
        <time>2011-04-29T12:47:39Z</time>
      </trkpt>
      <trkpt lat="44.21393" lon="5.02256">
        <ele>263.06</ele>
        <time>2011-04-29T12:47:49Z</time>
      </trkpt>
      <trkpt lat="44.21386" lon="5.02255">
        <ele>260.65</ele>
        <time>2011-04-29T12:47:58Z</time>
      </trkpt>
      <trkpt lat="44.21378" lon="5.0225">
        <ele>259.21</ele>
        <time>2011-04-29T12:48:09Z</time>
      </trkpt>
      <trkpt lat="44.21366" lon="5.02246">
        <ele>256.33</ele>
        <time>2011-04-29T12:48:22Z</time>
      </trkpt>
      <trkpt lat="44.21356" lon="5.02238">
        <ele>253.93</ele>
        <time>2011-04-29T12:48:34Z</time>
      </trkpt>
      <trkpt lat="44.2135" lon="5.02228">
        <ele>251.52</ele>
        <time>2011-04-29T12:48:46Z</time>
      </trkpt>
      <trkpt lat="44.21345" lon="5.02213">
        <ele>249.6</ele>
        <time>2011-04-29T12:48:58Z</time>
      </trkpt>
      <trkpt lat="44.21344" lon="5.02209">
        <ele>248.16</ele>
        <time>2011-04-29T12:49:02Z</time>
      </trkpt>
      <trkpt lat="44.21339" lon="5.02201">
        <ele>247.2</ele>
        <time>2011-04-29T12:49:12Z</time>
      </trkpt>
      <trkpt lat="44.21328" lon="5.02192">
        <ele>245.75</ele>
        <time>2011-04-29T12:49:21Z</time>
      </trkpt>
      <trkpt lat="44.21327" lon="5.02191">
        <ele>245.27</ele>
        <time>2011-04-29T12:49:22Z</time>
      </trkpt>
      <trkpt lat="44.21321" lon="5.02181">
        <ele>244.79</ele>
        <time>2011-04-29T12:49:37Z</time>
      </trkpt>
      <trkpt lat="44.21317" lon="5.02174">
        <ele>244.31</ele>
        <time>2011-04-29T12:49:48Z</time>
      </trkpt>
      <trkpt lat="44.21314" lon="5.02164">
        <ele>243.35</ele>
        <time>2011-04-29T12:50:10Z</time>
      </trkpt>
      <trkpt lat="44.21309" lon="5.02158">
        <ele>241.91</ele>
        <time>2011-04-29T12:50:21Z</time>
      </trkpt>
      <trkpt lat="44.21306" lon="5.02154">
        <ele>240.95</ele>
        <time>2011-04-29T12:50:38Z</time>
      </trkpt>
      <trkpt lat="44.21304" lon="5.02153">
        <ele>240.47</ele>
        <time>2011-04-29T12:51:10Z</time>
      </trkpt>
      <trkpt lat="44.213" lon="5.02154">
        <ele>240.47</ele>
        <time>2011-04-29T12:51:27Z</time>
      </trkpt>
      <trkpt lat="44.21294" lon="5.02157">
        <ele>241.91</ele>
        <time>2011-04-29T12:51:45Z</time>
      </trkpt>
      <trkpt lat="44.21287" lon="5.02155">
        <ele>243.35</ele>
        <time>2011-04-29T12:51:57Z</time>
      </trkpt>
      <trkpt lat="44.21284" lon="5.02154">
        <ele>244.31</ele>
        <time>2011-04-29T12:52:13Z</time>
      </trkpt>
      <trkpt lat="44.2128" lon="5.02154">
        <ele>244.79</ele>
        <time>2011-04-29T12:53:00Z</time>
      </trkpt>
      <trkpt lat="44.21271" lon="5.02151">
        <ele>246.23</ele>
        <time>2011-04-29T12:53:10Z</time>
      </trkpt>
      <trkpt lat="44.21268" lon="5.02151">
        <ele>247.2</ele>
        <time>2011-04-29T12:53:24Z</time>
      </trkpt>
      <trkpt lat="44.21259" lon="5.0215">
        <ele>248.64</ele>
        <time>2011-04-29T12:53:36Z</time>
      </trkpt>
      <trkpt lat="44.21249" lon="5.02151">
        <ele>250.56</ele>
        <time>2011-04-29T12:53:50Z</time>
      </trkpt>
      <trkpt lat="44.2124" lon="5.0215">
        <ele>250.56</ele>
        <time>2011-04-29T12:54:03Z</time>
      </trkpt>
      <trkpt lat="44.21228" lon="5.02152">
        <ele>252</ele>
        <time>2011-04-29T12:54:13Z</time>
      </trkpt>
      <trkpt lat="44.21218" lon="5.02155">
        <ele>252.96</ele>
        <time>2011-04-29T12:54:22Z</time>
      </trkpt>
      <trkpt lat="44.21204" lon="5.02163">
        <ele>254.41</ele>
        <time>2011-04-29T12:54:36Z</time>
      </trkpt>
      <trkpt lat="44.21201" lon="5.02164">
        <ele>254.89</ele>
        <time>2011-04-29T12:54:42Z</time>
      </trkpt>
      <trkpt lat="44.21191" lon="5.02163">
        <ele>254.89</ele>
        <time>2011-04-29T12:54:53Z</time>
      </trkpt>
      <trkpt lat="44.2118" lon="5.02165">
        <ele>255.37</ele>
        <time>2011-04-29T12:55:04Z</time>
      </trkpt>
      <trkpt lat="44.21169" lon="5.02163">
        <ele>255.37</ele>
        <time>2011-04-29T12:55:18Z</time>
      </trkpt>
      <trkpt lat="44.21155" lon="5.02163">
        <ele>255.85</ele>
        <time>2011-04-29T12:55:32Z</time>
      </trkpt>
      <trkpt lat="44.21144" lon="5.02163">
        <ele>256.33</ele>
        <time>2011-04-29T12:55:43Z</time>
      </trkpt>
      <trkpt lat="44.2113" lon="5.02164">
        <ele>257.29</ele>
        <time>2011-04-29T12:55:56Z</time>
      </trkpt>
      <trkpt lat="44.21115" lon="5.02167">
        <ele>258.73</ele>
        <time>2011-04-29T12:56:11Z</time>
      </trkpt>
      <trkpt lat="44.21106" lon="5.02169">
        <ele>258.73</ele>
        <time>2011-04-29T12:56:22Z</time>
      </trkpt>
      <trkpt lat="44.21095" lon="5.02169">
        <ele>258.73</ele>
        <time>2011-04-29T12:56:35Z</time>
      </trkpt>
      <trkpt lat="44.21082" lon="5.02172">
        <ele>258.73</ele>
        <time>2011-04-29T12:56:49Z</time>
      </trkpt>
      <trkpt lat="44.21068" lon="5.02174">
        <ele>257.29</ele>
        <time>2011-04-29T12:57:02Z</time>
      </trkpt>
      <trkpt lat="44.21056" lon="5.02174">
        <ele>257.77</ele>
        <time>2011-04-29T12:57:14Z</time>
      </trkpt>
      <trkpt lat="44.21047" lon="5.02176">
        <ele>258.73</ele>
        <time>2011-04-29T12:57:23Z</time>
      </trkpt>
      <trkpt lat="44.21044" lon="5.02176">
        <ele>258.25</ele>
        <time>2011-04-29T12:57:26Z</time>
      </trkpt>
      <trkpt lat="44.21041" lon="5.02176">
        <ele>258.25</ele>
        <time>2011-04-29T12:57:29Z</time>
      </trkpt>
      <trkpt lat="44.21029" lon="5.02172">
        <ele>256.81</ele>
        <time>2011-04-29T12:57:42Z</time>
      </trkpt>
      <trkpt lat="44.21018" lon="5.02172">
        <ele>254.89</ele>
        <time>2011-04-29T12:57:56Z</time>
      </trkpt>
      <trkpt lat="44.21011" lon="5.02171">
        <ele>253.44</ele>
        <time>2011-04-29T12:58:02Z</time>
      </trkpt>
      <trkpt lat="44.21004" lon="5.02168">
        <ele>252.48</ele>
        <time>2011-04-29T12:58:17Z</time>
      </trkpt>
      <trkpt lat="44.20993" lon="5.02165">
        <ele>250.56</ele>
        <time>2011-04-29T12:58:31Z</time>
      </trkpt>
      <trkpt lat="44.20989" lon="5.02163">
        <ele>249.6</ele>
        <time>2011-04-29T12:58:49Z</time>
      </trkpt>
      <trkpt lat="44.20973" lon="5.02158">
        <ele>249.12</ele>
        <time>2011-04-29T12:59:02Z</time>
      </trkpt>
      <trkpt lat="44.2096" lon="5.02157">
        <ele>249.6</ele>
        <time>2011-04-29T12:59:14Z</time>
      </trkpt>
      <trkpt lat="44.20943" lon="5.02149">
        <ele>250.56</ele>
        <time>2011-04-29T12:59:28Z</time>
      </trkpt>
      <trkpt lat="44.20931" lon="5.02144">
        <ele>250.56</ele>
        <time>2011-04-29T12:59:40Z</time>
      </trkpt>
      <trkpt lat="44.20918" lon="5.02144">
        <ele>248.64</ele>
        <time>2011-04-29T12:59:55Z</time>
      </trkpt>
      <trkpt lat="44.20916" lon="5.02144">
        <ele>248.16</ele>
        <time>2011-04-29T12:59:57Z</time>
      </trkpt>
      <trkpt lat="44.20912" lon="5.02144">
        <ele>247.68</ele>
        <time>2011-04-29T13:00:13Z</time>
      </trkpt>
      <trkpt lat="44.20906" lon="5.02143">
        <ele>246.23</ele>
        <time>2011-04-29T13:00:36Z</time>
      </trkpt>
      <trkpt lat="44.20905" lon="5.02143">
        <ele>246.23</ele>
        <time>2011-04-29T13:01:08Z</time>
      </trkpt>
      <trkpt lat="44.20897" lon="5.02145">
        <ele>244.31</ele>
        <time>2011-04-29T13:01:23Z</time>
      </trkpt>
      <trkpt lat="44.20889" lon="5.02145">
        <ele>243.35</ele>
        <time>2011-04-29T13:01:42Z</time>
      </trkpt>
      <trkpt lat="44.20883" lon="5.02148">
        <ele>242.39</ele>
        <time>2011-04-29T13:01:48Z</time>
      </trkpt>
      <trkpt lat="44.20869" lon="5.02153">
        <ele>240.47</ele>
        <time>2011-04-29T13:02:03Z</time>
      </trkpt>
      <trkpt lat="44.20867" lon="5.02154">
        <ele>240.47</ele>
        <time>2011-04-29T13:02:05Z</time>
      </trkpt>
      <trkpt lat="44.20851" lon="5.02157">
        <ele>238.54</ele>
        <time>2011-04-29T13:02:18Z</time>
      </trkpt>
      <trkpt lat="44.2085" lon="5.02157">
        <ele>238.54</ele>
        <time>2011-04-29T13:02:19Z</time>
      </trkpt>
      <trkpt lat="44.20841" lon="5.0216">
        <ele>236.62</ele>
        <time>2011-04-29T13:02:28Z</time>
      </trkpt>
      <trkpt lat="44.20828" lon="5.02164">
        <ele>236.62</ele>
        <time>2011-04-29T13:02:38Z</time>
      </trkpt>
      <trkpt lat="44.20823" lon="5.02168">
        <ele>236.14</ele>
        <time>2011-04-29T13:02:42Z</time>
      </trkpt>
      <trkpt lat="44.20811" lon="5.02178">
        <ele>235.66</ele>
        <time>2011-04-29T13:02:55Z</time>
      </trkpt>
      <trkpt lat="44.20804" lon="5.02185">
        <ele>235.18</ele>
        <time>2011-04-29T13:03:02Z</time>
      </trkpt>
      <trkpt lat="44.20797" lon="5.02191">
        <ele>234.22</ele>
        <time>2011-04-29T13:03:09Z</time>
      </trkpt>
      <trkpt lat="44.20791" lon="5.022">
        <ele>233.74</ele>
        <time>2011-04-29T13:03:17Z</time>
      </trkpt>
      <trkpt lat="44.20785" lon="5.02217">
        <ele>233.26</ele>
        <time>2011-04-29T13:03:30Z</time>
      </trkpt>
      <trkpt lat="44.20777" lon="5.02232">
        <ele>232.3</ele>
        <time>2011-04-29T13:03:42Z</time>
      </trkpt>
      <trkpt lat="44.20776" lon="5.02241">
        <ele>232.3</ele>
        <time>2011-04-29T13:03:48Z</time>
      </trkpt>
      <trkpt lat="44.20779" lon="5.02248">
        <ele>232.78</ele>
        <time>2011-04-29T13:03:53Z</time>
      </trkpt>
      <trkpt lat="44.20781" lon="5.02275">
        <ele>233.74</ele>
        <time>2011-04-29T13:04:08Z</time>
      </trkpt>
      <trkpt lat="44.20778" lon="5.02292">
        <ele>234.22</ele>
        <time>2011-04-29T13:04:21Z</time>
      </trkpt>
      <trkpt lat="44.2077" lon="5.02303">
        <ele>235.18</ele>
        <time>2011-04-29T13:04:31Z</time>
      </trkpt>
      <trkpt lat="44.20764" lon="5.02323">
        <ele>236.62</ele>
        <time>2011-04-29T13:04:46Z</time>
      </trkpt>
      <trkpt lat="44.20762" lon="5.02334">
        <ele>237.1</ele>
        <time>2011-04-29T13:04:54Z</time>
      </trkpt>
      <trkpt lat="44.2076" lon="5.02345">
        <ele>237.1</ele>
        <time>2011-04-29T13:05:01Z</time>
      </trkpt>
      <trkpt lat="44.20761" lon="5.02351">
        <ele>237.58</ele>
        <time>2011-04-29T13:05:05Z</time>
      </trkpt>
      <trkpt lat="44.20763" lon="5.02357">
        <ele>238.06</ele>
        <time>2011-04-29T13:05:09Z</time>
      </trkpt>
      <trkpt lat="44.20769" lon="5.02369">
        <ele>238.54</ele>
        <time>2011-04-29T13:05:18Z</time>
      </trkpt>
      <trkpt lat="44.2077" lon="5.02375">
        <ele>239.02</ele>
        <time>2011-04-29T13:05:23Z</time>
      </trkpt>
      <trkpt lat="44.20779" lon="5.02385">
        <ele>239.99</ele>
        <time>2011-04-29T13:05:36Z</time>
      </trkpt>
      <trkpt lat="44.20789" lon="5.02396">
        <ele>240.47</ele>
        <time>2011-04-29T13:05:50Z</time>
      </trkpt>
      <trkpt lat="44.2079" lon="5.024">
        <ele>240.95</ele>
        <time>2011-04-29T13:05:53Z</time>
      </trkpt>
      <trkpt lat="44.20791" lon="5.02405">
        <ele>241.43</ele>
        <time>2011-04-29T13:05:57Z</time>
      </trkpt>
      <trkpt lat="44.20793" lon="5.02413">
        <ele>241.43</ele>
        <time>2011-04-29T13:06:02Z</time>
      </trkpt>
      <trkpt lat="44.20799" lon="5.02435">
        <ele>242.87</ele>
        <time>2011-04-29T13:06:18Z</time>
      </trkpt>
      <trkpt lat="44.20802" lon="5.02437">
        <ele>243.35</ele>
        <time>2011-04-29T13:06:22Z</time>
      </trkpt>
      <trkpt lat="44.20805" lon="5.02441">
        <ele>243.35</ele>
        <time>2011-04-29T13:06:26Z</time>
      </trkpt>
      <trkpt lat="44.2081" lon="5.02457">
        <ele>244.31</ele>
        <time>2011-04-29T13:06:39Z</time>
      </trkpt>
      <trkpt lat="44.20811" lon="5.02464">
        <ele>244.79</ele>
        <time>2011-04-29T13:06:45Z</time>
      </trkpt>
      <trkpt lat="44.20808" lon="5.02471">
        <ele>244.31</ele>
        <time>2011-04-29T13:06:59Z</time>
      </trkpt>
      <trkpt lat="44.20809" lon="5.02475">
        <ele>244.79</ele>
        <time>2011-04-29T13:07:10Z</time>
      </trkpt>
      <trkpt lat="44.20808" lon="5.02474">
        <ele>245.27</ele>
        <time>2011-04-29T13:07:49Z</time>
      </trkpt>
      <trkpt lat="44.20811" lon="5.02471">
        <ele>244.31</ele>
        <time>2011-04-29T13:08:10Z</time>
      </trkpt>
      <trkpt lat="44.20809" lon="5.02472">
        <ele>244.31</ele>
        <time>2011-04-29T13:08:13Z</time>
      </trkpt>
      <trkpt lat="44.20808" lon="5.02473">
        <ele>243.83</ele>
        <time>2011-04-29T13:08:36Z</time>
      </trkpt>
      <trkpt lat="44.2081" lon="5.02472">
        <ele>243.83</ele>
        <time>2011-04-29T13:11:58Z</time>
      </trkpt>
      <trkpt lat="44.20813" lon="5.02473">
        <ele>244.31</ele>
        <time>2011-04-29T13:12:02Z</time>
      </trkpt>
      <trkpt lat="44.20816" lon="5.02477">
        <ele>244.31</ele>
        <time>2011-04-29T13:12:07Z</time>
      </trkpt>
      <trkpt lat="44.20818" lon="5.02478">
        <ele>244.79</ele>
        <time>2011-04-29T13:12:10Z</time>
      </trkpt>
      <trkpt lat="44.20821" lon="5.02481">
        <ele>245.27</ele>
        <time>2011-04-29T13:12:17Z</time>
      </trkpt>
      <trkpt lat="44.20823" lon="5.02479">
        <ele>244.31</ele>
        <time>2011-04-29T13:12:32Z</time>
      </trkpt>
      <trkpt lat="44.20822" lon="5.02478">
        <ele>242.39</ele>
        <time>2011-04-29T13:16:03Z</time>
      </trkpt>
      <trkpt lat="44.20822" lon="5.02478">
        <ele>245.75</ele>
        <time>2011-04-29T13:16:16Z</time>
      </trkpt>
      <trkpt lat="44.20823" lon="5.02478">
        <ele>245.27</ele>
        <time>2011-04-29T13:16:17Z</time>
      </trkpt>
      <trkpt lat="44.20823" lon="5.02478">
        <ele>244.79</ele>
        <time>2011-04-29T13:16:35Z</time>
      </trkpt>
    </trkseg>
  </trk>
</gpx>